Wetterdaten: Sonntag, 28.02.2016
Datum Zeit Auen-Temp. Temp gefhlt Luftfeuchte Luftdruck Regen Wind Richtung Richtung Sonnenschein Taupunkt Windben
28.02.2016 00:00 -2,7 C -3,0 C 91 % 1004,7 hPa 0,0 mm 0,0 km/h (0 Bft) NW 315 0 min -4,0 C 0,0 km/h (0 Bft)
28.02.2016 00:01 -2,7 C -3,0 C 91 % 1004,7 hPa 0,0 mm 0,0 km/h (0 Bft) NW 315 0 min -4,0 C 0,0 km/h (0 Bft)
28.02.2016 00:02 -2,7 C -3,0 C 91 % 1004,7 hPa 0,0 mm 0,0 km/h (0 Bft) N-NW 337 0 min -4,0 C 0,0 km/h (0 Bft)
28.02.2016 00:03 -2,7 C -3,0 C 91 % 1004,7 hPa 0,0 mm 0,0 km/h (0 Bft) N-NW 337 0 min -4,0 C 0,0 km/h (0 Bft)
28.02.2016 00:04 -2,7 C -3,0 C 91 % 1004,7 hPa 0,0 mm 0,0 km/h (0 Bft) N-NW 337 0 min -4,0 C 0,0 km/h (0 Bft)
28.02.2016 00:05 -2,7 C -3,0 C 91 % 1004,7 hPa 0,0 mm 0,0 km/h (0 Bft) N-NW 337 0 min -4,0 C 0,0 km/h (0 Bft)
28.02.2016 00:06 -3,0 C -3,2 C 91 % 1004,7 hPa 0,0 mm 0,0 km/h (0 Bft) NW 315 0 min -4,3 C 0,0 km/h (0 Bft)
28.02.2016 00:07 -3,0 C -3,2 C 91 % 1004,7 hPa 0,0 mm 0,0 km/h (0 Bft) NW 315 0 min -4,3 C 0,0 km/h (0 Bft)
28.02.2016 00:08 -3,1 C -3,2 C 90 % 1004,7 hPa 0,0 mm 0,0 km/h (0 Bft) NW 315 0 min -4,5 C 0,0 km/h (0 Bft)
28.02.2016 00:09 -3,1 C -3,2 C 90 % 1004,7 hPa 0,0 mm 0,0 km/h (0 Bft) NW 315 0 min -4,5 C 0,0 km/h (0 Bft)
28.02.2016 00:10 -3,2 C -3,3 C 90 % 1004,7 hPa 0,0 mm 0,0 km/h (0 Bft) W 270 0 min -4,6 C 0,0 km/h (0 Bft)
28.02.2016 00:11 -3,2 C -3,3 C 90 % 1004,7 hPa 0,0 mm 0,0 km/h (0 Bft) W 270 0 min -4,6 C 0,0 km/h (0 Bft)
28.02.2016 00:12 -3,1 C -3,3 C 90 % 1004,7 hPa 0,0 mm 0,0 km/h (0 Bft) W 270 0 min -4,5 C 0,0 km/h (0 Bft)
28.02.2016 00:13 -3,1 C -3,3 C 90 % 1004,7 hPa 0,0 mm 0,0 km/h (0 Bft) W 270 0 min -4,5 C 0,0 km/h (0 Bft)
28.02.2016 00:14 -2,5 C -2,8 C 91 % 1004,7 hPa 0,0 mm 0,0 km/h (0 Bft) O-NO 67 0 min -3,8 C 0,0 km/h (0 Bft)
28.02.2016 00:15 -2,5 C -2,8 C 91 % 1004,7 hPa 0,0 mm 0,0 km/h (0 Bft) O-NO 67 0 min -3,8 C 0,0 km/h (0 Bft)
28.02.2016 00:16 -2,5 C -2,8 C 91 % 1004,7 hPa 0,0 mm 0,0 km/h (0 Bft) O-NO 67 0 min -3,8 C 0,0 km/h (0 Bft)
28.02.2016 00:17 -2,5 C -2,8 C 91 % 1004,7 hPa 0,0 mm 0,0 km/h (0 Bft) O-NO 67 0 min -3,8 C 0,0 km/h (0 Bft)
28.02.2016 00:18 -2,5 C -2,8 C 91 % 1004,7 hPa 0,0 mm 0,0 km/h (0 Bft) SO 135 0 min -3,8 C 0,0 km/h (0 Bft)
28.02.2016 00:19 -2,5 C -2,8 C 91 % 1004,7 hPa 0,0 mm 0,0 km/h (0 Bft) SO 135 0 min -3,8 C 0,0 km/h (0 Bft)
28.02.2016 00:20 -2,5 C -2,7 C 91 % 1004,7 hPa 0,0 mm 0,0 km/h (0 Bft) W-SW 247 0 min -3,8 C 0,0 km/h (0 Bft)
28.02.2016 00:21 -2,5 C -2,7 C 91 % 1004,7 hPa 0,0 mm 0,0 km/h (0 Bft) W-SW 247 0 min -3,8 C 0,0 km/h (0 Bft)
28.02.2016 00:22 -2,3 C -2,6 C 91 % 1004,7 hPa 0,0 mm 0,0 km/h (0 Bft) W-SW 247 0 min -3,6 C 0,0 km/h (0 Bft)
28.02.2016 00:23 -2,3 C -2,6 C 91 % 1004,7 hPa 0,0 mm 0,0 km/h (0 Bft) W-SW 247 0 min -3,6 C 0,0 km/h (0 Bft)
28.02.2016 00:24 -1,9 C -2,3 C 91 % 1004,7 hPa 0,0 mm 0,3 km/h (0 Bft) SW 225 0 min -3,2 C 3,6 km/h (1 Bft)
28.02.2016 00:25 -1,9 C -2,3 C 91 % 1004,7 hPa 0,0 mm 0,3 km/h (0 Bft) SW 225 0 min -3,2 C 3,6 km/h (1 Bft)
28.02.2016 00:26 -2,0 C -2,3 C 91 % 1004,7 hPa 0,0 mm 0,3 km/h (0 Bft) N 360 0 min -3,3 C 0,0 km/h (0 Bft)
28.02.2016 00:27 -2,0 C -2,3 C 91 % 1004,7 hPa 0,0 mm 0,3 km/h (0 Bft) N 360 0 min -3,3 C 0,0 km/h (0 Bft)
28.02.2016 00:28 -2,5 C -2,6 C 91 % 1004,7 hPa 0,0 mm 0,3 km/h (0 Bft) W 270 0 min -3,8 C 0,0 km/h (0 Bft)
28.02.2016 00:29 -2,5 C -2,6 C 91 % 1004,7 hPa 0,0 mm 0,3 km/h (0 Bft) W 270 0 min -3,8 C 0,0 km/h (0 Bft)
28.02.2016 00:30 -2,7 C -2,8 C 91 % 1004,7 hPa 0,0 mm 0,3 km/h (0 Bft) W-SW 247 0 min -4,0 C 0,0 km/h (0 Bft)
28.02.2016 00:31 -2,7 C -2,8 C 91 % 1004,7 hPa 0,0 mm 0,3 km/h (0 Bft) W-SW 247 0 min -4,0 C 0,0 km/h (0 Bft)
28.02.2016 00:32 -2,8 C -2,9 C 91 % 1004,7 hPa 0,0 mm 0,3 km/h (0 Bft) W-SW 247 0 min -4,1 C 0,0 km/h (0 Bft)
28.02.2016 00:33 -2,8 C -2,9 C 91 % 1004,7 hPa 0,0 mm 0,3 km/h (0 Bft) W-SW 247 0 min -4,1 C 0,0 km/h (0 Bft)
28.02.2016 00:34 -2,5 C -2,7 C 91 % 1004,7 hPa 0,0 mm 0,6 km/h (0 Bft) SW 225 0 min -3,8 C 3,6 km/h (1 Bft)
28.02.2016 00:35 -2,5 C -2,7 C 91 % 1004,7 hPa 0,0 mm 0,6 km/h (0 Bft) SW 225 0 min -3,8 C 3,6 km/h (1 Bft)
28.02.2016 00:36 -1,8 C -2,2 C 91 % 1004,7 hPa 0,0 mm 0,3 km/h (0 Bft) S 180 0 min -3,1 C 4,2 km/h (1 Bft)
28.02.2016 00:37 -1,8 C -2,2 C 91 % 1004,7 hPa 0,0 mm 0,3 km/h (0 Bft) S 180 0 min -3,1 C 0,0 km/h (0 Bft)
28.02.2016 00:38 -1,7 C -2,1 C 91 % 1004,7 hPa 0,0 mm 0,3 km/h (0 Bft) S 180 0 min -3,0 C 0,0 km/h (0 Bft)
28.02.2016 00:39 -1,7 C -2,1 C 91 % 1004,7 hPa 0,0 mm 0,3 km/h (0 Bft) S 180 0 min -3,0 C 0,0 km/h (0 Bft)
28.02.2016 00:40 -1,8 C -2,1 C 91 % 1004,7 hPa 0,0 mm 0,6 km/h (0 Bft) SW 225 0 min -3,1 C 3,9 km/h (1 Bft)
28.02.2016 00:41 -1,8 C -2,1 C 91 % 1004,7 hPa 0,0 mm 0,6 km/h (0 Bft) SW 225 0 min -3,1 C 3,9 km/h (1 Bft)
28.02.2016 00:42 -2,1 C -2,3 C 91 % 1004,7 hPa 0,0 mm 0,6 km/h (0 Bft) W 270 0 min -3,4 C 0,0 km/h (0 Bft)
28.02.2016 00:43 -2,1 C -2,3 C 91 % 1004,7 hPa 0,0 mm 0,6 km/h (0 Bft) W 270 0 min -3,4 C 0,0 km/h (0 Bft)
28.02.2016 00:44 -2,4 C -2,5 C 91 % 1004,7 hPa 0,0 mm 0,6 km/h (0 Bft) W 270 0 min -3,7 C 0,0 km/h (0 Bft)
28.02.2016 00:45 -2,4 C -2,5 C 91 % 1004,7 hPa 0,0 mm 0,6 km/h (0 Bft) W 270 0 min -3,7 C 0,0 km/h (0 Bft)
28.02.2016 00:46 -2,4 C -2,6 C 91 % 1004,7 hPa 0,0 mm 0,3 km/h (0 Bft) W 270 0 min -3,7 C 0,0 km/h (0 Bft)
28.02.2016 00:47 -2,4 C -2,6 C 91 % 1004,7 hPa 0,0 mm 0,3 km/h (0 Bft) W 270 0 min -3,7 C 0,0 km/h (0 Bft)
28.02.2016 00:48 -2,3 C -2,5 C 91 % 1004,7 hPa 0,0 mm 0,3 km/h (0 Bft) W 270 0 min -3,6 C 0,0 km/h (0 Bft)
28.02.2016 00:49 -2,3 C -2,5 C 91 % 1004,8 hPa 0,0 mm 0,3 km/h (0 Bft) W 270 0 min -3,6 C 0,0 km/h (0 Bft)
28.02.2016 00:50 -2,2 C -2,5 C 91 % 1004,8 hPa 0,0 mm 0,3 km/h (0 Bft) W-SW 247 0 min -3,5 C 0,0 km/h (0 Bft)
28.02.2016 00:51 -2,2 C -2,5 C 91 % 1004,8 hPa 0,0 mm 0,3 km/h (0 Bft) W-SW 247 0 min -3,5 C 0,0 km/h (0 Bft)
28.02.2016 00:52 -2,1 C -2,4 C 91 % 1004,8 hPa 0,0 mm 0,0 km/h (0 Bft) NW 315 0 min -3,4 C 0,0 km/h (0 Bft)
28.02.2016 00:53 -2,1 C -2,4 C 91 % 1004,8 hPa 0,0 mm 0,0 km/h (0 Bft) NW 315 0 min -3,4 C 0,0 km/h (0 Bft)
28.02.2016 00:54 -2,2 C -2,5 C 91 % 1004,8 hPa 0,0 mm 0,0 km/h (0 Bft) W 270 0 min -3,5 C 0,0 km/h (0 Bft)
28.02.2016 00:55 -2,2 C -2,5 C 91 % 1004,8 hPa 0,0 mm 0,0 km/h (0 Bft) W 270 0 min -3,5 C 0,0 km/h (0 Bft)
28.02.2016 00:56 -2,3 C -2,5 C 91 % 1004,8 hPa 0,0 mm 0,0 km/h (0 Bft) W-SW 247 0 min -3,6 C 0,0 km/h (0 Bft)
28.02.2016 00:57 -2,3 C -2,5 C 91 % 1004,8 hPa 0,0 mm 0,0 km/h (0 Bft) W-SW 247 0 min -3,6 C 0,0 km/h (0 Bft)
28.02.2016 00:58 -2,4 C -2,6 C 91 % 1004,8 hPa 0,0 mm 0,0 km/h (0 Bft) W 270 0 min -3,7 C 0,0 km/h (0 Bft)
28.02.2016 00:59 -2,4 C -2,6 C 91 % 1004,8 hPa 0,0 mm 0,0 km/h (0 Bft) W 270 0 min -3,7 C 0,0 km/h (0 Bft)
28.02.2016 01:00 -2,6 C -2,7 C 91 % 1004,8 hPa 0,0 mm 0,0 km/h (0 Bft) NW 315 0 min -3,9 C 0,0 km/h (0 Bft)
28.02.2016 01:02 -2,8 C -2,9 C 91 % 1004,8 hPa 0,0 mm 0,0 km/h (0 Bft) W 270 0 min -4,1 C 0,0 km/h (0 Bft)
28.02.2016 01:03 -2,8 C -2,9 C 91 % 1004,8 hPa 0,0 mm 0,0 km/h (0 Bft) W 270 0 min -4,1 C 0,0 km/h (0 Bft)
28.02.2016 01:04 -2,8 C -2,9 C 91 % 1004,8 hPa 0,0 mm 0,0 km/h (0 Bft) W-SW 247 0 min -4,1 C 0,0 km/h (0 Bft)
28.02.2016 01:05 -2,8 C -2,9 C 91 % 1004,8 hPa 0,0 mm 0,0 km/h (0 Bft) W-SW 247 0 min -4,1 C 0,0 km/h (0 Bft)
28.02.2016 01:06 -2,8 C -2,9 C 91 % 1004,8 hPa 0,0 mm 0,0 km/h (0 Bft) W 270 0 min -4,1 C 0,0 km/h (0 Bft)
28.02.2016 01:07 -2,8 C -2,9 C 91 % 1004,8 hPa 0,0 mm 0,0 km/h (0 Bft) W 270 0 min -4,1 C 0,0 km/h (0 Bft)
28.02.2016 01:08 -2,6 C -2,8 C 91 % 1004,7 hPa 0,0 mm 0,0 km/h (0 Bft) W 270 0 min -3,9 C 0,0 km/h (0 Bft)
28.02.2016 01:09 -2,6 C -2,8 C 91 % 1004,7 hPa 0,0 mm 0,0 km/h (0 Bft) W 270 0 min -3,9 C 0,0 km/h (0 Bft)
28.02.2016 01:10 -2,6 C -2,8 C 91 % 1004,7 hPa 0,0 mm 0,0 km/h (0 Bft) W-SW 247 0 min -3,9 C 0,0 km/h (0 Bft)
28.02.2016 01:11 -2,6 C -2,8 C 91 % 1004,7 hPa 0,0 mm 0,0 km/h (0 Bft) W-SW 247 0 min -3,9 C 0,0 km/h (0 Bft)
28.02.2016 01:12 -2,6 C -2,8 C 91 % 1004,7 hPa 0,0 mm 0,0 km/h (0 Bft) W-SW 247 0 min -3,9 C 0,0 km/h (0 Bft)
28.02.2016 01:13 -2,6 C -2,8 C 91 % 1004,7 hPa 0,0 mm 0,0 km/h (0 Bft) W-SW 247 0 min -3,9 C 0,0 km/h (0 Bft)
28.02.2016 01:14 -2,4 C -2,6 C 91 % 1004,7 hPa 0,0 mm 0,0 km/h (0 Bft) W 270 0 min -3,7 C 0,0 km/h (0 Bft)
28.02.2016 01:15 -2,4 C -2,6 C 91 % 1004,7 hPa 0,0 mm 0,0 km/h (0 Bft) W 270 0 min -3,7 C 0,0 km/h (0 Bft)
28.02.2016 01:16 -2,1 C -2,4 C 91 % 1004,7 hPa 0,0 mm 0,0 km/h (0 Bft) W-SW 247 0 min -3,4 C 0,0 km/h (0 Bft)
28.02.2016 01:17 -2,1 C -2,4 C 91 % 1004,7 hPa 0,0 mm 0,0 km/h (0 Bft) W-SW 247 0 min -3,4 C 0,0 km/h (0 Bft)
28.02.2016 01:18 -2,0 C -2,3 C 91 % 1004,7 hPa 0,0 mm 0,0 km/h (0 Bft) O 90 0 min -3,3 C 0,0 km/h (0 Bft)
28.02.2016 01:19 -2,0 C -2,3 C 91 % 1004,7 hPa 0,0 mm 0,0 km/h (0 Bft) O 90 0 min -3,3 C 0,0 km/h (0 Bft)
28.02.2016 01:20 -2,2 C -2,4 C 91 % 1004,7 hPa 0,0 mm 0,0 km/h (0 Bft) SO 135 0 min -3,5 C 0,0 km/h (0 Bft)
28.02.2016 01:21 -2,2 C -2,4 C 91 % 1004,7 hPa 0,0 mm 0,0 km/h (0 Bft) SO 135 0 min -3,5 C 0,0 km/h (0 Bft)
28.02.2016 01:22 -1,9 C -2,2 C 91 % 1004,7 hPa 0,0 mm 0,0 km/h (0 Bft) SW 225 0 min -3,2 C 0,0 km/h (0 Bft)
28.02.2016 01:23 -1,9 C -2,2 C 91 % 1004,7 hPa 0,0 mm 0,0 km/h (0 Bft) SW 225 0 min -3,2 C 0,0 km/h (0 Bft)
28.02.2016 01:24 -1,8 C -2,1 C 91 % 1004,7 hPa 0,0 mm 0,3 km/h (0 Bft) W-SW 247 0 min -3,1 C 3,0 km/h (1 Bft)
28.02.2016 01:25 -1,8 C -2,1 C 91 % 1004,7 hPa 0,0 mm 0,3 km/h (0 Bft) W-SW 247 0 min -3,1 C 4,5 km/h (1 Bft)
28.02.2016 01:26 -1,9 C -2,1 C 91 % 1004,7 hPa 0,0 mm 0,3 km/h (0 Bft) NW 315 0 min -3,2 C 0,0 km/h (0 Bft)
28.02.2016 01:27 -1,9 C -2,1 C 91 % 1004,7 hPa 0,0 mm 0,3 km/h (0 Bft) NW 315 0 min -3,2 C 0,0 km/h (0 Bft)
28.02.2016 01:28 -2,0 C -2,2 C 91 % 1004,6 hPa 0,0 mm 0,3 km/h (0 Bft) SW 225 0 min -3,3 C 3,3 km/h (1 Bft)
28.02.2016 01:29 -2,0 C -2,2 C 91 % 1004,6 hPa 0,0 mm 0,3 km/h (0 Bft) SW 225 0 min -3,3 C 3,3 km/h (1 Bft)
28.02.2016 01:30 -1,8 C -2,0 C 91 % 1004,6 hPa 0,0 mm 0,6 km/h (0 Bft) W-SW 247 0 min -3,1 C 0,0 km/h (0 Bft)
28.02.2016 01:31 -1,8 C -2,0 C 91 % 1004,6 hPa 0,0 mm 0,6 km/h (0 Bft) W-SW 247 0 min -3,1 C 0,0 km/h (0 Bft)
28.02.2016 01:32 -1,9 C -2,1 C 91 % 1004,6 hPa 0,0 mm 0,6 km/h (0 Bft) O-SO 112 0 min -3,2 C 0,0 km/h (0 Bft)
28.02.2016 01:33 -1,9 C -2,1 C 91 % 1004,6 hPa 0,0 mm 0,6 km/h (0 Bft) O-SO 112 0 min -3,2 C 0,0 km/h (0 Bft)
28.02.2016 01:34 -2,0 C -2,1 C 91 % 1004,6 hPa 0,0 mm 0,6 km/h (0 Bft) W-SW 247 0 min -3,3 C 0,0 km/h (0 Bft)
28.02.2016 01:35 -2,0 C -2,1 C 91 % 1004,6 hPa 0,0 mm 0,6 km/h (0 Bft) W-SW 247 0 min -3,3 C 0,0 km/h (0 Bft)
28.02.2016 01:36 -2,0 C -2,1 C 91 % 1004,6 hPa 0,0 mm 0,6 km/h (0 Bft) W-SW 247 0 min -3,3 C 0,0 km/h (0 Bft)
28.02.2016 01:37 -2,0 C -2,1 C 91 % 1004,6 hPa 0,0 mm 0,6 km/h (0 Bft) W-SW 247 0 min -3,3 C 0,0 km/h (0 Bft)
28.02.2016 01:38 -1,8 C -2,0 C 91 % 1004,6 hPa 0,0 mm 0,9 km/h (0 Bft) O-SO 112 0 min -3,1 C 0,0 km/h (0 Bft)
28.02.2016 01:39 -1,8 C -2,0 C 91 % 1004,6 hPa 0,0 mm 0,9 km/h (0 Bft) O-SO 112 0 min -3,1 C 0,0 km/h (0 Bft)
28.02.2016 01:40 -2,0 C -2,1 C 91 % 1004,6 hPa 0,0 mm 0,3 km/h (0 Bft) O 90 0 min -3,3 C 0,0 km/h (0 Bft)
28.02.2016 01:41 -2,0 C -2,1 C 91 % 1004,6 hPa 0,0 mm 0,3 km/h (0 Bft) O 90 0 min -3,3 C 0,0 km/h (0 Bft)
28.02.2016 01:42 -2,1 C -2,1 C 91 % 1004,6 hPa 0,0 mm 0,3 km/h (0 Bft) SW 225 0 min -3,4 C 0,0 km/h (0 Bft)
28.02.2016 01:43 -2,1 C -2,1 C 91 % 1004,6 hPa 0,0 mm 0,3 km/h (0 Bft) SW 225 0 min -3,4 C 0,0 km/h (0 Bft)
28.02.2016 01:44 -2,0 C -2,1 C 91 % 1004,6 hPa 0,0 mm 0,6 km/h (0 Bft) SW 225 0 min -3,3 C 3,9 km/h (1 Bft)
28.02.2016 01:45 -2,0 C -2,1 C 91 % 1004,6 hPa 0,0 mm 0,6 km/h (0 Bft) SW 225 0 min -3,3 C 7,7 km/h (2 Bft)
28.02.2016 01:46 -1,7 C -1,9 C 91 % 1004,6 hPa 0,0 mm 1,5 km/h (1 Bft) S-SW 202 0 min -3,0 C 0,0 km/h (0 Bft)
28.02.2016 01:47 -1,7 C -1,9 C 91 % 1004,6 hPa 0,0 mm 1,5 km/h (1 Bft) S-SW 202 0 min -3,0 C 0,0 km/h (0 Bft)
28.02.2016 01:48 -1,6 C -1,8 C 92 % 1004,7 hPa 0,0 mm 1,2 km/h (1 Bft) SO 135 0 min -2,7 C 0,0 km/h (0 Bft)
28.02.2016 01:49 -1,6 C -1,8 C 92 % 1004,7 hPa 0,0 mm 1,2 km/h (1 Bft) SO 135 0 min -2,7 C 0,0 km/h (0 Bft)
28.02.2016 01:50 -1,6 C -1,8 C 92 % 1004,7 hPa 0,0 mm 1,2 km/h (1 Bft) O-NO 67 0 min -2,7 C 0,0 km/h (0 Bft)
28.02.2016 01:51 -1,6 C -1,8 C 92 % 1004,7 hPa 0,0 mm 1,2 km/h (1 Bft) O-NO 67 0 min -2,7 C 0,0 km/h (0 Bft)
28.02.2016 01:52 -1,8 C -1,9 C 92 % 1004,7 hPa 0,0 mm 1,2 km/h (1 Bft) O-SO 112 0 min -2,9 C 0,0 km/h (0 Bft)
28.02.2016 01:53 -1,8 C -1,9 C 92 % 1004,7 hPa 0,0 mm 1,2 km/h (1 Bft) O-SO 112 0 min -2,9 C 0,0 km/h (0 Bft)
28.02.2016 01:54 -1,8 C -1,9 C 92 % 1004,7 hPa 0,0 mm 1,2 km/h (1 Bft) SW 225 0 min -2,9 C 0,0 km/h (0 Bft)
28.02.2016 01:55 -1,8 C -1,9 C 92 % 1004,7 hPa 0,0 mm 1,2 km/h (1 Bft) SW 225 0 min -2,9 C 0,0 km/h (0 Bft)
28.02.2016 01:56 -1,6 C -1,7 C 92 % 1004,7 hPa 0,0 mm 0,3 km/h (0 Bft) SW 225 0 min -2,7 C 3,3 km/h (1 Bft)
28.02.2016 01:58 -1,4 C -1,6 C 92 % 1004,7 hPa 0,0 mm 0,9 km/h (0 Bft) W-SW 247 0 min -2,5 C 0,0 km/h (0 Bft)
28.02.2016 01:59 -1,4 C -1,6 C 92 % 1004,7 hPa 0,0 mm 0,9 km/h (0 Bft) W-SW 247 0 min -2,5 C 0,0 km/h (0 Bft)
28.02.2016 02:00 -1,5 C -1,7 C 92 % 1004,7 hPa 0,0 mm 0,9 km/h (0 Bft) SW 225 0 min -2,6 C 0,0 km/h (0 Bft)
28.02.2016 02:01 -1,5 C -1,7 C 92 % 1004,7 hPa 0,0 mm 0,9 km/h (0 Bft) SW 225 0 min -2,6 C 0,0 km/h (0 Bft)
28.02.2016 02:03 -1,3 C -1,5 C 92 % 1004,7 hPa 0,0 mm 1,5 km/h (1 Bft) SW 225 0 min -2,4 C 5,4 km/h (1 Bft)
28.02.2016 02:04 -1,2 C -1,4 C 92 % 1004,7 hPa 0,0 mm 1,8 km/h (1 Bft) W-SW 247 0 min -2,3 C 0,0 km/h (0 Bft)
28.02.2016 02:05 -1,2 C -1,4 C 92 % 1004,7 hPa 0,0 mm 1,8 km/h (1 Bft) W-SW 247 0 min -2,3 C 0,0 km/h (0 Bft)
28.02.2016 02:06 -1,2 C -1,4 C 92 % 1004,7 hPa 0,0 mm 1,8 km/h (1 Bft) SW 225 0 min -2,3 C 0,0 km/h (0 Bft)
28.02.2016 02:07 -1,2 C -1,4 C 92 % 1004,7 hPa 0,0 mm 1,8 km/h (1 Bft) SW 225 0 min -2,3 C 0,0 km/h (0 Bft)
28.02.2016 02:08 -1,6 C -1,7 C 92 % 1004,6 hPa 0,0 mm 0,9 km/h (0 Bft) W-NW 292 0 min -2,7 C 0,0 km/h (0 Bft)
28.02.2016 02:09 -1,6 C -1,7 C 92 % 1004,6 hPa 0,0 mm 0,9 km/h (0 Bft) W-NW 292 0 min -2,7 C 0,0 km/h (0 Bft)
28.02.2016 02:10 -1,7 C -1,7 C 92 % 1004,6 hPa 0,0 mm 0,9 km/h (0 Bft) W-NW 292 0 min -2,8 C 0,0 km/h (0 Bft)
28.02.2016 02:11 -1,7 C -1,7 C 92 % 1004,6 hPa 0,0 mm 0,9 km/h (0 Bft) W-NW 292 0 min -2,8 C 0,0 km/h (0 Bft)
28.02.2016 02:12 -2,0 C -1,9 C 92 % 1004,6 hPa 0,0 mm 0,6 km/h (0 Bft) N-NO 22 0 min -3,1 C 0,0 km/h (0 Bft)
28.02.2016 02:13 -2,0 C -1,9 C 92 % 1004,6 hPa 0,0 mm 0,6 km/h (0 Bft) N-NO 22 0 min -3,1 C 0,0 km/h (0 Bft)
28.02.2016 02:14 -2,0 C -2,0 C 92 % 1004,6 hPa 0,0 mm 0,0 km/h (0 Bft) O-NO 67 0 min -3,1 C 0,0 km/h (0 Bft)
28.02.2016 02:15 -2,0 C -2,0 C 92 % 1004,6 hPa 0,0 mm 0,0 km/h (0 Bft) O-NO 67 0 min -3,1 C 0,0 km/h (0 Bft)
28.02.2016 02:16 -2,0 C -2,0 C 92 % 1004,6 hPa 0,0 mm 0,0 km/h (0 Bft) O-NO 67 0 min -3,1 C 3,0 km/h (1 Bft)
28.02.2016 02:17 -2,0 C -2,0 C 92 % 1004,6 hPa 0,0 mm 0,0 km/h (0 Bft) O-NO 67 0 min -3,1 C 3,0 km/h (1 Bft)
28.02.2016 02:18 -2,0 C -2,1 C 92 % 1004,6 hPa 0,0 mm 0,9 km/h (0 Bft) O-NO 67 0 min -3,1 C 6,6 km/h (2 Bft)
28.02.2016 02:19 -2,0 C -2,1 C 92 % 1004,6 hPa 0,0 mm 0,9 km/h (0 Bft) O-NO 67 0 min -3,1 C 6,6 km/h (2 Bft)
28.02.2016 02:20 -1,8 C -1,9 C 92 % 1004,6 hPa 0,0 mm 1,2 km/h (1 Bft) NO 45 0 min -2,9 C 0,0 km/h (0 Bft)
28.02.2016 02:21 -1,8 C -1,9 C 92 % 1004,6 hPa 0,0 mm 1,2 km/h (1 Bft) NO 45 0 min -2,9 C 0,0 km/h (0 Bft)
28.02.2016 02:22 -1,8 C -1,9 C 92 % 1004,6 hPa 0,0 mm 1,2 km/h (1 Bft) W 270 0 min -2,9 C 0,0 km/h (0 Bft)
28.02.2016 02:23 -1,8 C -1,9 C 92 % 1004,6 hPa 0,0 mm 1,2 km/h (1 Bft) W 270 0 min -2,9 C 0,0 km/h (0 Bft)
28.02.2016 02:24 -1,8 C -1,9 C 92 % 1004,6 hPa 0,0 mm 1,2 km/h (1 Bft) NO 45 0 min -2,9 C 0,0 km/h (0 Bft)
28.02.2016 02:25 -1,8 C -1,9 C 92 % 1004,6 hPa 0,0 mm 1,2 km/h (1 Bft) NO 45 0 min -2,9 C 0,0 km/h (0 Bft)
28.02.2016 02:26 -1,6 C -1,8 C 92 % 1004,6 hPa 0,0 mm 1,2 km/h (1 Bft) SW 225 0 min -2,7 C 0,0 km/h (0 Bft)
28.02.2016 02:27 -1,6 C -1,8 C 92 % 1004,6 hPa 0,0 mm 1,2 km/h (1 Bft) SW 225 0 min -2,7 C 0,0 km/h (0 Bft)
28.02.2016 02:28 -1,4 C -1,6 C 92 % 1004,4 hPa 0,0 mm 1,2 km/h (1 Bft) S-SW 202 0 min -2,5 C 0,0 km/h (0 Bft)
28.02.2016 02:29 -1,4 C -1,6 C 92 % 1004,4 hPa 0,0 mm 1,2 km/h (1 Bft) S-SW 202 0 min -2,5 C 0,0 km/h (0 Bft)
28.02.2016 02:30 -1,2 C -1,5 C 92 % 1004,4 hPa 0,0 mm 0,0 km/h (0 Bft) SW 225 0 min -2,3 C 0,0 km/h (0 Bft)
28.02.2016 02:31 -1,2 C -1,5 C 92 % 1004,4 hPa 0,0 mm 0,0 km/h (0 Bft) SW 225 0 min -2,3 C 0,0 km/h (0 Bft)
28.02.2016 02:32 -1,1 C -1,4 C 92 % 1004,4 hPa 0,0 mm 0,3 km/h (0 Bft) O-SO 112 0 min -2,2 C 3,6 km/h (1 Bft)
28.02.2016 02:33 -1,1 C -1,4 C 92 % 1004,4 hPa 0,0 mm 0,3 km/h (0 Bft) O-SO 112 0 min -2,2 C 3,6 km/h (1 Bft)
28.02.2016 02:34 -1,1 C -1,4 C 92 % 1004,4 hPa 0,0 mm 0,6 km/h (0 Bft) S 180 0 min -2,2 C 5,7 km/h (1 Bft)
28.02.2016 02:35 -1,1 C -1,4 C 92 % 1004,4 hPa 0,0 mm 0,6 km/h (0 Bft) S 180 0 min -2,2 C 5,7 km/h (1 Bft)
28.02.2016 02:36 -1,1 C -1,3 C 92 % 1004,4 hPa 0,0 mm 1,2 km/h (1 Bft) SO 135 0 min -2,2 C 0,0 km/h (0 Bft)
28.02.2016 02:37 -1,1 C -1,3 C 92 % 1004,4 hPa 0,0 mm 1,2 km/h (1 Bft) SO 135 0 min -2,2 C 0,0 km/h (0 Bft)
28.02.2016 02:38 -1,2 C -1,4 C 92 % 1004,4 hPa 0,0 mm 1,2 km/h (1 Bft) W 270 0 min -2,3 C 0,0 km/h (0 Bft)
28.02.2016 02:39 -1,2 C -1,4 C 92 % 1004,4 hPa 0,0 mm 1,2 km/h (1 Bft) W 270 0 min -2,3 C 0,0 km/h (0 Bft)
28.02.2016 02:40 -1,2 C -1,4 C 92 % 1004,4 hPa 0,0 mm 1,2 km/h (1 Bft) W 270 0 min -2,3 C 0,0 km/h (0 Bft)
28.02.2016 02:41 -1,2 C -1,4 C 92 % 1004,4 hPa 0,0 mm 1,2 km/h (1 Bft) W 270 0 min -2,3 C 0,0 km/h (0 Bft)
28.02.2016 02:42 -1,3 C -1,5 C 92 % 1004,4 hPa 0,0 mm 1,2 km/h (1 Bft) O-NO 67 0 min -2,4 C 0,0 km/h (0 Bft)
28.02.2016 02:43 -1,3 C -1,5 C 92 % 1004,4 hPa 0,0 mm 1,2 km/h (1 Bft) O-NO 67 0 min -2,4 C 0,0 km/h (0 Bft)
28.02.2016 02:44 -1,3 C -1,5 C 92 % 1004,4 hPa 0,0 mm 0,9 km/h (0 Bft) O-NO 67 0 min -2,4 C 0,0 km/h (0 Bft)
28.02.2016 02:45 -1,3 C -1,5 C 92 % 1004,4 hPa 0,0 mm 0,9 km/h (0 Bft) O-NO 67 0 min -2,4 C 0,0 km/h (0 Bft)
28.02.2016 02:46 -1,4 C -1,5 C 92 % 1004,4 hPa 0,0 mm 0,0 km/h (0 Bft) W-SW 247 0 min -2,5 C 0,0 km/h (0 Bft)
28.02.2016 02:47 -1,4 C -1,5 C 92 % 1004,4 hPa 0,0 mm 0,0 km/h (0 Bft) W-SW 247 0 min -2,5 C 0,0 km/h (0 Bft)
28.02.2016 02:48 -1,4 C -1,5 C 92 % 1004,2 hPa 0,0 mm 0,0 km/h (0 Bft) NW 315 0 min -2,5 C 0,0 km/h (0 Bft)
28.02.2016 02:49 -1,4 C -1,5 C 92 % 1004,2 hPa 0,0 mm 0,0 km/h (0 Bft) NW 315 0 min -2,5 C 0,0 km/h (0 Bft)
28.02.2016 02:50 -1,4 C -1,5 C 92 % 1004,2 hPa 0,0 mm 0,0 km/h (0 Bft) NW 315 0 min -2,5 C 0,0 km/h (0 Bft)
28.02.2016 02:51 -1,4 C -1,5 C 92 % 1004,2 hPa 0,0 mm 0,0 km/h (0 Bft) NW 315 0 min -2,5 C 0,0 km/h (0 Bft)
28.02.2016 02:52 -1,4 C -1,5 C 92 % 1004,2 hPa 0,0 mm 0,0 km/h (0 Bft) W 270 0 min -2,5 C 0,0 km/h (0 Bft)
28.02.2016 02:53 -1,4 C -1,5 C 92 % 1004,2 hPa 0,0 mm 0,0 km/h (0 Bft) W 270 0 min -2,5 C 0,0 km/h (0 Bft)
28.02.2016 02:54 -1,4 C -1,6 C 92 % 1004,2 hPa 0,0 mm 0,0 km/h (0 Bft) W 270 0 min -2,5 C 0,0 km/h (0 Bft)
28.02.2016 02:55 -1,4 C -1,6 C 92 % 1004,2 hPa 0,0 mm 0,0 km/h (0 Bft) W 270 0 min -2,5 C 0,0 km/h (0 Bft)
28.02.2016 02:56 -1,4 C -1,6 C 92 % 1004,2 hPa 0,0 mm 0,0 km/h (0 Bft) W-SW 247 0 min -2,5 C 0,0 km/h (0 Bft)
28.02.2016 02:57 -1,4 C -1,6 C 92 % 1004,2 hPa 0,0 mm 0,0 km/h (0 Bft) W-SW 247 0 min -2,5 C 0,0 km/h (0 Bft)
28.02.2016 02:58 -1,4 C -1,6 C 92 % 1004,2 hPa 0,0 mm 0,0 km/h (0 Bft) W-SW 247 0 min -2,5 C 0,0 km/h (0 Bft)
28.02.2016 02:59 -1,4 C -1,6 C 92 % 1004,2 hPa 0,0 mm 0,0 km/h (0 Bft) W-SW 247 0 min -2,5 C 0,0 km/h (0 Bft)
28.02.2016 03:00 -1,4 C -1,6 C 92 % 1004,2 hPa 0,0 mm 0,0 km/h (0 Bft) O-NO 67 0 min -2,5 C 0,0 km/h (0 Bft)
28.02.2016 03:01 -1,4 C -1,6 C 92 % 1004,2 hPa 0,0 mm 0,0 km/h (0 Bft) O-NO 67 0 min -2,5 C 0,0 km/h (0 Bft)
28.02.2016 03:02 -1,4 C -1,6 C 92 % 1004,2 hPa 0,0 mm 0,0 km/h (0 Bft) O-NO 67 0 min -2,5 C 0,0 km/h (0 Bft)
28.02.2016 03:03 -1,4 C -1,6 C 92 % 1004,2 hPa 0,0 mm 0,0 km/h (0 Bft) O-NO 67 0 min -2,5 C 0,0 km/h (0 Bft)
28.02.2016 03:04 -1,4 C -1,6 C 92 % 1004,2 hPa 0,0 mm 0,3 km/h (0 Bft) W 270 0 min -2,5 C 4,8 km/h (1 Bft)
28.02.2016 03:05 -1,4 C -1,6 C 92 % 1004,2 hPa 0,0 mm 0,3 km/h (0 Bft) W 270 0 min -2,5 C 4,8 km/h (1 Bft)
28.02.2016 03:06 -1,3 C -1,5 C 92 % 1004,2 hPa 0,0 mm 0,3 km/h (0 Bft) NW 315 0 min -2,4 C 0,0 km/h (0 Bft)
28.02.2016 03:07 -1,3 C -1,5 C 92 % 1004,2 hPa 0,0 mm 0,3 km/h (0 Bft) NW 315 0 min -2,4 C 0,0 km/h (0 Bft)
28.02.2016 03:08 -1,3 C -1,5 C 92 % 1004,1 hPa 0,0 mm 0,3 km/h (0 Bft) S 180 0 min -2,4 C 0,0 km/h (0 Bft)
28.02.2016 03:09 -1,3 C -1,5 C 92 % 1004,1 hPa 0,0 mm 0,3 km/h (0 Bft) S 180 0 min -2,4 C 0,0 km/h (0 Bft)
28.02.2016 03:10 -1,3 C -1,5 C 92 % 1004,1 hPa 0,0 mm 0,3 km/h (0 Bft) W 270 0 min -2,4 C 0,0 km/h (0 Bft)
28.02.2016 03:11 -1,3 C -1,5 C 92 % 1004,1 hPa 0,0 mm 0,3 km/h (0 Bft) W 270 0 min -2,4 C 0,0 km/h (0 Bft)
28.02.2016 03:12 -1,3 C -1,5 C 92 % 1004,1 hPa 0,0 mm 0,3 km/h (0 Bft) W 270 0 min -2,4 C 0,0 km/h (0 Bft)
28.02.2016 03:13 -1,3 C -1,5 C 92 % 1004,1 hPa 0,0 mm 0,3 km/h (0 Bft) W 270 0 min -2,4 C 0,0 km/h (0 Bft)
28.02.2016 03:14 -1,4 C -1,6 C 92 % 1004,1 hPa 0,0 mm 0,3 km/h (0 Bft) W 270 0 min -2,5 C 0,0 km/h (0 Bft)
28.02.2016 03:15 -1,4 C -1,6 C 92 % 1004,1 hPa 0,0 mm 0,3 km/h (0 Bft) W 270 0 min -2,5 C 0,0 km/h (0 Bft)
28.02.2016 03:16 -1,4 C -1,6 C 92 % 1004,1 hPa 0,0 mm 0,0 km/h (0 Bft) W 270 0 min -2,5 C 0,0 km/h (0 Bft)
28.02.2016 03:17 -1,4 C -1,6 C 92 % 1004,1 hPa 0,0 mm 0,0 km/h (0 Bft) W 270 0 min -2,5 C 0,0 km/h (0 Bft)
28.02.2016 03:18 -1,4 C -1,6 C 92 % 1004,1 hPa 0,0 mm 0,0 km/h (0 Bft) SW 225 0 min -2,5 C 0,0 km/h (0 Bft)
28.02.2016 03:19 -1,4 C -1,6 C 92 % 1004,1 hPa 0,0 mm 0,0 km/h (0 Bft) SW 225 0 min -2,5 C 0,0 km/h (0 Bft)
28.02.2016 03:20 -1,2 C -1,5 C 92 % 1004,1 hPa 0,0 mm 0,0 km/h (0 Bft) O-SO 112 0 min -2,3 C 0,0 km/h (0 Bft)
28.02.2016 03:21 -1,2 C -1,5 C 92 % 1004,1 hPa 0,0 mm 0,0 km/h (0 Bft) O-SO 112 0 min -2,3 C 0,0 km/h (0 Bft)
28.02.2016 03:22 -1,3 C -1,5 C 92 % 1004,1 hPa 0,0 mm 0,0 km/h (0 Bft) O-NO 67 0 min -2,4 C 3,0 km/h (1 Bft)
28.02.2016 03:23 -1,3 C -1,5 C 92 % 1004,1 hPa 0,0 mm 0,0 km/h (0 Bft) O-NO 67 0 min -2,4 C 3,0 km/h (1 Bft)
28.02.2016 03:24 -1,3 C -1,5 C 92 % 1004,1 hPa 0,0 mm 0,3 km/h (0 Bft) N-NO 22 0 min -2,4 C 0,0 km/h (0 Bft)
28.02.2016 03:25 -1,3 C -1,5 C 92 % 1004,1 hPa 0,0 mm 0,3 km/h (0 Bft) N-NO 22 0 min -2,4 C 0,0 km/h (0 Bft)
28.02.2016 03:26 -1,3 C -1,5 C 92 % 1004,1 hPa 0,0 mm 0,6 km/h (0 Bft) W-SW 247 0 min -2,4 C 3,9 km/h (1 Bft)
28.02.2016 03:27 -1,3 C -1,5 C 92 % 1004,1 hPa 0,0 mm 0,6 km/h (0 Bft) W-SW 247 0 min -2,4 C 3,9 km/h (1 Bft)
28.02.2016 03:28 -1,3 C -1,5 C 92 % 1004,0 hPa 0,0 mm 0,6 km/h (0 Bft) NW 315 0 min -2,4 C 0,0 km/h (0 Bft)
28.02.2016 03:29 -1,3 C -1,5 C 92 % 1004,0 hPa 0,0 mm 0,6 km/h (0 Bft) NW 315 0 min -2,4 C 0,0 km/h (0 Bft)
28.02.2016 03:30 -1,3 C -1,5 C 92 % 1004,0 hPa 0,0 mm 0,6 km/h (0 Bft) NW 315 0 min -2,4 C 0,0 km/h (0 Bft)
28.02.2016 03:31 -1,3 C -1,5 C 92 % 1004,0 hPa 0,0 mm 0,6 km/h (0 Bft) NW 315 0 min -2,4 C 0,0 km/h (0 Bft)
28.02.2016 03:32 -1,4 C -1,6 C 92 % 1004,0 hPa 0,0 mm 0,6 km/h (0 Bft) W-NW 292 0 min -2,5 C 0,0 km/h (0 Bft)
28.02.2016 03:33 -1,4 C -1,6 C 92 % 1004,0 hPa 0,0 mm 0,6 km/h (0 Bft) W-NW 292 0 min -2,5 C 0,0 km/h (0 Bft)
28.02.2016 03:34 -1,4 C -1,6 C 92 % 1004,0 hPa 0,0 mm 0,3 km/h (0 Bft) W 270 0 min -2,5 C 0,0 km/h (0 Bft)
28.02.2016 03:35 -1,4 C -1,6 C 92 % 1004,0 hPa 0,0 mm 0,3 km/h (0 Bft) W 270 0 min -2,5 C 0,0 km/h (0 Bft)
28.02.2016 03:36 -1,4 C -1,6 C 92 % 1004,0 hPa 0,0 mm 0,3 km/h (0 Bft) SW 225 0 min -2,5 C 0,0 km/h (0 Bft)
28.02.2016 03:37 -1,4 C -1,6 C 92 % 1004,0 hPa 0,0 mm 0,3 km/h (0 Bft) SW 225 0 min -2,5 C 0,0 km/h (0 Bft)
28.02.2016 03:38 -1,2 C -1,5 C 92 % 1004,0 hPa 0,0 mm 0,0 km/h (0 Bft) S 180 0 min -2,3 C 0,0 km/h (0 Bft)
28.02.2016 03:39 -1,2 C -1,5 C 92 % 1004,0 hPa 0,0 mm 0,0 km/h (0 Bft) S 180 0 min -2,3 C 0,0 km/h (0 Bft)
28.02.2016 03:40 -1,2 C -1,5 C 92 % 1004,0 hPa 0,0 mm 0,0 km/h (0 Bft) W 270 0 min -2,3 C 0,0 km/h (0 Bft)
28.02.2016 03:41 -1,2 C -1,5 C 92 % 1004,0 hPa 0,0 mm 0,0 km/h (0 Bft) W 270 0 min -2,3 C 0,0 km/h (0 Bft)
28.02.2016 03:42 -1,2 C -1,4 C 92 % 1004,0 hPa 0,0 mm 0,0 km/h (0 Bft) NW 315 0 min -2,3 C 0,0 km/h (0 Bft)
28.02.2016 03:43 -1,2 C -1,4 C 92 % 1004,0 hPa 0,0 mm 0,0 km/h (0 Bft) NW 315 0 min -2,3 C 0,0 km/h (0 Bft)
28.02.2016 03:44 -1,3 C -1,5 C 92 % 1004,0 hPa 0,0 mm 0,0 km/h (0 Bft) NO 45 0 min -2,4 C 0,0 km/h (0 Bft)
28.02.2016 03:45 -1,3 C -1,5 C 92 % 1004,0 hPa 0,0 mm 0,0 km/h (0 Bft) NO 45 0 min -2,4 C 0,0 km/h (0 Bft)
28.02.2016 03:46 -1,2 C -1,4 C 92 % 1004,0 hPa 0,0 mm 0,0 km/h (0 Bft) N-NO 22 0 min -2,3 C 0,0 km/h (0 Bft)
28.02.2016 03:47 -1,2 C -1,4 C 92 % 1004,0 hPa 0,0 mm 0,0 km/h (0 Bft) N-NO 22 0 min -2,3 C 0,0 km/h (0 Bft)
28.02.2016 03:48 -1,2 C -1,4 C 92 % 1004,1 hPa 0,0 mm 0,0 km/h (0 Bft) SW 225 0 min -2,3 C 0,0 km/h (0 Bft)
28.02.2016 03:49 -1,2 C -1,4 C 92 % 1004,1 hPa 0,0 mm 0,0 km/h (0 Bft) SW 225 0 min -2,3 C 0,0 km/h (0 Bft)
28.02.2016 03:50 -1,2 C -1,4 C 92 % 1004,1 hPa 0,0 mm 0,0 km/h (0 Bft) SW 225 0 min -2,3 C 0,0 km/h (0 Bft)
28.02.2016 03:51 -1,2 C -1,4 C 92 % 1004,1 hPa 0,0 mm 0,0 km/h (0 Bft) SW 225 0 min -2,3 C 0,0 km/h (0 Bft)
28.02.2016 03:52 -1,1 C -1,4 C 92 % 1004,1 hPa 0,0 mm 0,0 km/h (0 Bft) O-SO 112 0 min -2,2 C 0,0 km/h (0 Bft)
28.02.2016 03:53 -1,1 C -1,4 C 92 % 1004,1 hPa 0,0 mm 0,0 km/h (0 Bft) O-SO 112 0 min -2,2 C 0,0 km/h (0 Bft)
28.02.2016 03:54 -1,1 C -1,3 C 92 % 1004,1 hPa 0,0 mm 0,6 km/h (0 Bft) O-NO 67 0 min -2,2 C 3,0 km/h (1 Bft)
28.02.2016 03:55 -1,1 C -1,3 C 92 % 1004,1 hPa 0,0 mm 0,6 km/h (0 Bft) O-NO 67 0 min -2,2 C 3,0 km/h (1 Bft)
28.02.2016 03:56 -1,1 C -1,3 C 92 % 1004,1 hPa 0,0 mm 0,6 km/h (0 Bft) N-NO 22 0 min -2,2 C 0,0 km/h (0 Bft)
28.02.2016 03:57 -1,1 C -1,3 C 92 % 1004,1 hPa 0,0 mm 0,6 km/h (0 Bft) N-NO 22 0 min -2,2 C 0,0 km/h (0 Bft)
28.02.2016 03:58 -1,1 C -1,3 C 92 % 1004,1 hPa 0,0 mm 0,6 km/h (0 Bft) N-NO 22 0 min -2,2 C 3,0 km/h (1 Bft)
28.02.2016 03:59 -1,1 C -1,3 C 92 % 1004,1 hPa 0,0 mm 0,6 km/h (0 Bft) N-NO 22 0 min -2,2 C 3,0 km/h (1 Bft)
28.02.2016 04:00 -1,1 C -1,3 C 92 % 1004,1 hPa 0,0 mm 1,2 km/h (1 Bft) NW 315 0 min -2,2 C 5,7 km/h (1 Bft)
28.02.2016 04:01 -1,1 C -1,3 C 92 % 1004,1 hPa 0,0 mm 1,2 km/h (1 Bft) NW 315 0 min -2,2 C 5,7 km/h (1 Bft)
28.02.2016 04:02 -1,2 C -1,4 C 92 % 1004,1 hPa 0,0 mm 1,8 km/h (1 Bft) W-NW 292 0 min -2,3 C 4,8 km/h (1 Bft)
28.02.2016 04:03 -1,2 C -1,4 C 92 % 1004,1 hPa 0,0 mm 1,8 km/h (1 Bft) W-NW 292 0 min -2,3 C 4,8 km/h (1 Bft)
28.02.2016 04:04 -1,4 C -1,5 C 92 % 1004,1 hPa 0,0 mm 1,8 km/h (1 Bft) SW 225 0 min -2,5 C 3,9 km/h (1 Bft)
28.02.2016 04:05 -1,4 C -1,5 C 92 % 1004,1 hPa 0,0 mm 1,8 km/h (1 Bft) SW 225 0 min -2,5 C 3,9 km/h (1 Bft)
28.02.2016 04:06 -1,4 C -1,6 C 92 % 1004,1 hPa 0,0 mm 1,8 km/h (1 Bft) S 180 0 min -2,5 C 0,0 km/h (0 Bft)
28.02.2016 04:07 -1,4 C -1,6 C 92 % 1004,1 hPa 0,0 mm 1,8 km/h (1 Bft) S 180 0 min -2,5 C 0,0 km/h (0 Bft)
28.02.2016 04:08 -1,4 C -1,6 C 92 % 1004,1 hPa 0,0 mm 1,8 km/h (1 Bft) S 180 0 min -2,5 C 0,0 km/h (0 Bft)
28.02.2016 04:09 -1,4 C -1,6 C 92 % 1004,1 hPa 0,0 mm 1,8 km/h (1 Bft) S 180 0 min -2,5 C 0,0 km/h (0 Bft)
28.02.2016 04:10 -1,3 C -1,5 C 92 % 1004,1 hPa 0,0 mm 1,5 km/h (1 Bft) O-SO 112 0 min -2,4 C 0,0 km/h (0 Bft)
28.02.2016 04:11 -1,3 C -1,5 C 92 % 1004,1 hPa 0,0 mm 1,5 km/h (1 Bft) O-SO 112 0 min -2,4 C 0,0 km/h (0 Bft)
28.02.2016 04:12 -1,3 C -1,5 C 92 % 1004,1 hPa 0,0 mm 0,9 km/h (0 Bft) O-NO 67 0 min -2,4 C 0,0 km/h (0 Bft)
28.02.2016 04:13 -1,3 C -1,5 C 92 % 1004,1 hPa 0,0 mm 0,9 km/h (0 Bft) O-NO 67 0 min -2,4 C 0,0 km/h (0 Bft)
28.02.2016 04:14 -1,3 C -1,5 C 92 % 1004,1 hPa 0,0 mm 1,5 km/h (1 Bft) N-NO 22 0 min -2,4 C 8,0 km/h (2 Bft)
28.02.2016 04:15 -1,3 C -1,5 C 92 % 1004,1 hPa 0,0 mm 1,5 km/h (1 Bft) N-NO 22 0 min -2,4 C 8,0 km/h (2 Bft)
28.02.2016 04:16 -1,3 C -1,5 C 92 % 1004,1 hPa 0,0 mm 1,2 km/h (1 Bft) W-SW 247 0 min -2,4 C 3,9 km/h (1 Bft)
28.02.2016 04:17 -1,3 C -1,5 C 92 % 1004,1 hPa 0,0 mm 1,2 km/h (1 Bft) W-SW 247 0 min -2,4 C 3,9 km/h (1 Bft)
28.02.2016 04:18 -1,2 C -1,4 C 92 % 1004,1 hPa 0,0 mm 1,8 km/h (1 Bft) W 270 0 min -2,3 C 4,5 km/h (1 Bft)
28.02.2016 04:19 -1,2 C -1,4 C 92 % 1004,1 hPa 0,0 mm 1,8 km/h (1 Bft) W 270 0 min -2,3 C 4,5 km/h (1 Bft)
28.02.2016 04:20 -1,2 C -1,4 C 92 % 1004,1 hPa 0,0 mm 2,4 km/h (1 Bft) N-NO 22 0 min -2,3 C 0,0 km/h (0 Bft)
28.02.2016 04:21 -1,2 C -1,4 C 92 % 1004,1 hPa 0,0 mm 2,4 km/h (1 Bft) N-NO 22 0 min -2,3 C 0,0 km/h (0 Bft)
28.02.2016 04:22 -1,2 C -1,4 C 92 % 1004,1 hPa 0,0 mm 3,0 km/h (1 Bft) O-SO 112 0 min -2,3 C 3,0 km/h (1 Bft)
28.02.2016 04:23 -1,2 C -1,4 C 92 % 1004,1 hPa 0,0 mm 3,0 km/h (1 Bft) O-SO 112 0 min -2,3 C 3,0 km/h (1 Bft)
28.02.2016 04:24 -1,2 C -1,4 C 92 % 1004,1 hPa 0,0 mm 2,7 km/h (1 Bft) SO 135 0 min -2,3 C 0,0 km/h (0 Bft)
28.02.2016 04:25 -1,2 C -1,4 C 92 % 1004,1 hPa 0,0 mm 2,7 km/h (1 Bft) SO 135 0 min -2,3 C 0,0 km/h (0 Bft)
28.02.2016 04:26 -1,2 C -1,4 C 92 % 1004,1 hPa 0,0 mm 1,8 km/h (1 Bft) W-NW 292 0 min -2,3 C 0,0 km/h (0 Bft)
28.02.2016 04:27 -1,2 C -1,4 C 92 % 1004,1 hPa 0,0 mm 1,8 km/h (1 Bft) W-NW 292 0 min -2,3 C 0,0 km/h (0 Bft)
28.02.2016 04:28 -1,2 C -1,4 C 92 % 1004,1 hPa 0,0 mm 1,5 km/h (1 Bft) W-SW 247 0 min -2,3 C 0,0 km/h (0 Bft)
28.02.2016 04:29 -1,2 C -1,4 C 92 % 1004,1 hPa 0,0 mm 1,5 km/h (1 Bft) W-SW 247 0 min -2,3 C 0,0 km/h (0 Bft)
28.02.2016 04:30 -1,2 C -1,4 C 92 % 1004,1 hPa 0,0 mm 0,6 km/h (0 Bft) O 90 0 min -2,3 C 0,0 km/h (0 Bft)
28.02.2016 04:31 -1,2 C -1,4 C 92 % 1004,1 hPa 0,0 mm 0,6 km/h (0 Bft) O 90 0 min -2,3 C 0,0 km/h (0 Bft)
28.02.2016 04:32 -1,1 C -1,3 C 92 % 1004,1 hPa 0,0 mm 1,2 km/h (1 Bft) O-SO 112 0 min -2,2 C 8,0 km/h (2 Bft)
28.02.2016 04:33 -1,1 C -1,3 C 92 % 1004,1 hPa 0,0 mm 1,2 km/h (1 Bft) O-SO 112 0 min -2,2 C 8,0 km/h (2 Bft)
28.02.2016 04:34 -1,1 C -1,3 C 92 % 1004,1 hPa 0,0 mm 1,2 km/h (1 Bft) N 360 0 min -2,2 C 0,0 km/h (0 Bft)
28.02.2016 04:35 -1,1 C -1,3 C 92 % 1004,1 hPa 0,0 mm 1,2 km/h (1 Bft) N 360 0 min -2,2 C 0,0 km/h (0 Bft)
28.02.2016 04:36 -1,1 C -1,3 C 92 % 1004,1 hPa 0,0 mm 1,2 km/h (1 Bft) NW 315 0 min -2,2 C 0,0 km/h (0 Bft)
28.02.2016 04:37 -1,1 C -1,3 C 92 % 1004,1 hPa 0,0 mm 1,2 km/h (1 Bft) NW 315 0 min -2,2 C 0,0 km/h (0 Bft)
28.02.2016 04:38 -1,1 C -1,3 C 92 % 1004,1 hPa 0,0 mm 1,2 km/h (1 Bft) W 270 0 min -2,2 C 0,0 km/h (0 Bft)
28.02.2016 04:39 -1,1 C -1,3 C 92 % 1004,1 hPa 0,0 mm 1,2 km/h (1 Bft) W 270 0 min -2,2 C 0,0 km/h (0 Bft)
28.02.2016 04:40 -1,1 C -1,3 C 92 % 1004,1 hPa 0,0 mm 1,2 km/h (1 Bft) NO 45 0 min -2,2 C 0,0 km/h (0 Bft)
28.02.2016 04:41 -1,1 C -1,3 C 92 % 1004,1 hPa 0,0 mm 1,2 km/h (1 Bft) NO 45 0 min -2,2 C 0,0 km/h (0 Bft)
28.02.2016 04:42 -1,0 C -1,2 C 92 % 1004,1 hPa 0,0 mm 1,5 km/h (1 Bft) O-NO 67 0 min -2,1 C 8,3 km/h (2 Bft)
28.02.2016 04:43 -1,0 C -1,2 C 92 % 1004,1 hPa 0,0 mm 1,5 km/h (1 Bft) O-NO 67 0 min -2,1 C 8,3 km/h (2 Bft)
28.02.2016 04:44 -1,0 C -1,2 C 92 % 1004,1 hPa 0,0 mm 2,1 km/h (1 Bft) N-NO 22 0 min -2,1 C 9,8 km/h (2 Bft)
28.02.2016 04:45 -1,0 C -1,2 C 92 % 1004,1 hPa 0,0 mm 2,1 km/h (1 Bft) N-NO 22 0 min -2,1 C 10,4 km/h (2 Bft)
28.02.2016 04:46 -1,0 C -1,2 C 92 % 1004,1 hPa 0,0 mm 2,7 km/h (1 Bft) S 180 0 min -2,1 C 0,0 km/h (0 Bft)
28.02.2016 04:47 -1,0 C -1,2 C 92 % 1004,1 hPa 0,0 mm 2,7 km/h (1 Bft) S 180 0 min -2,1 C 0,0 km/h (0 Bft)
28.02.2016 04:48 -1,1 C -1,3 C 92 % 1004,2 hPa 0,0 mm 2,7 km/h (1 Bft) NO 45 0 min -2,2 C 0,0 km/h (0 Bft)
28.02.2016 04:49 -1,1 C -1,3 C 92 % 1004,2 hPa 0,0 mm 2,7 km/h (1 Bft) NO 45 0 min -2,2 C 0,0 km/h (0 Bft)
28.02.2016 04:50 -1,0 C -1,2 C 92 % 1004,2 hPa 0,0 mm 3,9 km/h (1 Bft) O-NO 67 0 min -2,1 C 10,1 km/h (2 Bft)
28.02.2016 04:51 -1,0 C -1,2 C 92 % 1004,2 hPa 0,0 mm 3,9 km/h (1 Bft) O-NO 67 0 min -2,1 C 10,1 km/h (2 Bft)
28.02.2016 04:52 -1,0 C -1,5 C 93 % 1004,2 hPa 0,0 mm 6,3 km/h (2 Bft) O-NO 67 0 min -2,0 C 13,1 km/h (3 Bft)
28.02.2016 04:53 -1,0 C -1,5 C 93 % 1004,2 hPa 0,0 mm 6,3 km/h (2 Bft) O-NO 67 0 min -2,0 C 13,1 km/h (3 Bft)
28.02.2016 04:54 -1,0 C -1,5 C 93 % 1004,2 hPa 0,0 mm 6,0 km/h (2 Bft) SW 225 0 min -2,0 C 0,0 km/h (0 Bft)
28.02.2016 04:55 -1,0 C -1,5 C 93 % 1004,2 hPa 0,0 mm 6,0 km/h (2 Bft) SW 225 0 min -2,0 C 20,9 km/h (4 Bft)
28.02.2016 04:56 -1,1 C -1,4 C 93 % 1004,2 hPa 0,0 mm 5,1 km/h (1 Bft) W-SW 247 0 min -2,1 C 0,0 km/h (0 Bft)
28.02.2016 04:58 -1,1 C -1,5 C 93 % 1004,2 hPa 0,0 mm 5,4 km/h (1 Bft) SW 225 0 min -2,1 C 3,3 km/h (1 Bft)
28.02.2016 04:59 -1,1 C -1,5 C 93 % 1004,2 hPa 0,0 mm 5,4 km/h (1 Bft) SW 225 0 min -2,1 C 3,3 km/h (1 Bft)
28.02.2016 05:00 -1,1 C -1,4 C 93 % 1004,2 hPa 0,0 mm 4,8 km/h (1 Bft) O-NO 67 0 min -2,1 C 3,6 km/h (1 Bft)
28.02.2016 05:01 -1,1 C -1,4 C 93 % 1004,2 hPa 0,0 mm 4,8 km/h (1 Bft) O-NO 67 0 min -2,1 C 3,6 km/h (1 Bft)
28.02.2016 05:02 -1,1 C -1,3 C 93 % 1004,2 hPa 0,0 mm 3,9 km/h (1 Bft) O-NO 67 0 min -2,1 C 7,2 km/h (2 Bft)
28.02.2016 05:03 -1,1 C -1,3 C 93 % 1004,2 hPa 0,0 mm 3,9 km/h (1 Bft) N 0 0 min -2,1 C 7,2 km/h (2 Bft)
28.02.2016 05:04 -1,0 C -1,2 C 93 % 1004,2 hPa 0,0 mm 3,3 km/h (1 Bft) N 0 0 min -2,0 C 8,9 km/h (2 Bft)
28.02.2016 05:05 -1,0 C -1,2 C 93 % 1004,2 hPa 0,0 mm 3,3 km/h (1 Bft) N 0 0 min -2,0 C 8,9 km/h (2 Bft)
28.02.2016 05:06 -1,0 C -1,3 C 93 % 1004,2 hPa 0,0 mm 4,8 km/h (1 Bft) N 0 0 min -2,0 C 8,9 km/h (2 Bft)
28.02.2016 05:07 -1,0 C -1,3 C 93 % 1004,2 hPa 0,0 mm 4,8 km/h (1 Bft) N 0 0 min -2,0 C 8,9 km/h (2 Bft)
28.02.2016 05:08 -1,1 C -1,5 C 93 % 1004,2 hPa 0,0 mm 5,7 km/h (1 Bft) N 0 0 min -2,1 C 8,9 km/h (2 Bft)
28.02.2016 05:09 -1,1 C -1,5 C 93 % 1004,2 hPa 0,0 mm 5,7 km/h (1 Bft) N 0 0 min -2,1 C 8,9 km/h (2 Bft)
28.02.2016 05:10 -1,1 C -1,6 C 93 % 1004,2 hPa 0,0 mm 6,6 km/h (2 Bft) N 0 0 min -2,1 C 8,9 km/h (2 Bft)
28.02.2016 05:11 -1,1 C -1,6 C 93 % 1004,2 hPa 0,0 mm 6,6 km/h (2 Bft) N 0 0 min -2,1 C 8,9 km/h (2 Bft)
28.02.2016 05:12 -1,2 C -1,7 C 93 % 1004,2 hPa 0,0 mm 6,0 km/h (2 Bft) NO 45 0 min -2,2 C 8,9 km/h (2 Bft)
28.02.2016 05:13 -1,2 C -1,7 C 93 % 1004,2 hPa 0,0 mm 6,0 km/h (2 Bft) NO 45 0 min -2,2 C 3,6 km/h (1 Bft)
28.02.2016 05:14 -1,2 C -1,7 C 93 % 1004,2 hPa 0,0 mm 6,0 km/h (2 Bft) O 90 0 min -2,2 C 4,8 km/h (1 Bft)
28.02.2016 05:15 -1,2 C -1,7 C 93 % 1004,2 hPa 0,0 mm 6,0 km/h (2 Bft) O 90 0 min -2,2 C 4,8 km/h (1 Bft)
28.02.2016 05:16 -1,2 C -1,5 C 93 % 1004,2 hPa 0,0 mm 5,1 km/h (1 Bft) NO 45 0 min -2,2 C 5,4 km/h (1 Bft)
28.02.2016 05:17 -1,2 C -1,5 C 93 % 1004,2 hPa 0,0 mm 5,1 km/h (1 Bft) NO 45 0 min -2,2 C 5,4 km/h (1 Bft)
28.02.2016 05:18 -1,2 C -1,4 C 93 % 1004,2 hPa 0,0 mm 3,3 km/h (1 Bft) NO 45 0 min -2,2 C 0,0 km/h (0 Bft)
28.02.2016 05:19 -1,2 C -1,4 C 93 % 1004,2 hPa 0,0 mm 3,3 km/h (1 Bft) NO 45 0 min -2,2 C 0,0 km/h (0 Bft)
28.02.2016 05:20 -1,2 C -1,4 C 93 % 1004,2 hPa 0,0 mm 2,4 km/h (1 Bft) O 90 0 min -2,2 C 3,0 km/h (1 Bft)
28.02.2016 05:21 -1,2 C -1,4 C 93 % 1004,2 hPa 0,0 mm 2,4 km/h (1 Bft) O 90 0 min -2,2 C 3,0 km/h (1 Bft)
28.02.2016 05:22 -1,2 C -1,4 C 93 % 1004,2 hPa 0,0 mm 2,7 km/h (1 Bft) NO 45 0 min -2,2 C 0,0 km/h (0 Bft)
28.02.2016 05:23 -1,2 C -1,4 C 93 % 1004,2 hPa 0,0 mm 2,7 km/h (1 Bft) NO 45 0 min -2,2 C 0,0 km/h (0 Bft)
28.02.2016 05:24 -1,3 C -1,5 C 93 % 1004,2 hPa 0,0 mm 2,4 km/h (1 Bft) O-NO 67 0 min -2,3 C 7,5 km/h (2 Bft)
28.02.2016 05:25 -1,3 C -1,5 C 93 % 1004,2 hPa 0,0 mm 2,4 km/h (1 Bft) O-NO 67 0 min -2,3 C 7,5 km/h (2 Bft)
28.02.2016 05:26 -1,3 C -1,5 C 93 % 1004,2 hPa 0,0 mm 2,7 km/h (1 Bft) O-NO 67 0 min -2,3 C 7,2 km/h (2 Bft)
28.02.2016 05:27 -1,3 C -1,5 C 93 % 1004,2 hPa 0,0 mm 2,7 km/h (1 Bft) O-NO 67 0 min -2,3 C 7,2 km/h (2 Bft)
28.02.2016 05:28 -1,3 C -1,5 C 93 % 1004,4 hPa 0,0 mm 2,7 km/h (1 Bft) S 180 0 min -2,3 C 0,0 km/h (0 Bft)
28.02.2016 05:29 -1,3 C -1,5 C 93 % 1004,4 hPa 0,0 mm 2,7 km/h (1 Bft) S 180 0 min -2,3 C 0,0 km/h (0 Bft)
28.02.2016 05:30 -1,3 C -1,5 C 93 % 1004,4 hPa 0,0 mm 2,7 km/h (1 Bft) W-SW 247 0 min -2,3 C 0,0 km/h (0 Bft)
28.02.2016 05:31 -1,3 C -1,5 C 93 % 1004,4 hPa 0,0 mm 2,7 km/h (1 Bft) W-SW 247 0 min -2,3 C 0,0 km/h (0 Bft)
28.02.2016 05:32 -1,4 C -1,6 C 93 % 1004,4 hPa 0,0 mm 2,4 km/h (1 Bft) O-NO 67 0 min -2,4 C 0,0 km/h (0 Bft)
28.02.2016 05:33 -1,4 C -1,6 C 93 % 1004,4 hPa 0,0 mm 2,4 km/h (1 Bft) O-NO 67 0 min -2,4 C 0,0 km/h (0 Bft)
28.02.2016 05:34 -1,3 C -1,5 C 93 % 1004,4 hPa 0,0 mm 2,7 km/h (1 Bft) NW 315 0 min -2,3 C 0,0 km/h (0 Bft)
28.02.2016 05:35 -1,3 C -1,5 C 93 % 1004,4 hPa 0,0 mm 2,7 km/h (1 Bft) NW 315 0 min -2,3 C 0,0 km/h (0 Bft)
28.02.2016 05:36 -1,4 C -1,6 C 93 % 1004,4 hPa 0,0 mm 1,8 km/h (1 Bft) NW 315 0 min -2,4 C 0,0 km/h (0 Bft)
28.02.2016 05:37 -1,4 C -1,6 C 93 % 1004,4 hPa 0,0 mm 1,8 km/h (1 Bft) NW 315 0 min -2,4 C 0,0 km/h (0 Bft)
28.02.2016 05:38 -1,4 C -1,6 C 93 % 1004,4 hPa 0,0 mm 0,6 km/h (0 Bft) O-NO 67 0 min -2,4 C 0,0 km/h (0 Bft)
28.02.2016 05:39 -1,4 C -1,6 C 93 % 1004,4 hPa 0,0 mm 0,6 km/h (0 Bft) O-NO 67 0 min -2,4 C 0,0 km/h (0 Bft)
28.02.2016 05:40 -1,4 C -1,6 C 93 % 1004,4 hPa 0,0 mm 0,6 km/h (0 Bft) O-SO 112 0 min -2,4 C 0,0 km/h (0 Bft)
28.02.2016 05:41 -1,4 C -1,6 C 93 % 1004,4 hPa 0,0 mm 0,6 km/h (0 Bft) O-SO 112 0 min -2,4 C 0,0 km/h (0 Bft)
28.02.2016 05:42 -1,4 C -1,6 C 93 % 1004,4 hPa 0,0 mm 0,6 km/h (0 Bft) O-NO 67 0 min -2,4 C 3,0 km/h (1 Bft)
28.02.2016 05:43 -1,4 C -1,6 C 93 % 1004,4 hPa 0,0 mm 0,6 km/h (0 Bft) O-NO 67 0 min -2,4 C 3,0 km/h (1 Bft)
28.02.2016 05:44 -1,5 C -1,7 C 92 % 1004,4 hPa 0,0 mm 0,3 km/h (0 Bft) NO 45 0 min -2,6 C 0,0 km/h (0 Bft)
28.02.2016 05:45 -1,5 C -1,7 C 92 % 1004,4 hPa 0,0 mm 0,3 km/h (0 Bft) NO 45 0 min -2,6 C 0,0 km/h (0 Bft)
28.02.2016 05:46 -1,5 C -1,7 C 92 % 1004,4 hPa 0,0 mm 0,6 km/h (0 Bft) O 90 0 min -2,6 C 5,1 km/h (1 Bft)
28.02.2016 05:47 -1,5 C -1,7 C 92 % 1004,4 hPa 0,0 mm 0,6 km/h (0 Bft) O 90 0 min -2,6 C 5,1 km/h (1 Bft)
28.02.2016 05:48 -1,4 C -1,6 C 92 % 1004,2 hPa 0,0 mm 1,5 km/h (1 Bft) O-NO 67 0 min -2,5 C 6,6 km/h (2 Bft)
28.02.2016 05:49 -1,4 C -1,6 C 92 % 1004,2 hPa 0,0 mm 1,5 km/h (1 Bft) O-NO 67 0 min -2,5 C 6,6 km/h (2 Bft)
28.02.2016 05:50 -1,4 C -1,6 C 93 % 1004,2 hPa 0,0 mm 1,8 km/h (1 Bft) N-NO 22 0 min -2,4 C 0,0 km/h (0 Bft)
28.02.2016 05:51 -1,4 C -1,6 C 93 % 1004,2 hPa 0,0 mm 1,8 km/h (1 Bft) N-NO 22 0 min -2,4 C 0,0 km/h (0 Bft)
28.02.2016 05:52 -1,4 C -1,6 C 92 % 1004,2 hPa 0,0 mm 1,8 km/h (1 Bft) NO 45 0 min -2,5 C 0,0 km/h (0 Bft)
28.02.2016 05:53 -1,4 C -1,6 C 92 % 1004,2 hPa 0,0 mm 1,8 km/h (1 Bft) NO 45 0 min -2,5 C 0,0 km/h (0 Bft)
28.02.2016 05:54 -1,4 C -1,6 C 92 % 1004,2 hPa 0,0 mm 1,5 km/h (1 Bft) N-NO 22 0 min -2,5 C 0,0 km/h (0 Bft)
28.02.2016 05:55 -1,4 C -1,6 C 92 % 1004,2 hPa 0,0 mm 1,5 km/h (1 Bft) N-NO 22 0 min -2,5 C 0,0 km/h (0 Bft)
28.02.2016 05:56 -1,4 C -1,6 C 92 % 1004,2 hPa 0,0 mm 1,8 km/h (1 Bft) O-NO 67 0 min -2,5 C 5,4 km/h (1 Bft)
28.02.2016 05:57 -1,4 C -1,6 C 92 % 1004,2 hPa 0,0 mm 1,8 km/h (1 Bft) O-NO 67 0 min -2,5 C 5,4 km/h (1 Bft)
28.02.2016 05:58 -1,4 C -1,6 C 93 % 1004,2 hPa 0,0 mm 2,1 km/h (1 Bft) O-NO 67 0 min -2,4 C 3,9 km/h (1 Bft)
28.02.2016 05:59 -1,4 C -1,6 C 93 % 1004,2 hPa 0,0 mm 2,1 km/h (1 Bft) O-NO 67 0 min -2,4 C 3,9 km/h (1 Bft)
28.02.2016 06:00 -1,4 C -1,6 C 93 % 1004,2 hPa 0,0 mm 2,1 km/h (1 Bft) NO 45 0 min -2,4 C 7,2 km/h (2 Bft)
28.02.2016 06:01 -1,4 C -1,6 C 93 % 1004,2 hPa 0,0 mm 2,1 km/h (1 Bft) NO 45 0 min -2,4 C 7,2 km/h (2 Bft)
28.02.2016 06:02 -1,4 C -1,6 C 93 % 1004,2 hPa 0,0 mm 2,4 km/h (1 Bft) O-NO 67 0 min -2,4 C 6,6 km/h (2 Bft)
28.02.2016 06:03 -1,4 C -1,6 C 93 % 1004,2 hPa 0,0 mm 2,4 km/h (1 Bft) O-NO 67 0 min -2,4 C 6,6 km/h (2 Bft)
28.02.2016 06:04 -1,4 C -1,6 C 93 % 1004,2 hPa 0,0 mm 3,9 km/h (1 Bft) N-NO 22 0 min -2,4 C 6,0 km/h (2 Bft)
28.02.2016 06:05 -1,4 C -1,6 C 93 % 1004,2 hPa 0,0 mm 3,9 km/h (1 Bft) N-NO 22 0 min -2,4 C 6,0 km/h (2 Bft)
28.02.2016 06:06 -1,4 C -1,7 C 93 % 1004,2 hPa 0,0 mm 4,5 km/h (1 Bft) NO 45 0 min -2,4 C 4,2 km/h (1 Bft)
28.02.2016 06:07 -1,4 C -1,7 C 93 % 1004,2 hPa 0,0 mm 4,5 km/h (1 Bft) NO 45 0 min -2,4 C 4,2 km/h (1 Bft)
28.02.2016 06:08 -1,4 C -1,7 C 93 % 1004,1 hPa 0,0 mm 4,5 km/h (1 Bft) O-NO 67 0 min -2,4 C 3,9 km/h (1 Bft)
28.02.2016 06:09 -1,4 C -1,7 C 93 % 1004,1 hPa 0,0 mm 4,5 km/h (1 Bft) O-NO 67 0 min -2,4 C 3,9 km/h (1 Bft)
28.02.2016 06:10 -1,4 C -1,6 C 93 % 1004,1 hPa 0,0 mm 4,2 km/h (1 Bft) N-NO 22 0 min -2,4 C 3,0 km/h (1 Bft)
28.02.2016 06:11 -1,4 C -1,6 C 93 % 1004,1 hPa 0,0 mm 4,2 km/h (1 Bft) N-NO 22 0 min -2,4 C 3,0 km/h (1 Bft)
28.02.2016 06:12 -1,4 C -1,6 C 93 % 1004,1 hPa 0,0 mm 3,0 km/h (1 Bft) O 90 0 min -2,4 C 0,0 km/h (0 Bft)
28.02.2016 06:13 -1,4 C -1,6 C 93 % 1004,1 hPa 0,0 mm 3,0 km/h (1 Bft) O 90 0 min -2,4 C 0,0 km/h (0 Bft)
28.02.2016 06:14 -1,5 C -1,7 C 93 % 1004,1 hPa 0,0 mm 2,4 km/h (1 Bft) S 180 0 min -2,5 C 0,0 km/h (0 Bft)
28.02.2016 06:15 -1,5 C -1,7 C 93 % 1004,1 hPa 0,0 mm 2,4 km/h (1 Bft) S 180 0 min -2,5 C 0,0 km/h (0 Bft)
28.02.2016 06:16 -1,5 C -1,7 C 93 % 1004,1 hPa 0,0 mm 1,5 km/h (1 Bft) O-NO 67 0 min -2,5 C 0,0 km/h (0 Bft)
28.02.2016 06:17 -1,5 C -1,7 C 93 % 1004,1 hPa 0,0 mm 1,5 km/h (1 Bft) O-NO 67 0 min -2,5 C 0,0 km/h (0 Bft)
28.02.2016 06:18 -1,5 C -1,7 C 93 % 1004,1 hPa 0,0 mm 0,6 km/h (0 Bft) W-SW 247 0 min -2,5 C 0,0 km/h (0 Bft)
28.02.2016 06:19 -1,5 C -1,7 C 93 % 1004,1 hPa 0,0 mm 0,6 km/h (0 Bft) W-SW 247 0 min -2,5 C 0,0 km/h (0 Bft)
28.02.2016 06:20 -1,6 C -1,8 C 92 % 1004,1 hPa 0,0 mm 0,3 km/h (0 Bft) O-NO 67 0 min -2,7 C 3,6 km/h (1 Bft)
28.02.2016 06:21 -1,6 C -1,8 C 92 % 1004,1 hPa 0,0 mm 0,3 km/h (0 Bft) O-NO 67 0 min -2,7 C 3,6 km/h (1 Bft)
28.02.2016 06:22 -1,5 C -1,7 C 93 % 1004,1 hPa 0,0 mm 2,4 km/h (1 Bft) NO 45 0 min -2,5 C 13,1 km/h (3 Bft)
28.02.2016 06:23 -1,5 C -1,7 C 93 % 1004,1 hPa 0,0 mm 2,4 km/h (1 Bft) NO 45 0 min -2,5 C 13,1 km/h (3 Bft)
28.02.2016 06:24 -1,4 C -1,6 C 93 % 1004,1 hPa 0,0 mm 3,6 km/h (1 Bft) O-NO 67 0 min -2,4 C 5,4 km/h (1 Bft)
28.02.2016 06:25 -1,4 C -1,6 C 93 % 1004,1 hPa 0,0 mm 3,6 km/h (1 Bft) O-NO 67 0 min -2,4 C 5,4 km/h (1 Bft)
28.02.2016 06:26 -1,4 C -1,6 C 93 % 1004,1 hPa 0,0 mm 3,6 km/h (1 Bft) W 270 0 min -2,4 C 0,0 km/h (0 Bft)
28.02.2016 06:27 -1,4 C -1,6 C 93 % 1004,1 hPa 0,0 mm 3,6 km/h (1 Bft) W 270 0 min -2,4 C 0,0 km/h (0 Bft)
28.02.2016 06:28 -1,5 C -1,7 C 93 % 1004,1 hPa 0,0 mm 3,6 km/h (1 Bft) NW 315 0 min -2,5 C 0,0 km/h (0 Bft)
28.02.2016 06:29 -1,5 C -1,7 C 93 % 1004,1 hPa 0,0 mm 3,6 km/h (1 Bft) NW 315 0 min -2,5 C 0,0 km/h (0 Bft)
28.02.2016 06:30 -1,5 C -1,7 C 93 % 1004,1 hPa 0,0 mm 3,6 km/h (1 Bft) NO 45 0 min -2,5 C 0,0 km/h (0 Bft)
28.02.2016 06:31 -1,5 C -1,7 C 93 % 1004,1 hPa 0,0 mm 3,6 km/h (1 Bft) NO 45 0 min -2,5 C 0,0 km/h (0 Bft)
28.02.2016 06:32 -1,5 C -1,7 C 93 % 1004,1 hPa 0,0 mm 3,0 km/h (1 Bft) O-NO 67 0 min -2,5 C 3,3 km/h (1 Bft)
28.02.2016 06:33 -1,5 C -1,7 C 93 % 1004,1 hPa 0,0 mm 3,0 km/h (1 Bft) O-NO 67 0 min -2,5 C 3,3 km/h (1 Bft)
28.02.2016 06:34 -1,6 C -1,8 C 93 % 1004,1 hPa 0,0 mm 2,1 km/h (1 Bft) NO 45 0 min -2,6 C 7,2 km/h (2 Bft)
28.02.2016 06:35 -1,6 C -1,8 C 93 % 1004,1 hPa 0,0 mm 2,1 km/h (1 Bft) NO 45 0 min -2,6 C 7,2 km/h (2 Bft)
28.02.2016 06:36 -1,5 C -1,7 C 93 % 1004,1 hPa 0,0 mm 1,8 km/h (1 Bft) NO 45 0 min -2,5 C 4,5 km/h (1 Bft)
28.02.2016 06:37 -1,5 C -1,7 C 93 % 1004,1 hPa 0,0 mm 1,8 km/h (1 Bft) NO 45 0 min -2,5 C 4,5 km/h (1 Bft)
28.02.2016 06:38 -1,6 C -1,8 C 92 % 1004,1 hPa 0,0 mm 1,8 km/h (1 Bft) W-NW 292 0 min -2,7 C 0,0 km/h (0 Bft)
28.02.2016 06:39 -1,6 C -1,8 C 92 % 1004,1 hPa 0,0 mm 1,8 km/h (1 Bft) W-NW 292 0 min -2,7 C 0,0 km/h (0 Bft)
28.02.2016 06:40 -1,6 C -1,8 C 92 % 1004,1 hPa 0,0 mm 2,1 km/h (1 Bft) W-NW 292 0 min -2,7 C 3,6 km/h (1 Bft)
28.02.2016 06:41 -1,6 C -1,8 C 92 % 1004,1 hPa 0,0 mm 2,1 km/h (1 Bft) W-NW 292 0 min -2,7 C 3,6 km/h (1 Bft)
28.02.2016 06:42 -1,6 C -1,8 C 93 % 1004,1 hPa 0,0 mm 2,4 km/h (1 Bft) O-NO 67 0 min -2,6 C 4,2 km/h (1 Bft)
28.02.2016 06:43 -1,6 C -1,8 C 93 % 1004,1 hPa 0,0 mm 2,4 km/h (1 Bft) O-NO 67 0 min -2,6 C 4,2 km/h (1 Bft)
28.02.2016 06:44 -1,6 C -1,8 C 93 % 1004,1 hPa 0,0 mm 1,8 km/h (1 Bft) NO 45 0 min -2,6 C 0,0 km/h (0 Bft)
28.02.2016 06:45 -1,6 C -1,8 C 93 % 1004,1 hPa 0,0 mm 1,8 km/h (1 Bft) NO 45 0 min -2,6 C 0,0 km/h (0 Bft)
28.02.2016 06:46 -1,7 C -1,9 C 92 % 1004,1 hPa 0,0 mm 0,9 km/h (0 Bft) O-SO 112 0 min -2,8 C 3,6 km/h (1 Bft)
28.02.2016 06:47 -1,7 C -1,9 C 92 % 1004,1 hPa 0,0 mm 0,9 km/h (0 Bft) O-SO 112 0 min -2,8 C 3,6 km/h (1 Bft)
28.02.2016 06:48 -1,7 C -1,9 C 92 % 1004,2 hPa 0,0 mm 1,2 km/h (1 Bft) N-NO 22 0 min -2,8 C 0,0 km/h (0 Bft)
28.02.2016 06:49 -1,7 C -1,9 C 92 % 1004,2 hPa 0,0 mm 1,2 km/h (1 Bft) N-NO 22 0 min -2,8 C 0,0 km/h (0 Bft)
28.02.2016 06:50 -1,8 C -2,0 C 92 % 1004,2 hPa 0,0 mm 1,2 km/h (1 Bft) NW 315 0 min -2,9 C 0,0 km/h (0 Bft)
28.02.2016 06:51 -1,8 C -2,0 C 92 % 1004,2 hPa 0,0 mm 1,2 km/h (1 Bft) NW 315 0 min -2,9 C 0,0 km/h (0 Bft)
28.02.2016 06:52 -1,8 C -2,0 C 92 % 1004,2 hPa 0,0 mm 0,9 km/h (0 Bft) NW 315 0 min -2,9 C 0,0 km/h (0 Bft)
28.02.2016 06:53 -1,8 C -2,0 C 92 % 1004,2 hPa 0,0 mm 0,9 km/h (0 Bft) NW 315 0 min -2,9 C 0,0 km/h (0 Bft)
28.02.2016 06:54 -1,7 C -1,9 C 92 % 1004,2 hPa 0,0 mm 0,3 km/h (0 Bft) NW 315 0 min -2,8 C 0,0 km/h (0 Bft)
28.02.2016 06:55 -1,7 C -1,9 C 92 % 1004,2 hPa 0,0 mm 0,3 km/h (0 Bft) NW 315 0 min -2,8 C 0,0 km/h (0 Bft)
28.02.2016 06:56 -1,8 C -2,0 C 92 % 1004,2 hPa 0,0 mm 0,3 km/h (0 Bft) NW 315 0 min -2,9 C 0,0 km/h (0 Bft)
28.02.2016 06:57 -1,8 C -2,0 C 92 % 1004,2 hPa 0,0 mm 0,3 km/h (0 Bft) NW 315 0 min -2,9 C 0,0 km/h (0 Bft)
28.02.2016 06:58 -1,8 C -2,0 C 92 % 1004,2 hPa 0,0 mm 0,0 km/h (0 Bft) N-NW 337 0 min -2,9 C 0,0 km/h (0 Bft)
28.02.2016 06:59 -1,8 C -2,0 C 92 % 1004,2 hPa 0,0 mm 0,0 km/h (0 Bft) N-NW 337 0 min -2,9 C 0,0 km/h (0 Bft)
28.02.2016 07:00 -1,8 C -2,0 C 92 % 1004,2 hPa 0,0 mm 0,0 km/h (0 Bft) W 270 0 min -2,9 C 0,0 km/h (0 Bft)
28.02.2016 07:01 -1,8 C -2,0 C 92 % 1004,2 hPa 0,0 mm 0,0 km/h (0 Bft) W 270 0 min -2,9 C 0,0 km/h (0 Bft)
28.02.2016 07:02 -1,8 C -2,0 C 92 % 1004,2 hPa 0,0 mm 0,0 km/h (0 Bft) W-SW 247 0 min -2,9 C 0,0 km/h (0 Bft)
28.02.2016 07:03 -1,8 C -2,0 C 92 % 1004,2 hPa 0,0 mm 0,0 km/h (0 Bft) W-SW 247 0 min -2,9 C 0,0 km/h (0 Bft)
28.02.2016 07:04 -1,8 C -2,0 C 92 % 1004,2 hPa 0,0 mm 0,0 km/h (0 Bft) W-SW 247 0 min -2,9 C 0,0 km/h (0 Bft)
28.02.2016 07:05 -1,8 C -2,0 C 92 % 1004,2 hPa 0,0 mm 0,0 km/h (0 Bft) W-SW 247 0 min -2,9 C 0,0 km/h (0 Bft)
28.02.2016 07:06 -1,8 C -2,0 C 92 % 1004,2 hPa 0,0 mm 0,0 km/h (0 Bft) W 270 0 min -2,9 C 0,0 km/h (0 Bft)
28.02.2016 07:07 -1,8 C -2,0 C 92 % 1004,2 hPa 0,0 mm 0,0 km/h (0 Bft) W 270 0 min -2,9 C 0,0 km/h (0 Bft)
28.02.2016 07:08 -1,8 C -2,0 C 92 % 1004,3 hPa 0,0 mm 0,0 km/h (0 Bft) NW 315 0 min -2,9 C 0,0 km/h (0 Bft)
28.02.2016 07:09 -1,8 C -2,0 C 92 % 1004,3 hPa 0,0 mm 0,0 km/h (0 Bft) NW 315 0 min -2,9 C 0,0 km/h (0 Bft)
28.02.2016 07:10 -1,8 C -2,0 C 92 % 1004,3 hPa 0,0 mm 0,0 km/h (0 Bft) NW 315 0 min -2,9 C 0,0 km/h (0 Bft)
28.02.2016 07:11 -1,8 C -2,0 C 92 % 1004,3 hPa 0,0 mm 0,0 km/h (0 Bft) NW 315 0 min -2,9 C 0,0 km/h (0 Bft)
28.02.2016 07:12 -1,7 C -2,0 C 92 % 1004,3 hPa 0,0 mm 0,0 km/h (0 Bft) NW 315 0 min -2,8 C 0,0 km/h (0 Bft)
28.02.2016 07:13 -1,7 C -2,0 C 92 % 1004,3 hPa 0,0 mm 0,0 km/h (0 Bft) NW 315 0 min -2,8 C 0,0 km/h (0 Bft)
28.02.2016 07:14 -1,7 C -2,0 C 92 % 1004,3 hPa 0,0 mm 0,0 km/h (0 Bft) NW 315 0 min -2,8 C 0,0 km/h (0 Bft)
28.02.2016 07:15 -1,7 C -2,0 C 92 % 1004,3 hPa 0,0 mm 0,0 km/h (0 Bft) NW 315 0 min -2,8 C 0,0 km/h (0 Bft)
28.02.2016 07:16 -1,8 C -2,0 C 92 % 1004,3 hPa 0,0 mm 0,0 km/h (0 Bft) NW 315 0 min -2,9 C 0,0 km/h (0 Bft)
28.02.2016 07:17 -1,8 C -2,0 C 92 % 1004,3 hPa 0,0 mm 0,0 km/h (0 Bft) NW 315 0 min -2,9 C 0,0 km/h (0 Bft)
28.02.2016 07:18 -1,6 C -1,9 C 92 % 1004,3 hPa 0,0 mm 0,0 km/h (0 Bft) O-SO 112 0 min -2,7 C 0,0 km/h (0 Bft)
28.02.2016 07:19 -1,6 C -1,9 C 92 % 1004,3 hPa 0,0 mm 0,0 km/h (0 Bft) O-SO 112 0 min -2,7 C 0,0 km/h (0 Bft)
28.02.2016 07:20 -1,6 C -1,9 C 92 % 1004,3 hPa 0,0 mm 0,0 km/h (0 Bft) O-SO 112 0 min -2,7 C 3,0 km/h (1 Bft)
28.02.2016 07:21 -1,6 C -1,9 C 92 % 1004,3 hPa 0,0 mm 0,0 km/h (0 Bft) O-SO 112 0 min -2,7 C 3,0 km/h (1 Bft)
28.02.2016 07:22 -1,7 C -2,0 C 92 % 1004,3 hPa 0,0 mm 0,0 km/h (0 Bft) N-NW 337 0 min -2,8 C 0,0 km/h (0 Bft)
28.02.2016 07:23 -1,7 C -2,0 C 92 % 1004,3 hPa 0,0 mm 0,0 km/h (0 Bft) N-NW 337 0 min -2,8 C 0,0 km/h (0 Bft)
28.02.2016 07:24 -1,8 C -2,0 C 92 % 1004,3 hPa 0,0 mm 0,3 km/h (0 Bft) NO 45 0 min -2,9 C 3,0 km/h (1 Bft)
28.02.2016 07:25 -1,8 C -2,0 C 92 % 1004,3 hPa 0,0 mm 0,3 km/h (0 Bft) NO 45 0 min -2,9 C 3,0 km/h (1 Bft)
28.02.2016 07:26 -1,8 C -2,0 C 92 % 1004,3 hPa 0,0 mm 0,3 km/h (0 Bft) O-SO 112 0 min -2,9 C 0,0 km/h (0 Bft)
28.02.2016 07:27 -1,8 C -2,0 C 92 % 1004,3 hPa 0,0 mm 0,3 km/h (0 Bft) O-SO 112 0 min -2,9 C 0,0 km/h (0 Bft)
28.02.2016 07:28 -1,8 C -2,0 C 92 % 1004,2 hPa 0,0 mm 0,3 km/h (0 Bft) NW 315 0 min -2,9 C 0,0 km/h (0 Bft)
28.02.2016 07:29 -1,8 C -2,0 C 92 % 1004,2 hPa 0,0 mm 0,3 km/h (0 Bft) NW 315 0 min -2,9 C 0,0 km/h (0 Bft)
28.02.2016 07:30 -1,8 C -2,0 C 92 % 1004,2 hPa 0,0 mm 0,3 km/h (0 Bft) NW 315 0 min -2,9 C 0,0 km/h (0 Bft)
28.02.2016 07:31 -1,8 C -2,0 C 92 % 1004,2 hPa 0,0 mm 0,3 km/h (0 Bft) NW 315 0 min -2,9 C 0,0 km/h (0 Bft)
28.02.2016 07:32 -1,8 C -2,0 C 92 % 1004,2 hPa 0,0 mm 0,3 km/h (0 Bft) N-NW 337 0 min -2,9 C 0,0 km/h (0 Bft)
28.02.2016 07:33 -1,8 C -2,0 C 92 % 1004,2 hPa 0,0 mm 0,3 km/h (0 Bft) N-NW 337 0 min -2,9 C 0,0 km/h (0 Bft)
28.02.2016 07:34 -1,8 C -2,0 C 92 % 1004,2 hPa 0,0 mm 0,6 km/h (0 Bft) O-NO 67 0 min -2,9 C 3,9 km/h (1 Bft)
28.02.2016 07:35 -1,8 C -2,0 C 92 % 1004,2 hPa 0,0 mm 0,6 km/h (0 Bft) O-NO 67 0 min -2,9 C 3,9 km/h (1 Bft)
28.02.2016 07:36 -1,8 C -2,0 C 92 % 1004,2 hPa 0,0 mm 0,3 km/h (0 Bft) O-NO 67 0 min -2,9 C 0,0 km/h (0 Bft)
28.02.2016 07:37 -1,8 C -2,0 C 92 % 1004,2 hPa 0,0 mm 0,3 km/h (0 Bft) O-NO 67 0 min -2,9 C 0,0 km/h (0 Bft)
28.02.2016 07:38 -1,8 C -2,0 C 92 % 1004,2 hPa 0,0 mm 0,3 km/h (0 Bft) O-NO 67 0 min -2,9 C 0,0 km/h (0 Bft)
28.02.2016 07:39 -1,8 C -2,0 C 92 % 1004,2 hPa 0,0 mm 0,3 km/h (0 Bft) O-NO 67 0 min -2,9 C 0,0 km/h (0 Bft)
28.02.2016 07:40 -1,8 C -2,0 C 92 % 1004,2 hPa 0,0 mm 0,3 km/h (0 Bft) N 360 0 min -2,9 C 0,0 km/h (0 Bft)
28.02.2016 07:41 -1,8 C -2,0 C 92 % 1004,2 hPa 0,0 mm 0,3 km/h (0 Bft) N 360 0 min -2,9 C 0,0 km/h (0 Bft)
28.02.2016 07:42 -1,9 C -2,1 C 92 % 1004,2 hPa 0,0 mm 0,3 km/h (0 Bft) N-NW 337 0 min -3,0 C 0,0 km/h (0 Bft)
28.02.2016 07:43 -1,9 C -2,1 C 92 % 1004,2 hPa 0,0 mm 0,3 km/h (0 Bft) N-NW 337 0 min -3,0 C 0,0 km/h (0 Bft)
28.02.2016 07:44 -1,8 C -2,0 C 92 % 1004,2 hPa 0,0 mm 0,3 km/h (0 Bft) W 270 0 min -2,9 C 0,0 km/h (0 Bft)
28.02.2016 07:45 -1,8 C -2,0 C 92 % 1004,2 hPa 0,0 mm 0,3 km/h (0 Bft) W 270 0 min -2,9 C 0,0 km/h (0 Bft)
28.02.2016 07:46 -1,8 C -2,0 C 92 % 1004,2 hPa 0,0 mm 0,0 km/h (0 Bft) W-NW 292 0 min -2,9 C 0,0 km/h (0 Bft)
28.02.2016 07:47 -1,8 C -2,0 C 92 % 1004,2 hPa 0,0 mm 0,0 km/h (0 Bft) W-NW 292 0 min -2,9 C 0,0 km/h (0 Bft)
28.02.2016 07:48 -1,8 C -2,0 C 92 % 1004,2 hPa 0,0 mm 0,0 km/h (0 Bft) NW 315 0 min -2,9 C 0,0 km/h (0 Bft)
28.02.2016 07:49 -1,8 C -2,0 C 92 % 1004,2 hPa 0,0 mm 0,0 km/h (0 Bft) NW 315 0 min -2,9 C 0,0 km/h (0 Bft)
28.02.2016 07:50 -1,8 C -2,0 C 92 % 1004,2 hPa 0,0 mm 0,0 km/h (0 Bft) O 90 0 min -2,9 C 0,0 km/h (0 Bft)
28.02.2016 07:51 -1,8 C -2,0 C 92 % 1004,2 hPa 0,0 mm 0,0 km/h (0 Bft) O 90 0 min -2,9 C 0,0 km/h (0 Bft)
28.02.2016 07:52 -1,8 C -2,0 C 92 % 1004,2 hPa 0,0 mm 0,0 km/h (0 Bft) W 270 0 min -2,9 C 0,0 km/h (0 Bft)
28.02.2016 07:53 -1,8 C -2,0 C 92 % 1004,2 hPa 0,0 mm 0,0 km/h (0 Bft) W 270 0 min -2,9 C 0,0 km/h (0 Bft)
28.02.2016 07:54 -1,8 C -2,0 C 92 % 1004,2 hPa 0,0 mm 0,0 km/h (0 Bft) O-NO 67 0 min -2,9 C 0,0 km/h (0 Bft)
28.02.2016 07:55 -1,8 C -2,0 C 92 % 1004,2 hPa 0,0 mm 0,0 km/h (0 Bft) O-NO 67 0 min -2,9 C 0,0 km/h (0 Bft)
28.02.2016 07:56 -1,8 C -2,0 C 92 % 1004,2 hPa 0,0 mm 0,3 km/h (0 Bft) O-NO 67 0 min -2,9 C 3,6 km/h (1 Bft)
28.02.2016 07:57 -1,8 C -2,0 C 92 % 1004,2 hPa 0,0 mm 0,3 km/h (0 Bft) O-NO 67 0 min -2,9 C 3,6 km/h (1 Bft)
28.02.2016 07:59 -1,8 C -2,0 C 92 % 1004,2 hPa 0,0 mm 0,9 km/h (0 Bft) O-NO 67 0 min -2,9 C 7,7 km/h (2 Bft)
28.02.2016 08:00 -1,6 C -1,8 C 92 % 1004,2 hPa 0,0 mm 1,5 km/h (1 Bft) NO 45 0 min -2,7 C 3,3 km/h (1 Bft)
28.02.2016 08:01 -1,6 C -1,8 C 92 % 1004,2 hPa 0,0 mm 1,5 km/h (1 Bft) NO 45 0 min -2,7 C 3,3 km/h (1 Bft)
28.02.2016 08:02 -1,5 C -1,7 C 92 % 1004,2 hPa 0,0 mm 2,1 km/h (1 Bft) O-NO 67 0 min -2,6 C 4,2 km/h (1 Bft)
28.02.2016 08:03 -1,5 C -1,7 C 92 % 1004,2 hPa 0,0 mm 2,1 km/h (1 Bft) O-NO 67 0 min -2,6 C 4,2 km/h (1 Bft)
28.02.2016 08:04 -1,5 C -1,7 C 92 % 1004,2 hPa 0,0 mm 2,4 km/h (1 Bft) O-NO 67 0 min -2,6 C 3,0 km/h (1 Bft)
28.02.2016 08:05 -1,5 C -1,7 C 92 % 1004,2 hPa 0,0 mm 2,4 km/h (1 Bft) O-NO 67 0 min -2,6 C 3,0 km/h (1 Bft)
28.02.2016 08:06 -1,4 C -1,6 C 92 % 1004,2 hPa 0,0 mm 2,1 km/h (1 Bft) S-SO 157 0 min -2,5 C 0,0 km/h (0 Bft)
28.02.2016 08:07 -1,4 C -1,6 C 92 % 1004,2 hPa 0,0 mm 2,1 km/h (1 Bft) S-SO 157 0 min -2,5 C 0,0 km/h (0 Bft)
28.02.2016 08:08 -1,4 C -1,6 C 92 % 1004,7 hPa 0,0 mm 2,1 km/h (1 Bft) SW 225 0 min -2,5 C 3,6 km/h (1 Bft)
28.02.2016 08:09 -1,4 C -1,6 C 92 % 1004,7 hPa 0,0 mm 2,1 km/h (1 Bft) SW 225 0 min -2,5 C 3,6 km/h (1 Bft)
28.02.2016 08:10 -1,4 C -1,6 C 92 % 1004,7 hPa 0,0 mm 2,1 km/h (1 Bft) O-NO 67 0 min -2,5 C 3,3 km/h (1 Bft)
28.02.2016 08:11 -1,4 C -1,6 C 92 % 1004,7 hPa 0,0 mm 2,1 km/h (1 Bft) O-NO 67 0 min -2,5 C 3,3 km/h (1 Bft)
28.02.2016 08:12 -1,3 C -1,5 C 92 % 1004,7 hPa 0,0 mm 2,4 km/h (1 Bft) O-SO 112 0 min -2,4 C 7,5 km/h (2 Bft)
28.02.2016 08:13 -1,3 C -1,5 C 92 % 1004,7 hPa 0,0 mm 2,4 km/h (1 Bft) O-SO 112 0 min -2,4 C 7,5 km/h (2 Bft)
28.02.2016 08:14 -1,3 C -1,5 C 92 % 1004,7 hPa 0,0 mm 2,1 km/h (1 Bft) NO 45 0 min -2,4 C 6,9 km/h (2 Bft)
28.02.2016 08:15 -1,3 C -1,5 C 92 % 1004,7 hPa 0,0 mm 2,1 km/h (1 Bft) NO 45 0 min -2,4 C 6,9 km/h (2 Bft)
28.02.2016 08:16 -1,2 C -1,4 C 92 % 1004,7 hPa 0,0 mm 3,6 km/h (1 Bft) NO 45 0 min -2,3 C 10,1 km/h (2 Bft)
28.02.2016 08:17 -1,2 C -1,4 C 92 % 1004,7 hPa 0,0 mm 3,6 km/h (1 Bft) NO 45 0 min -2,3 C 10,1 km/h (2 Bft)
28.02.2016 08:18 -1,2 C -1,6 C 92 % 1004,7 hPa 0,0 mm 5,4 km/h (1 Bft) O-NO 67 0 min -2,3 C 9,5 km/h (2 Bft)
28.02.2016 08:19 -1,2 C -1,6 C 92 % 1004,7 hPa 0,0 mm 5,4 km/h (1 Bft) O-NO 67 0 min -2,3 C 9,5 km/h (2 Bft)
28.02.2016 08:20 -1,2 C -1,7 C 93 % 1004,7 hPa 0,0 mm 6,0 km/h (2 Bft) O-NO 67 0 min -2,2 C 7,7 km/h (2 Bft)
28.02.2016 08:21 -1,2 C -1,7 C 93 % 1004,7 hPa 0,0 mm 6,0 km/h (2 Bft) O-NO 67 0 min -2,2 C 7,7 km/h (2 Bft)
28.02.2016 08:22 -1,1 C -1,7 C 93 % 1004,7 hPa 0,0 mm 6,6 km/h (2 Bft) O-NO 67 0 min -2,1 C 6,0 km/h (2 Bft)
28.02.2016 08:23 -1,1 C -1,7 C 93 % 1004,7 hPa 0,0 mm 6,6 km/h (2 Bft) O-NO 67 0 min -2,1 C 6,0 km/h (2 Bft)
28.02.2016 08:24 -1,1 C -1,7 C 93 % 1004,7 hPa 0,0 mm 7,5 km/h (2 Bft) N-NO 22 0 min -2,1 C 8,0 km/h (2 Bft)
28.02.2016 08:25 -1,1 C -1,7 C 93 % 1004,7 hPa 0,0 mm 7,5 km/h (2 Bft) N-NO 22 0 min -2,1 C 8,0 km/h (2 Bft)
28.02.2016 08:26 -1,1 C -1,8 C 93 % 1004,7 hPa 0,0 mm 7,7 km/h (2 Bft) O-NO 67 0 min -2,1 C 9,2 km/h (2 Bft)
28.02.2016 08:27 -1,1 C -1,8 C 93 % 1004,7 hPa 0,0 mm 7,7 km/h (2 Bft) O-NO 67 0 min -2,1 C 9,2 km/h (2 Bft)
28.02.2016 08:28 -1,0 C -1,6 C 93 % 1004,6 hPa 0,0 mm 7,2 km/h (2 Bft) N-NO 22 0 min -2,0 C 6,9 km/h (2 Bft)
28.02.2016 08:29 -1,0 C -1,6 C 93 % 1004,6 hPa 0,0 mm 7,2 km/h (2 Bft) N-NO 22 0 min -2,0 C 6,9 km/h (2 Bft)
28.02.2016 08:30 -1,0 C -1,5 C 93 % 1004,6 hPa 0,0 mm 6,6 km/h (2 Bft) O-NO 67 0 min -2,0 C 3,0 km/h (1 Bft)
28.02.2016 08:31 -1,0 C -1,5 C 93 % 1004,6 hPa 0,0 mm 6,6 km/h (2 Bft) O-NO 67 0 min -2,0 C 3,0 km/h (1 Bft)
28.02.2016 08:32 -0,9 C -1,3 C 93 % 1004,6 hPa 0,0 mm 5,7 km/h (1 Bft) W 270 0 min -1,9 C 0,0 km/h (0 Bft)
28.02.2016 08:33 -0,9 C -1,3 C 93 % 1004,6 hPa 0,0 mm 5,7 km/h (1 Bft) W 270 0 min -1,9 C 0,0 km/h (0 Bft)
28.02.2016 08:34 -0,9 C -1,1 C 93 % 1004,6 hPa 0,0 mm 4,5 km/h (1 Bft) NO 45 0 min -1,9 C 7,2 km/h (2 Bft)
28.02.2016 08:35 -0,9 C -1,1 C 93 % 1004,6 hPa 0,0 mm 4,5 km/h (1 Bft) NO 45 0 min -1,9 C 7,2 km/h (2 Bft)
28.02.2016 08:36 -0,9 C -1,1 C 93 % 1004,6 hPa 0,0 mm 4,2 km/h (1 Bft) O-SO 112 0 min -1,9 C 6,3 km/h (2 Bft)
28.02.2016 08:37 -0,9 C -1,1 C 93 % 1004,6 hPa 0,0 mm 4,2 km/h (1 Bft) O-SO 112 0 min -1,9 C 6,3 km/h (2 Bft)
28.02.2016 08:38 -0,9 C -1,1 C 93 % 1004,6 hPa 0,0 mm 3,9 km/h (1 Bft) O-NO 67 0 min -1,9 C 5,4 km/h (1 Bft)
28.02.2016 08:39 -0,9 C -1,1 C 93 % 1004,6 hPa 0,0 mm 3,9 km/h (1 Bft) O-NO 67 0 min -1,9 C 5,4 km/h (1 Bft)
28.02.2016 08:40 -0,9 C -1,1 C 93 % 1004,6 hPa 0,0 mm 3,6 km/h (1 Bft) O-NO 67 0 min -1,9 C 6,3 km/h (2 Bft)
28.02.2016 08:41 -0,9 C -1,1 C 93 % 1004,6 hPa 0,0 mm 3,6 km/h (1 Bft) O-NO 67 0 min -1,9 C 6,3 km/h (2 Bft)
28.02.2016 08:42 -0,9 C -1,1 C 93 % 1004,6 hPa 0,0 mm 3,6 km/h (1 Bft) N-NO 22 0 min -1,9 C 0,0 km/h (0 Bft)
28.02.2016 08:43 -0,9 C -1,1 C 93 % 1004,6 hPa 0,0 mm 3,6 km/h (1 Bft) N-NO 22 0 min -1,9 C 0,0 km/h (0 Bft)
28.02.2016 08:44 -0,8 C -1,0 C 93 % 1004,6 hPa 0,0 mm 3,9 km/h (1 Bft) NO 45 0 min -1,8 C 0,0 km/h (0 Bft)
28.02.2016 08:45 -0,8 C -1,0 C 93 % 1004,6 hPa 0,0 mm 3,9 km/h (1 Bft) NO 45 0 min -1,8 C 0,0 km/h (0 Bft)
28.02.2016 08:46 -0,9 C -1,0 C 93 % 1004,6 hPa 0,0 mm 3,3 km/h (1 Bft) O-NO 67 0 min -1,9 C 7,2 km/h (2 Bft)
28.02.2016 08:47 -0,9 C -1,0 C 93 % 1004,6 hPa 0,0 mm 3,3 km/h (1 Bft) O-NO 67 0 min -1,9 C 7,2 km/h (2 Bft)
28.02.2016 08:48 -0,9 C -1,0 C 93 % 1004,8 hPa 0,0 mm 3,3 km/h (1 Bft) O-SO 112 0 min -1,9 C 3,0 km/h (1 Bft)
28.02.2016 08:49 -0,9 C -1,0 C 93 % 1004,8 hPa 0,0 mm 3,3 km/h (1 Bft) O-SO 112 0 min -1,9 C 3,0 km/h (1 Bft)
28.02.2016 08:50 -0,9 C -1,0 C 93 % 1004,8 hPa 0,0 mm 2,4 km/h (1 Bft) O-NO 67 0 min -1,9 C 4,8 km/h (1 Bft)
28.02.2016 08:51 -0,9 C -1,0 C 93 % 1004,8 hPa 0,0 mm 2,4 km/h (1 Bft) O-NO 67 0 min -1,9 C 4,8 km/h (1 Bft)
28.02.2016 08:52 -0,8 C -0,9 C 93 % 1004,8 hPa 0,0 mm 3,0 km/h (1 Bft) O-NO 67 0 min -1,8 C 6,0 km/h (2 Bft)
28.02.2016 08:53 -0,8 C -0,9 C 93 % 1004,8 hPa 0,0 mm 3,0 km/h (1 Bft) O-NO 67 0 min -1,8 C 6,0 km/h (2 Bft)
28.02.2016 08:54 -0,8 C -0,9 C 93 % 1004,8 hPa 0,0 mm 3,3 km/h (1 Bft) NO 45 0 min -1,8 C 6,6 km/h (2 Bft)
28.02.2016 08:55 -0,8 C -0,9 C 93 % 1004,8 hPa 0,0 mm 3,3 km/h (1 Bft) NO 45 0 min -1,8 C 6,6 km/h (2 Bft)
28.02.2016 08:56 -0,7 C -0,9 C 93 % 1004,8 hPa 0,0 mm 4,5 km/h (1 Bft) N-NO 22 0 min -1,7 C 8,0 km/h (2 Bft)
28.02.2016 08:57 -0,7 C -0,9 C 93 % 1004,8 hPa 0,0 mm 4,5 km/h (1 Bft) N-NO 22 0 min -1,7 C 8,0 km/h (2 Bft)
28.02.2016 08:58 -0,7 C -0,9 C 93 % 1004,8 hPa 0,0 mm 3,9 km/h (1 Bft) NO 45 0 min -1,7 C 0,0 km/h (0 Bft)
28.02.2016 08:59 -0,7 C -0,9 C 93 % 1004,8 hPa 0,0 mm 3,9 km/h (1 Bft) NO 45 0 min -1,7 C 0,0 km/h (0 Bft)
28.02.2016 09:00 -0,6 C -0,8 C 93 % 1004,8 hPa 0,0 mm 4,2 km/h (1 Bft) NO 45 0 min -1,6 C 6,3 km/h (2 Bft)
28.02.2016 09:01 -0,6 C -0,8 C 93 % 1004,8 hPa 0,0 mm 4,2 km/h (1 Bft) NO 45 0 min -1,6 C 6,3 km/h (2 Bft)
28.02.2016 09:02 -0,7 C -0,9 C 93 % 1004,8 hPa 0,0 mm 4,8 km/h (1 Bft) O-NO 67 0 min -1,7 C 4,5 km/h (1 Bft)
28.02.2016 09:03 -0,7 C -0,9 C 93 % 1004,8 hPa 0,0 mm 4,8 km/h (1 Bft) O-NO 67 0 min -1,7 C 4,5 km/h (1 Bft)
28.02.2016 09:04 -0,7 C -0,9 C 93 % 1004,8 hPa 0,0 mm 4,5 km/h (1 Bft) O-NO 67 0 min -1,7 C 7,7 km/h (2 Bft)
28.02.2016 09:05 -0,7 C -0,9 C 93 % 1004,8 hPa 0,0 mm 4,5 km/h (1 Bft) O-NO 67 0 min -1,7 C 7,7 km/h (2 Bft)
28.02.2016 09:06 -0,7 C -1,0 C 93 % 1004,8 hPa 0,0 mm 4,8 km/h (1 Bft) O-NO 67 0 min -1,7 C 8,3 km/h (2 Bft)
28.02.2016 09:07 -0,7 C -1,0 C 93 % 1004,8 hPa 0,0 mm 4,8 km/h (1 Bft) O-NO 67 0 min -1,7 C 8,3 km/h (2 Bft)
28.02.2016 09:08 -0,7 C -0,9 C 93 % 1004,8 hPa 0,0 mm 4,5 km/h (1 Bft) NO 45 0 min -1,7 C 4,8 km/h (1 Bft)
28.02.2016 09:09 -0,7 C -0,9 C 93 % 1004,8 hPa 0,0 mm 4,5 km/h (1 Bft) NO 45 0 min -1,7 C 4,8 km/h (1 Bft)
28.02.2016 09:10 -0,7 C -1,0 C 93 % 1004,8 hPa 0,0 mm 5,4 km/h (1 Bft) O-SO 112 0 min -1,7 C 4,8 km/h (1 Bft)
28.02.2016 09:11 -0,7 C -1,0 C 93 % 1004,8 hPa 0,0 mm 5,4 km/h (1 Bft) O-SO 112 0 min -1,7 C 4,8 km/h (1 Bft)
28.02.2016 09:12 -0,7 C -1,0 C 93 % 1004,8 hPa 0,0 mm 5,1 km/h (1 Bft) O-NO 67 0 min -1,7 C 6,3 km/h (2 Bft)
28.02.2016 09:13 -0,7 C -1,0 C 93 % 1004,8 hPa 0,0 mm 5,1 km/h (1 Bft) O-NO 67 0 min -1,7 C 6,3 km/h (2 Bft)
28.02.2016 09:14 -0,7 C -0,9 C 93 % 1004,8 hPa 0,0 mm 4,8 km/h (1 Bft) O-NO 67 0 min -1,7 C 0,0 km/h (0 Bft)
28.02.2016 09:15 -0,7 C -0,9 C 93 % 1004,8 hPa 0,0 mm 4,8 km/h (1 Bft) O-NO 67 0 min -1,7 C 0,0 km/h (0 Bft)
28.02.2016 09:16 -0,6 C -0,8 C 93 % 1004,8 hPa 0,0 mm 4,5 km/h (1 Bft) O-NO 67 0 min -1,6 C 5,4 km/h (1 Bft)
28.02.2016 09:17 -0,6 C -0,8 C 93 % 1004,8 hPa 0,0 mm 4,5 km/h (1 Bft) O-NO 67 0 min -1,6 C 5,4 km/h (1 Bft)
28.02.2016 09:18 -0,6 C -0,8 C 93 % 1004,8 hPa 0,0 mm 4,5 km/h (1 Bft) O-NO 67 0 min -1,6 C 8,9 km/h (2 Bft)
28.02.2016 09:19 -0,6 C -0,8 C 93 % 1004,8 hPa 0,0 mm 4,5 km/h (1 Bft) O-NO 67 0 min -1,6 C 8,9 km/h (2 Bft)
28.02.2016 09:20 -0,6 C -0,8 C 93 % 1004,8 hPa 0,0 mm 4,5 km/h (1 Bft) O 90 0 min -1,6 C 5,1 km/h (1 Bft)
28.02.2016 09:21 -0,6 C -0,8 C 93 % 1004,8 hPa 0,0 mm 4,5 km/h (1 Bft) O 90 0 min -1,6 C 5,1 km/h (1 Bft)
28.02.2016 09:22 -0,5 C -0,7 C 93 % 1004,8 hPa 0,0 mm 4,2 km/h (1 Bft) O-NO 67 0 min -1,5 C 3,9 km/h (1 Bft)
28.02.2016 09:23 -0,5 C -0,7 C 93 % 1004,8 hPa 0,0 mm 4,2 km/h (1 Bft) O-NO 67 0 min -1,5 C 3,9 km/h (1 Bft)
28.02.2016 09:24 -0,5 C -0,7 C 93 % 1004,8 hPa 0,0 mm 4,5 km/h (1 Bft) O-NO 67 0 min -1,5 C 6,9 km/h (2 Bft)
28.02.2016 09:25 -0,5 C -0,7 C 93 % 1004,8 hPa 0,0 mm 4,5 km/h (1 Bft) O-NO 67 0 min -1,5 C 6,9 km/h (2 Bft)
28.02.2016 09:26 -0,5 C -0,7 C 93 % 1004,8 hPa 0,0 mm 4,5 km/h (1 Bft) O-NO 67 0 min -1,5 C 3,9 km/h (1 Bft)
28.02.2016 09:27 -0,5 C -0,7 C 93 % 1004,8 hPa 0,0 mm 4,5 km/h (1 Bft) O-NO 67 0 min -1,5 C 3,9 km/h (1 Bft)
28.02.2016 09:28 -0,4 C -0,6 C 93 % 1005,2 hPa 0,0 mm 3,6 km/h (1 Bft) W-NW 292 0 min -1,4 C 0,0 km/h (0 Bft)
28.02.2016 09:29 -0,4 C -0,6 C 93 % 1005,2 hPa 0,0 mm 3,6 km/h (1 Bft) W-NW 292 0 min -1,4 C 0,0 km/h (0 Bft)
28.02.2016 09:30 -0,3 C -0,5 C 93 % 1005,2 hPa 0,0 mm 3,0 km/h (1 Bft) W-NW 292 0 min -1,3 C 3,0 km/h (1 Bft)
28.02.2016 09:31 -0,3 C -0,5 C 93 % 1005,2 hPa 0,0 mm 3,0 km/h (1 Bft) W-NW 292 0 min -1,3 C 3,0 km/h (1 Bft)
28.02.2016 09:32 -0,3 C -0,5 C 93 % 1005,2 hPa 0,0 mm 2,4 km/h (1 Bft) N-NO 22 0 min -1,3 C 0,0 km/h (0 Bft)
28.02.2016 09:33 -0,3 C -0,5 C 93 % 1005,2 hPa 0,0 mm 2,4 km/h (1 Bft) N-NO 22 0 min -1,3 C 0,0 km/h (0 Bft)
28.02.2016 09:34 -0,4 C -0,6 C 93 % 1005,2 hPa 0,0 mm 1,8 km/h (1 Bft) NO 45 0 min -1,4 C 0,0 km/h (0 Bft)
28.02.2016 09:35 -0,4 C -0,6 C 93 % 1005,2 hPa 0,0 mm 1,8 km/h (1 Bft) NO 45 0 min -1,4 C 0,0 km/h (0 Bft)
28.02.2016 09:36 -0,4 C -0,6 C 93 % 1005,2 hPa 0,0 mm 1,2 km/h (1 Bft) O 90 0 min -1,4 C 4,2 km/h (1 Bft)
28.02.2016 09:37 -0,4 C -0,6 C 93 % 1005,2 hPa 0,0 mm 1,2 km/h (1 Bft) O 90 0 min -1,4 C 4,2 km/h (1 Bft)
28.02.2016 09:38 -0,4 C -0,5 C 93 % 1005,2 hPa 0,0 mm 1,5 km/h (1 Bft) O-NO 67 0 min -1,4 C 3,9 km/h (1 Bft)
28.02.2016 09:39 -0,4 C -0,5 C 93 % 1005,2 hPa 0,0 mm 1,5 km/h (1 Bft) O-NO 67 0 min -1,4 C 3,9 km/h (1 Bft)
28.02.2016 09:40 -0,4 C -0,5 C 93 % 1005,2 hPa 0,0 mm 1,8 km/h (1 Bft) NO 45 0 min -1,4 C 4,2 km/h (1 Bft)
28.02.2016 09:41 -0,4 C -0,5 C 93 % 1005,2 hPa 0,0 mm 1,8 km/h (1 Bft) NO 45 0 min -1,4 C 4,2 km/h (1 Bft)
28.02.2016 09:42 -0,4 C -0,5 C 93 % 1005,2 hPa 0,0 mm 1,2 km/h (1 Bft) SW 225 0 min -1,4 C 0,0 km/h (0 Bft)
28.02.2016 09:43 -0,4 C -0,5 C 93 % 1005,2 hPa 0,0 mm 1,2 km/h (1 Bft) SW 225 0 min -1,4 C 0,0 km/h (0 Bft)
28.02.2016 09:44 -0,3 C -0,5 C 93 % 1005,2 hPa 0,0 mm 1,2 km/h (1 Bft) W-NW 292 0 min -1,3 C 0,0 km/h (0 Bft)
28.02.2016 09:45 -0,3 C -0,5 C 93 % 1005,2 hPa 0,0 mm 1,2 km/h (1 Bft) W-NW 292 0 min -1,3 C 0,0 km/h (0 Bft)
28.02.2016 09:46 -0,1 C -0,3 C 93 % 1005,2 hPa 0,0 mm 1,2 km/h (1 Bft) W 270 0 min -1,1 C 0,0 km/h (0 Bft)
28.02.2016 09:47 -0,1 C -0,3 C 93 % 1005,2 hPa 0,0 mm 1,2 km/h (1 Bft) W 270 0 min -1,1 C 0,0 km/h (0 Bft)
28.02.2016 09:48 -0,1 C -0,3 C 93 % 1005,2 hPa 0,0 mm 0,9 km/h (0 Bft) NW 315 0 min -1,1 C 0,0 km/h (0 Bft)
28.02.2016 09:49 -0,1 C -0,3 C 93 % 1005,2 hPa 0,0 mm 0,9 km/h (0 Bft) NW 315 0 min -1,1 C 0,0 km/h (0 Bft)
28.02.2016 09:50 -0,1 C -0,3 C 93 % 1005,2 hPa 0,0 mm 0,3 km/h (0 Bft) W-NW 292 0 min -1,1 C 0,0 km/h (0 Bft)
28.02.2016 09:51 -0,1 C -0,3 C 93 % 1005,2 hPa 0,0 mm 0,3 km/h (0 Bft) W-NW 292 0 min -1,1 C 0,0 km/h (0 Bft)
28.02.2016 09:52 -0,1 C -0,3 C 93 % 1005,2 hPa 0,0 mm 0,0 km/h (0 Bft) NO 45 0 min -1,1 C 0,0 km/h (0 Bft)
28.02.2016 09:53 -0,1 C -0,3 C 93 % 1005,2 hPa 0,0 mm 0,0 km/h (0 Bft) NO 45 0 min -1,1 C 0,0 km/h (0 Bft)
28.02.2016 09:54 0,0 C -0,2 C 93 % 1005,2 hPa 0,0 mm 0,0 km/h (0 Bft) N-NO 22 0 min -1,0 C 0,0 km/h (0 Bft)
28.02.2016 09:55 0,0 C -0,2 C 93 % 1005,2 hPa 0,0 mm 0,0 km/h (0 Bft) N-NO 22 0 min -1,0 C 0,0 km/h (0 Bft)
28.02.2016 09:56 0,0 C -0,2 C 93 % 1005,2 hPa 0,0 mm 0,9 km/h (0 Bft) O-NO 67 0 min -1,0 C 4,2 km/h (1 Bft)
28.02.2016 09:57 0,0 C -0,2 C 93 % 1005,2 hPa 0,0 mm 0,9 km/h (0 Bft) O-NO 67 0 min -1,0 C 4,2 km/h (1 Bft)
28.02.2016 09:58 0,0 C -0,2 C 93 % 1005,2 hPa 0,0 mm 0,9 km/h (0 Bft) S 180 0 min -1,0 C 0,0 km/h (0 Bft)
28.02.2016 09:59 0,0 C -0,2 C 93 % 1005,2 hPa 0,0 mm 0,9 km/h (0 Bft) S 180 0 min -1,0 C 0,0 km/h (0 Bft)
28.02.2016 10:00 0,0 C 0,0 C 93 % 1005,2 hPa 0,0 mm 0,9 km/h (0 Bft) SO 135 0 min -1,0 C 0,0 km/h (0 Bft)
28.02.2016 10:01 0,0 C 0,0 C 93 % 1005,2 hPa 0,0 mm 0,9 km/h (0 Bft) SO 135 0 min -1,0 C 0,0 km/h (0 Bft)
28.02.2016 10:02 0,0 C 0,0 C 93 % 1005,2 hPa 0,0 mm 1,5 km/h (1 Bft) NO 45 0 min -1,0 C 5,7 km/h (1 Bft)
28.02.2016 10:03 0,0 C 0,0 C 93 % 1005,2 hPa 0,0 mm 1,5 km/h (1 Bft) NO 45 0 min -1,0 C 5,7 km/h (1 Bft)
28.02.2016 10:04 0,0 C 0,1 C 93 % 1005,2 hPa 0,0 mm 1,8 km/h (1 Bft) O-NO 67 0 min -1,0 C 0,0 km/h (0 Bft)
28.02.2016 10:05 0,0 C 0,1 C 93 % 1005,2 hPa 0,0 mm 1,8 km/h (1 Bft) O-NO 67 0 min -1,0 C 0,0 km/h (0 Bft)
28.02.2016 10:06 0,0 C 0,2 C 93 % 1005,2 hPa 0,0 mm 1,5 km/h (1 Bft) O-SO 112 0 min -1,0 C 0,0 km/h (0 Bft)
28.02.2016 10:07 0,0 C 0,2 C 93 % 1005,2 hPa 0,0 mm 1,5 km/h (1 Bft) O-SO 112 0 min -1,0 C 0,0 km/h (0 Bft)
28.02.2016 10:08 0,0 C 0,2 C 93 % 1005,2 hPa 0,0 mm 1,2 km/h (1 Bft) NO 45 0 min -1,0 C 4,5 km/h (1 Bft)
28.02.2016 10:09 0,0 C 0,2 C 93 % 1005,2 hPa 0,0 mm 1,2 km/h (1 Bft) NO 45 0 min -1,0 C 4,5 km/h (1 Bft)
28.02.2016 10:10 0,0 C 0,4 C 93 % 1005,2 hPa 0,0 mm 1,5 km/h (1 Bft) N-NO 22 0 min -1,0 C 0,0 km/h (0 Bft)
28.02.2016 10:11 0,0 C 0,4 C 93 % 1005,2 hPa 0,0 mm 1,5 km/h (1 Bft) N-NO 22 0 min -1,0 C 0,0 km/h (0 Bft)
28.02.2016 10:12 0,0 C 0,3 C 93 % 1005,2 hPa 0,0 mm 2,1 km/h (1 Bft) O 90 0 min -1,0 C 5,7 km/h (1 Bft)
28.02.2016 10:13 0,0 C 0,3 C 93 % 1005,2 hPa 0,0 mm 2,1 km/h (1 Bft) O 90 0 min -1,0 C 5,7 km/h (1 Bft)
28.02.2016 10:14 0,0 C 0,3 C 92 % 1005,2 hPa 0,0 mm 2,1 km/h (1 Bft) NO 45 0 min -1,1 C 7,5 km/h (2 Bft)
28.02.2016 10:16 0,0 C 0,4 C 92 % 1005,2 hPa 0,0 mm 2,7 km/h (1 Bft) NO 45 0 min -1,1 C 0,0 km/h (0 Bft)
28.02.2016 10:19 0,0 C 0,8 C 92 % 1005,2 hPa 0,0 mm 3,3 km/h (1 Bft) N-NO 22 0 min -1,1 C 8,6 km/h (2 Bft)
28.02.2016 10:20 0,0 C 0,8 C 92 % 1005,2 hPa 0,0 mm 4,2 km/h (1 Bft) O-NO 67 0 min -1,1 C 6,9 km/h (2 Bft)
28.02.2016 10:21 0,0 C 0,8 C 92 % 1005,2 hPa 0,0 mm 4,2 km/h (1 Bft) O-NO 67 0 min -1,1 C 6,9 km/h (2 Bft)
28.02.2016 10:23 0,0 C 0,9 C 92 % 1005,2 hPa 0,0 mm 4,5 km/h (1 Bft) O-NO 67 0 min -1,1 C 4,2 km/h (1 Bft)
28.02.2016 10:26 0,0 C 1,0 C 91 % 1005,2 hPa 0,0 mm 5,1 km/h (1 Bft) O-NO 67 0 min -1,3 C 12,8 km/h (3 Bft)
28.02.2016 10:27 0,0 C 1,0 C 91 % 1005,2 hPa 0,0 mm 5,1 km/h (1 Bft) O-NO 67 0 min -1,3 C 12,8 km/h (3 Bft)
28.02.2016 10:28 0,0 C 1,0 C 91 % 1005,0 hPa 0,0 mm 6,6 km/h (2 Bft) O-NO 67 0 min -1,3 C 13,1 km/h (3 Bft)
28.02.2016 10:29 0,0 C 1,0 C 91 % 1005,0 hPa 0,0 mm 6,6 km/h (2 Bft) O-NO 67 0 min -1,3 C 13,1 km/h (3 Bft)
28.02.2016 10:34 0,0 C 1,2 C 90 % 1005,0 hPa 0,0 mm 7,5 km/h (2 Bft) NO 45 0 min -1,4 C 7,7 km/h (2 Bft)
28.02.2016 10:39 0,0 C 1,4 C 89 % 1005,0 hPa 0,0 mm 7,2 km/h (2 Bft) NO 45 0 min -1,6 C 12,2 km/h (2 Bft)
28.02.2016 10:44 0,0 C 1,8 C 88 % 1005,0 hPa 0,0 mm 6,3 km/h (2 Bft) O-NO 67 0 min -1,7 C 5,7 km/h (1 Bft)
28.02.2016 10:49 0,0 C 1,5 C 86 % 1005,2 hPa 0,0 mm 7,7 km/h (2 Bft) O-NO 67 0 min -2,1 C 15,5 km/h (3 Bft)
28.02.2016 10:54 0,0 C 1,7 C 85 % 1005,2 hPa 0,0 mm 8,6 km/h (2 Bft) O-NO 67 0 min -2,2 C 8,9 km/h (2 Bft)
28.02.2016 10:59 0,0 C 1,8 C 84 % 1005,2 hPa 0,0 mm 8,3 km/h (2 Bft) NO 45 0 min -2,4 C 5,7 km/h (1 Bft)
28.02.2016 11:00 0,0 C 2,1 C 84 % 1005,2 hPa 0,0 mm 7,7 km/h (2 Bft) NO 45 0 min -2,4 C 8,0 km/h (2 Bft)
28.02.2016 11:01 0,0 C 2,1 C 84 % 1005,2 hPa 0,0 mm 7,7 km/h (2 Bft) NO 45 0 min -2,4 C 8,0 km/h (2 Bft)
28.02.2016 11:02 0,0 C 2,1 C 84 % 1005,2 hPa 0,0 mm 7,5 km/h (2 Bft) NO 45 0 min -2,4 C 10,1 km/h (2 Bft)
28.02.2016 11:03 0,0 C 2,1 C 84 % 1005,2 hPa 0,0 mm 7,5 km/h (2 Bft) NO 45 0 min -2,4 C 10,1 km/h (2 Bft)
28.02.2016 11:04 0,0 C 2,3 C 83 % 1005,2 hPa 0,0 mm 7,7 km/h (2 Bft) O-NO 67 0 min -2,5 C 9,8 km/h (2 Bft)
28.02.2016 11:05 0,0 C 2,3 C 83 % 1005,2 hPa 0,0 mm 7,7 km/h (2 Bft) O-NO 67 0 min -2,5 C 9,8 km/h (2 Bft)
28.02.2016 11:06 0,0 C 2,2 C 83 % 1005,2 hPa 0,0 mm 7,7 km/h (2 Bft) NO 45 0 min -2,5 C 10,4 km/h (2 Bft)
28.02.2016 11:07 0,0 C 2,2 C 83 % 1005,2 hPa 0,0 mm 7,7 km/h (2 Bft) NO 45 0 min -2,5 C 10,4 km/h (2 Bft)
28.02.2016 11:08 0,7 C 2,5 C 87 % 1005,1 hPa 0,0 mm 8,0 km/h (2 Bft) NO 45 0 min -1,2 C 13,4 km/h (3 Bft)
28.02.2016 11:09 0,7 C 2,5 C 87 % 1005,1 hPa 0,0 mm 8,0 km/h (2 Bft) NO 45 0 min -1,2 C 13,4 km/h (3 Bft)
28.02.2016 11:10 0,7 C 2,5 C 87 % 1005,1 hPa 0,0 mm 8,6 km/h (2 Bft) O-SO 112 0 min -1,2 C 8,9 km/h (2 Bft)
28.02.2016 11:11 0,7 C 2,5 C 87 % 1005,1 hPa 0,0 mm 8,6 km/h (2 Bft) O-SO 112 0 min -1,2 C 8,9 km/h (2 Bft)
28.02.2016 11:12 0,8 C 2,7 C 87 % 1005,1 hPa 0,0 mm 8,9 km/h (2 Bft) O-NO 67 0 min -1,1 C 6,9 km/h (2 Bft)
28.02.2016 11:13 0,8 C 2,7 C 87 % 1005,1 hPa 0,0 mm 8,9 km/h (2 Bft) O-NO 67 0 min -1,1 C 6,9 km/h (2 Bft)
28.02.2016 11:14 0,8 C 2,6 C 87 % 1005,1 hPa 0,0 mm 8,6 km/h (2 Bft) O-NO 67 0 min -1,1 C 5,7 km/h (1 Bft)
28.02.2016 11:15 0,8 C 2,6 C 87 % 1005,1 hPa 0,0 mm 8,6 km/h (2 Bft) O-NO 67 0 min -1,1 C 5,7 km/h (1 Bft)
28.02.2016 11:16 0,8 C 2,7 C 87 % 1005,1 hPa 0,0 mm 8,3 km/h (2 Bft) O-NO 67 0 min -1,1 C 8,6 km/h (2 Bft)
28.02.2016 11:17 0,8 C 2,7 C 87 % 1005,1 hPa 0,0 mm 8,3 km/h (2 Bft) O-NO 67 0 min -1,1 C 8,6 km/h (2 Bft)
28.02.2016 11:18 0,8 C 2,7 C 87 % 1005,1 hPa 0,0 mm 8,3 km/h (2 Bft) O-SO 112 0 min -1,1 C 10,1 km/h (2 Bft)
28.02.2016 11:19 0,8 C 2,7 C 87 % 1005,1 hPa 0,0 mm 8,3 km/h (2 Bft) O-SO 112 0 min -1,1 C 10,1 km/h (2 Bft)
28.02.2016 11:20 0,9 C 2,9 C 87 % 1005,1 hPa 0,0 mm 7,7 km/h (2 Bft) NO 45 0 min -1,0 C 8,3 km/h (2 Bft)
28.02.2016 11:21 0,9 C 2,9 C 87 % 1005,1 hPa 0,0 mm 7,7 km/h (2 Bft) NO 45 0 min -1,0 C 8,3 km/h (2 Bft)
28.02.2016 11:22 0,9 C 2,9 C 87 % 1005,1 hPa 0,0 mm 7,5 km/h (2 Bft) NO 45 0 min -1,0 C 4,2 km/h (1 Bft)
28.02.2016 11:23 0,9 C 2,9 C 87 % 1005,1 hPa 0,0 mm 7,5 km/h (2 Bft) NO 45 0 min -1,0 C 4,2 km/h (1 Bft)
28.02.2016 11:24 1,0 C 3,2 C 87 % 1005,1 hPa 0,0 mm 7,2 km/h (2 Bft) NO 45 0 min -0,9 C 6,6 km/h (2 Bft)
28.02.2016 11:25 1,0 C 3,2 C 87 % 1005,1 hPa 0,0 mm 7,2 km/h (2 Bft) NO 45 0 min -0,9 C 6,6 km/h (2 Bft)
28.02.2016 11:26 1,1 C 3,5 C 87 % 1005,1 hPa 0,0 mm 6,3 km/h (2 Bft) N-NO 22 0 min -0,8 C 4,5 km/h (1 Bft)
28.02.2016 11:27 1,1 C 3,5 C 87 % 1005,1 hPa 0,0 mm 6,3 km/h (2 Bft) N-NO 22 0 min -0,8 C 4,5 km/h (1 Bft)
28.02.2016 11:28 1,3 C 3,8 C 87 % 1005,1 hPa 0,0 mm 6,3 km/h (2 Bft) NO 45 0 min -0,6 C 9,5 km/h (2 Bft)
28.02.2016 11:29 1,3 C 3,8 C 87 % 1005,1 hPa 0,0 mm 6,3 km/h (2 Bft) NO 45 0 min -0,6 C 9,5 km/h (2 Bft)
28.02.2016 11:30 1,4 C 4,1 C 87 % 1005,1 hPa 0,0 mm 6,6 km/h (2 Bft) O-NO 67 0 min -0,5 C 8,0 km/h (2 Bft)
28.02.2016 11:31 1,4 C 4,1 C 87 % 1005,1 hPa 0,0 mm 6,6 km/h (2 Bft) O-NO 67 0 min -0,5 C 8,0 km/h (2 Bft)
28.02.2016 11:32 1,4 C 4,3 C 87 % 1005,1 hPa 0,0 mm 6,9 km/h (2 Bft) O-NO 67 0 min -0,5 C 11,6 km/h (2 Bft)
28.02.2016 11:33 1,4 C 4,3 C 87 % 1005,1 hPa 0,0 mm 6,9 km/h (2 Bft) O-NO 67 0 min -0,5 C 11,6 km/h (2 Bft)
28.02.2016 11:34 1,5 C 4,5 C 87 % 1005,1 hPa 0,0 mm 7,5 km/h (2 Bft) O-NO 67 0 min -0,4 C 8,9 km/h (2 Bft)
28.02.2016 11:35 1,5 C 4,5 C 87 % 1005,1 hPa 0,0 mm 7,5 km/h (2 Bft) O-NO 67 0 min -0,4 C 8,9 km/h (2 Bft)
28.02.2016 11:36 1,5 C 4,7 C 86 % 1005,1 hPa 0,0 mm 7,7 km/h (2 Bft) N-NO 22 0 min -0,6 C 10,1 km/h (2 Bft)
28.02.2016 11:37 1,5 C 4,7 C 86 % 1005,1 hPa 0,0 mm 7,7 km/h (2 Bft) N-NO 22 0 min -0,6 C 10,1 km/h (2 Bft)
28.02.2016 11:38 1,6 C 4,8 C 86 % 1005,1 hPa 0,0 mm 8,6 km/h (2 Bft) O-NO 67 0 min -0,5 C 10,7 km/h (2 Bft)
28.02.2016 11:39 1,6 C 4,8 C 86 % 1005,1 hPa 0,0 mm 8,6 km/h (2 Bft) O-NO 67 0 min -0,5 C 10,7 km/h (2 Bft)
28.02.2016 11:40 1,6 C 4,9 C 86 % 1005,1 hPa 0,0 mm 8,6 km/h (2 Bft) O-NO 67 0 min -0,5 C 11,3 km/h (2 Bft)
28.02.2016 11:41 1,6 C 4,9 C 86 % 1005,1 hPa 0,0 mm 8,6 km/h (2 Bft) O-NO 67 0 min -0,5 C 11,3 km/h (2 Bft)
28.02.2016 11:42 1,6 C 4,9 C 86 % 1005,1 hPa 0,0 mm 8,9 km/h (2 Bft) O-NO 67 0 min -0,5 C 10,7 km/h (2 Bft)
28.02.2016 11:43 1,6 C 4,9 C 86 % 1005,1 hPa 0,0 mm 8,9 km/h (2 Bft) O-NO 67 0 min -0,5 C 10,7 km/h (2 Bft)
28.02.2016 11:44 1,7 C 4,8 C 86 % 1005,1 hPa 0,0 mm 8,9 km/h (2 Bft) NO 45 0 min -0,4 C 8,6 km/h (2 Bft)
28.02.2016 11:45 1,7 C 4,8 C 86 % 1005,1 hPa 0,0 mm 8,9 km/h (2 Bft) NO 45 0 min -0,4 C 8,6 km/h (2 Bft)
28.02.2016 11:46 1,7 C 4,8 C 86 % 1005,1 hPa 0,0 mm 8,9 km/h (2 Bft) O-NO 67 0 min -0,4 C 6,3 km/h (2 Bft)
28.02.2016 11:47 1,7 C 4,8 C 86 % 1005,1 hPa 0,0 mm 8,9 km/h (2 Bft) O-NO 67 0 min -0,4 C 6,3 km/h (2 Bft)
28.02.2016 11:48 1,7 C 5,0 C 86 % 1005,8 hPa 0,0 mm 8,6 km/h (2 Bft) O 90 0 min -0,4 C 8,9 km/h (2 Bft)
28.02.2016 11:49 1,7 C 5,0 C 86 % 1005,8 hPa 0,0 mm 8,6 km/h (2 Bft) O 90 0 min -0,4 C 8,9 km/h (2 Bft)
28.02.2016 11:50 1,8 C 5,2 C 86 % 1005,8 hPa 0,0 mm 8,0 km/h (2 Bft) N-NO 22 0 min -0,3 C 6,6 km/h (2 Bft)
28.02.2016 11:51 1,8 C 5,2 C 86 % 1005,8 hPa 0,0 mm 8,0 km/h (2 Bft) N-NO 22 0 min -0,3 C 6,6 km/h (2 Bft)
28.02.2016 11:52 1,9 C 5,5 C 86 % 1005,8 hPa 0,0 mm 7,5 km/h (2 Bft) O-NO 67 0 min -0,2 C 9,2 km/h (2 Bft)
28.02.2016 11:53 1,9 C 5,5 C 86 % 1005,8 hPa 0,0 mm 7,5 km/h (2 Bft) O-NO 67 0 min -0,2 C 9,2 km/h (2 Bft)
28.02.2016 11:54 1,9 C 5,7 C 86 % 1005,8 hPa 0,0 mm 6,9 km/h (2 Bft) N 360 0 min -0,2 C 9,5 km/h (2 Bft)
28.02.2016 11:55 1,9 C 5,7 C 86 % 1005,8 hPa 0,0 mm 6,9 km/h (2 Bft) N 360 0 min -0,2 C 9,5 km/h (2 Bft)
28.02.2016 11:56 2,0 C 5,7 C 86 % 1005,8 hPa 0,0 mm 6,6 km/h (2 Bft) NO 45 0 min -0,1 C 8,9 km/h (2 Bft)
28.02.2016 11:57 2,0 C 5,7 C 86 % 1005,8 hPa 0,0 mm 6,6 km/h (2 Bft) NO 45 0 min -0,1 C 8,9 km/h (2 Bft)
28.02.2016 11:58 2,0 C 5,7 C 86 % 1005,8 hPa 0,0 mm 6,6 km/h (2 Bft) O-NO 67 0 min -0,1 C 6,3 km/h (2 Bft)
28.02.2016 11:59 2,0 C 5,7 C 86 % 1005,8 hPa 0,0 mm 6,6 km/h (2 Bft) O-NO 67 0 min -0,1 C 6,3 km/h (2 Bft)
28.02.2016 12:00 2,2 C 5,9 C 86 % 1005,8 hPa 0,0 mm 5,7 km/h (1 Bft) NO 45 0 min 0,1 C 3,9 km/h (1 Bft)
28.02.2016 12:01 2,2 C 5,9 C 86 % 1005,8 hPa 0,0 mm 5,7 km/h (1 Bft) NO 45 0 min 0,1 C 3,9 km/h (1 Bft)
28.02.2016 12:02 2,2 C 6,0 C 86 % 1005,8 hPa 0,0 mm 5,4 km/h (1 Bft) O-NO 67 0 min 0,1 C 4,2 km/h (1 Bft)
28.02.2016 12:03 2,2 C 6,0 C 86 % 1005,8 hPa 0,0 mm 5,4 km/h (1 Bft) O-NO 67 0 min 0,1 C 4,2 km/h (1 Bft)
28.02.2016 12:04 2,3 C 6,1 C 86 % 1005,8 hPa 0,0 mm 4,8 km/h (1 Bft) N-NW 337 0 min 0,2 C 0,0 km/h (0 Bft)
28.02.2016 12:05 2,3 C 6,1 C 86 % 1005,8 hPa 0,0 mm 4,8 km/h (1 Bft) N-NW 337 0 min 0,2 C 0,0 km/h (0 Bft)
28.02.2016 12:06 2,4 C 6,2 C 86 % 1005,8 hPa 0,0 mm 4,2 km/h (1 Bft) O-NO 67 0 min 0,3 C 4,8 km/h (1 Bft)
28.02.2016 12:07 2,4 C 6,2 C 86 % 1005,8 hPa 0,0 mm 4,2 km/h (1 Bft) O-NO 67 0 min 0,3 C 4,8 km/h (1 Bft)
28.02.2016 12:08 2,5 C 6,4 C 86 % 1006,2 hPa 0,0 mm 2,7 km/h (1 Bft) O-NO 67 0 min 0,4 C 0,0 km/h (0 Bft)
28.02.2016 12:09 2,5 C 6,4 C 86 % 1006,2 hPa 0,0 mm 2,7 km/h (1 Bft) O-NO 67 0 min 0,4 C 0,0 km/h (0 Bft)
28.02.2016 12:10 2,6 C 6,7 C 86 % 1006,2 hPa 0,0 mm 2,1 km/h (1 Bft) O-NO 67 0 min 0,5 C 0,0 km/h (0 Bft)
28.02.2016 12:11 2,6 C 6,7 C 86 % 1006,2 hPa 0,0 mm 2,1 km/h (1 Bft) O-NO 67 0 min 0,5 C 0,0 km/h (0 Bft)
28.02.2016 12:12 2,8 C 7,0 C 86 % 1006,2 hPa 0,0 mm 1,8 km/h (1 Bft) N-NO 22 0 min 0,7 C 0,0 km/h (0 Bft)
28.02.2016 12:13 2,8 C 7,0 C 86 % 1006,2 hPa 0,0 mm 1,8 km/h (1 Bft) N-NO 22 0 min 0,7 C 0,0 km/h (0 Bft)
28.02.2016 12:14 2,9 C 7,2 C 86 % 1006,2 hPa 0,0 mm 1,2 km/h (1 Bft) N-NO 22 0 min 0,8 C 5,7 km/h (1 Bft)
28.02.2016 12:15 2,9 C 7,2 C 86 % 1006,2 hPa 0,0 mm 1,2 km/h (1 Bft) N-NO 22 0 min 0,8 C 5,7 km/h (1 Bft)
28.02.2016 12:16 3,0 C 7,2 C 85 % 1006,2 hPa 0,0 mm 1,2 km/h (1 Bft) NO 45 0 min 0,7 C 4,5 km/h (1 Bft)
28.02.2016 12:17 3,0 C 7,2 C 85 % 1006,2 hPa 0,0 mm 1,2 km/h (1 Bft) NO 45 0 min 0,7 C 4,5 km/h (1 Bft)
28.02.2016 12:18 3,0 C 7,2 C 84 % 1006,2 hPa 0,0 mm 0,6 km/h (0 Bft) NW 315 0 min 0,6 C 0,0 km/h (0 Bft)
28.02.2016 12:19 3,0 C 7,2 C 84 % 1006,2 hPa 0,0 mm 0,6 km/h (0 Bft) NW 315 0 min 0,6 C 0,0 km/h (0 Bft)
28.02.2016 12:20 3,0 C 7,1 C 84 % 1006,2 hPa 0,0 mm 0,6 km/h (0 Bft) N-NO 22 0 min 0,6 C 0,0 km/h (0 Bft)
28.02.2016 12:21 3,0 C 7,1 C 84 % 1006,2 hPa 0,0 mm 0,6 km/h (0 Bft) N-NO 22 0 min 0,6 C 0,0 km/h (0 Bft)
28.02.2016 12:22 3,1 C 7,1 C 84 % 1006,2 hPa 0,0 mm 0,6 km/h (0 Bft) NO 45 0 min 0,7 C 0,0 km/h (0 Bft)
28.02.2016 12:23 3,1 C 7,1 C 84 % 1006,2 hPa 0,0 mm 0,6 km/h (0 Bft) NO 45 0 min 0,7 C 0,0 km/h (0 Bft)
28.02.2016 12:24 3,0 C 7,0 C 84 % 1006,2 hPa 0,0 mm 1,2 km/h (1 Bft) NO 45 0 min 0,6 C 4,8 km/h (1 Bft)
28.02.2016 12:25 3,0 C 7,0 C 84 % 1006,2 hPa 0,0 mm 1,2 km/h (1 Bft) NO 45 0 min 0,6 C 4,8 km/h (1 Bft)
28.02.2016 12:26 2,9 C 6,8 C 85 % 1006,2 hPa 0,0 mm 1,2 km/h (1 Bft) N-NO 22 0 min 0,6 C 5,4 km/h (1 Bft)
28.02.2016 12:27 2,9 C 6,8 C 85 % 1006,2 hPa 0,0 mm 1,2 km/h (1 Bft) N-NO 22 0 min 0,6 C 5,4 km/h (1 Bft)
28.02.2016 12:28 2,8 C 6,7 C 85 % 1006,6 hPa 0,0 mm 1,5 km/h (1 Bft) NW 315 0 min 0,5 C 0,0 km/h (0 Bft)
28.02.2016 12:29 2,8 C 6,7 C 85 % 1006,6 hPa 0,0 mm 1,5 km/h (1 Bft) NW 315 0 min 0,5 C 0,0 km/h (0 Bft)
28.02.2016 12:30 2,8 C 6,5 C 85 % 1006,6 hPa 0,0 mm 1,2 km/h (1 Bft) NO 45 0 min 0,5 C 0,0 km/h (0 Bft)
28.02.2016 12:31 2,8 C 6,5 C 85 % 1006,6 hPa 0,0 mm 1,2 km/h (1 Bft) NO 45 0 min 0,5 C 0,0 km/h (0 Bft)
28.02.2016 12:32 2,9 C 6,5 C 84 % 1006,6 hPa 0,0 mm 1,2 km/h (1 Bft) O-NO 67 0 min 0,5 C 0,0 km/h (0 Bft)
28.02.2016 12:33 2,9 C 6,5 C 84 % 1006,6 hPa 0,0 mm 1,2 km/h (1 Bft) O-NO 67 0 min 0,5 C 0,0 km/h (0 Bft)
28.02.2016 12:34 2,9 C 6,6 C 84 % 1006,6 hPa 0,0 mm 0,9 km/h (0 Bft) N-NO 22 0 min 0,5 C 0,0 km/h (0 Bft)
28.02.2016 12:35 2,9 C 6,6 C 84 % 1006,6 hPa 0,0 mm 0,9 km/h (0 Bft) N-NO 22 0 min 0,5 C 0,0 km/h (0 Bft)
28.02.2016 12:36 3,1 C 6,9 C 84 % 1006,6 hPa 0,0 mm 0,9 km/h (0 Bft) NW 315 0 min 0,7 C 3,6 km/h (1 Bft)
28.02.2016 12:37 3,1 C 6,9 C 84 % 1006,6 hPa 0,0 mm 0,9 km/h (0 Bft) NW 315 0 min 0,7 C 3,6 km/h (1 Bft)
28.02.2016 12:38 3,3 C 7,0 C 84 % 1006,6 hPa 0,0 mm 0,3 km/h (0 Bft) W 270 0 min 0,9 C 0,0 km/h (0 Bft)
28.02.2016 12:39 3,3 C 7,0 C 84 % 1006,6 hPa 0,0 mm 0,3 km/h (0 Bft) W 270 0 min 0,9 C 0,0 km/h (0 Bft)
28.02.2016 12:40 3,3 C 7,1 C 84 % 1006,6 hPa 0,0 mm 0,3 km/h (0 Bft) NW 315 0 min 0,9 C 0,0 km/h (0 Bft)
28.02.2016 12:41 3,3 C 7,1 C 84 % 1006,6 hPa 0,0 mm 0,3 km/h (0 Bft) NW 315 0 min 0,9 C 0,0 km/h (0 Bft)
28.02.2016 12:42 3,4 C 7,2 C 83 % 1006,6 hPa 0,0 mm 0,6 km/h (0 Bft) W-NW 292 0 min 0,8 C 0,0 km/h (0 Bft)
28.02.2016 12:43 3,4 C 7,2 C 83 % 1006,6 hPa 0,0 mm 0,6 km/h (0 Bft) W-NW 292 0 min 0,8 C 0,0 km/h (0 Bft)
28.02.2016 12:44 3,6 C 7,3 C 83 % 1006,6 hPa 0,0 mm 0,6 km/h (0 Bft) W 270 0 min 1,0 C 0,0 km/h (0 Bft)
28.02.2016 12:45 3,6 C 7,3 C 83 % 1006,6 hPa 0,0 mm 0,6 km/h (0 Bft) W 270 0 min 1,0 C 0,0 km/h (0 Bft)
28.02.2016 12:46 3,7 C 7,4 C 83 % 1006,6 hPa 0,0 mm 0,6 km/h (0 Bft) W 270 0 min 1,1 C 0,0 km/h (0 Bft)
28.02.2016 12:47 3,7 C 7,4 C 83 % 1006,6 hPa 0,0 mm 0,6 km/h (0 Bft) W 270 0 min 1,1 C 0,0 km/h (0 Bft)
28.02.2016 12:48 3,7 C 7,9 C 83 % 1006,2 hPa 0,0 mm 0,3 km/h (0 Bft) SO 135 0 min 1,1 C 0,0 km/h (0 Bft)
28.02.2016 12:49 3,7 C 7,9 C 83 % 1006,2 hPa 0,0 mm 0,3 km/h (0 Bft) SO 135 0 min 1,1 C 0,0 km/h (0 Bft)
28.02.2016 12:50 3,8 C 8,1 C 83 % 1006,2 hPa 0,0 mm 0,3 km/h (0 Bft) O-NO 67 0 min 1,2 C 0,0 km/h (0 Bft)
28.02.2016 12:51 3,8 C 8,1 C 83 % 1006,2 hPa 0,0 mm 0,3 km/h (0 Bft) O-NO 67 0 min 1,2 C 0,0 km/h (0 Bft)
28.02.2016 12:52 3,8 C 8,3 C 83 % 1006,2 hPa 0,0 mm 0,0 km/h (0 Bft) O-NO 67 0 min 1,2 C 0,0 km/h (0 Bft)
28.02.2016 12:53 3,8 C 8,3 C 83 % 1006,2 hPa 0,0 mm 0,0 km/h (0 Bft) O-NO 67 0 min 1,2 C 0,0 km/h (0 Bft)
28.02.2016 12:54 3,8 C 8,2 C 82 % 1006,2 hPa 0,0 mm 0,0 km/h (0 Bft) O-NO 67 1 min 1,0 C 0,0 km/h (0 Bft)
28.02.2016 12:55 3,8 C 8,2 C 82 % 1006,2 hPa 0,0 mm 0,0 km/h (0 Bft) O-NO 67 1 min 1,0 C 0,0 km/h (0 Bft)
28.02.2016 12:56 3,7 C 8,1 C 82 % 1006,2 hPa 0,0 mm 0,0 km/h (0 Bft) O-NO 67 1 min 0,9 C 0,0 km/h (0 Bft)
28.02.2016 12:57 3,7 C 8,1 C 82 % 1006,2 hPa 0,0 mm 0,0 km/h (0 Bft) O-NO 67 1 min 0,9 C 0,0 km/h (0 Bft)
28.02.2016 12:58 3,7 C 8,0 C 82 % 1006,2 hPa 0,0 mm 0,3 km/h (0 Bft) O-NO 67 0 min 0,9 C 5,1 km/h (1 Bft)
28.02.2016 12:59 3,7 C 8,0 C 82 % 1006,2 hPa 0,0 mm 0,3 km/h (0 Bft) O-NO 67 0 min 0,9 C 5,1 km/h (1 Bft)
28.02.2016 13:00 3,7 C 7,8 C 82 % 1006,2 hPa 0,0 mm 1,2 km/h (1 Bft) O 90 1 min 0,9 C 5,1 km/h (1 Bft)
28.02.2016 13:01 3,7 C 7,8 C 82 % 1006,2 hPa 0,0 mm 1,2 km/h (1 Bft) O 90 1 min 0,9 C 5,1 km/h (1 Bft)
28.02.2016 13:02 3,4 C 7,7 C 81 % 1006,2 hPa 0,0 mm 1,8 km/h (1 Bft) NO 45 1 min 0,5 C 6,6 km/h (2 Bft)
28.02.2016 13:03 3,4 C 7,7 C 81 % 1006,2 hPa 0,0 mm 1,8 km/h (1 Bft) NO 45 1 min 0,5 C 6,6 km/h (2 Bft)
28.02.2016 13:04 3,4 C 7,4 C 81 % 1006,2 hPa 0,0 mm 2,4 km/h (1 Bft) NO 45 0 min 0,5 C 0,0 km/h (0 Bft)
28.02.2016 13:05 3,4 C 7,4 C 81 % 1006,2 hPa 0,0 mm 2,4 km/h (1 Bft) NO 45 0 min 0,5 C 0,0 km/h (0 Bft)
28.02.2016 13:06 3,5 C 7,4 C 81 % 1006,2 hPa 0,0 mm 2,4 km/h (1 Bft) W-NW 292 0 min 0,6 C 0,0 km/h (0 Bft)
28.02.2016 13:07 3,5 C 7,4 C 81 % 1006,2 hPa 0,0 mm 2,4 km/h (1 Bft) W-NW 292 0 min 0,6 C 0,0 km/h (0 Bft)
28.02.2016 13:08 3,6 C 7,7 C 81 % 1006,2 hPa 0,0 mm 2,4 km/h (1 Bft) W 270 0 min 0,7 C 0,0 km/h (0 Bft)
28.02.2016 13:09 3,6 C 7,7 C 81 % 1006,2 hPa 0,0 mm 2,4 km/h (1 Bft) W 270 0 min 0,7 C 0,0 km/h (0 Bft)
28.02.2016 13:10 3,6 C 8,0 C 81 % 1006,2 hPa 0,0 mm 1,8 km/h (1 Bft) O-NO 67 0 min 0,7 C 0,0 km/h (0 Bft)
28.02.2016 13:11 3,6 C 8,0 C 81 % 1006,2 hPa 0,0 mm 1,8 km/h (1 Bft) O-NO 67 0 min 0,7 C 0,0 km/h (0 Bft)
28.02.2016 13:12 3,6 C 8,2 C 80 % 1006,2 hPa 0,0 mm 1,5 km/h (1 Bft) O-NO 67 0 min 0,5 C 7,7 km/h (2 Bft)
28.02.2016 13:13 3,6 C 8,2 C 80 % 1006,2 hPa 0,0 mm 1,5 km/h (1 Bft) O-NO 67 0 min 0,5 C 7,7 km/h (2 Bft)
28.02.2016 13:14 3,6 C 8,3 C 80 % 1006,2 hPa 0,0 mm 2,1 km/h (1 Bft) O-NO 67 0 min 0,5 C 8,9 km/h (2 Bft)
28.02.2016 13:15 3,6 C 8,3 C 80 % 1006,2 hPa 0,0 mm 2,1 km/h (1 Bft) O-NO 67 0 min 0,5 C 8,9 km/h (2 Bft)
28.02.2016 13:16 3,6 C 8,2 C 80 % 1006,2 hPa 0,0 mm 3,3 km/h (1 Bft) NO 45 0 min 0,5 C 7,5 km/h (2 Bft)
28.02.2016 13:17 3,6 C 8,2 C 80 % 1006,2 hPa 0,0 mm 3,3 km/h (1 Bft) NO 45 0 min 0,5 C 7,5 km/h (2 Bft)
28.02.2016 13:18 3,7 C 8,1 C 80 % 1006,2 hPa 0,0 mm 4,2 km/h (1 Bft) NO 45 0 min 0,6 C 7,2 km/h (2 Bft)
28.02.2016 13:19 3,7 C 8,1 C 80 % 1006,2 hPa 0,0 mm 4,2 km/h (1 Bft) NO 45 0 min 0,6 C 7,2 km/h (2 Bft)
28.02.2016 13:20 3,7 C 8,0 C 80 % 1006,2 hPa 0,0 mm 5,1 km/h (1 Bft) O-NO 67 0 min 0,6 C 6,6 km/h (2 Bft)
28.02.2016 13:21 3,7 C 8,0 C 80 % 1006,2 hPa 0,0 mm 5,1 km/h (1 Bft) O-NO 67 0 min 0,6 C 6,6 km/h (2 Bft)
28.02.2016 13:22 3,8 C 8,1 C 80 % 1006,2 hPa 0,0 mm 5,7 km/h (1 Bft) N-NO 22 0 min 0,7 C 0,0 km/h (0 Bft)
28.02.2016 13:23 3,8 C 8,1 C 80 % 1006,2 hPa 0,0 mm 5,7 km/h (1 Bft) N-NO 22 0 min 0,7 C 0,0 km/h (0 Bft)
28.02.2016 13:24 3,9 C 8,2 C 80 % 1006,2 hPa 0,0 mm 5,7 km/h (1 Bft) O-NO 67 0 min 0,8 C 11,3 km/h (2 Bft)
28.02.2016 13:25 3,9 C 8,2 C 80 % 1006,2 hPa 0,0 mm 5,7 km/h (1 Bft) O-NO 67 0 min 0,8 C 11,3 km/h (2 Bft)
28.02.2016 13:26 3,9 C 8,2 C 79 % 1006,2 hPa 0,0 mm 5,7 km/h (1 Bft) NO 45 0 min 0,6 C 7,7 km/h (2 Bft)
28.02.2016 13:27 3,9 C 8,2 C 79 % 1006,2 hPa 0,0 mm 5,7 km/h (1 Bft) NO 45 0 min 0,6 C 7,7 km/h (2 Bft)
28.02.2016 13:28 3,9 C 8,0 C 79 % 1006,2 hPa 0,0 mm 6,0 km/h (2 Bft) O-NO 67 0 min 0,6 C 11,0 km/h (2 Bft)
28.02.2016 13:29 3,9 C 8,0 C 79 % 1006,2 hPa 0,0 mm 6,0 km/h (2 Bft) O-NO 67 0 min 0,6 C 11,0 km/h (2 Bft)
28.02.2016 13:30 3,8 C 7,9 C 79 % 1006,2 hPa 0,0 mm 6,6 km/h (2 Bft) O-NO 67 0 min 0,5 C 8,3 km/h (2 Bft)
28.02.2016 13:31 3,8 C 7,9 C 79 % 1006,2 hPa 0,0 mm 6,6 km/h (2 Bft) O-NO 67 0 min 0,5 C 8,3 km/h (2 Bft)
28.02.2016 13:32 3,8 C 7,7 C 79 % 1006,2 hPa 0,0 mm 6,9 km/h (2 Bft) NO 45 0 min 0,5 C 11,9 km/h (2 Bft)
28.02.2016 13:33 3,8 C 7,7 C 79 % 1006,2 hPa 0,0 mm 6,9 km/h (2 Bft) NO 45 0 min 0,5 C 11,9 km/h (2 Bft)
28.02.2016 13:34 3,7 C 7,3 C 79 % 1006,2 hPa 0,0 mm 7,7 km/h (2 Bft) O-NO 67 0 min 0,4 C 3,3 km/h (1 Bft)
28.02.2016 13:35 3,7 C 7,3 C 79 % 1006,2 hPa 0,0 mm 7,7 km/h (2 Bft) O-NO 67 0 min 0,4 C 3,3 km/h (1 Bft)
28.02.2016 13:36 3,7 C 7,3 C 79 % 1006,2 hPa 0,0 mm 7,2 km/h (2 Bft) O-NO 67 0 min 0,4 C 4,8 km/h (1 Bft)
28.02.2016 13:37 3,7 C 7,3 C 79 % 1006,2 hPa 0,0 mm 7,2 km/h (2 Bft) O-NO 67 0 min 0,4 C 4,8 km/h (1 Bft)
28.02.2016 13:38 3,6 C 7,3 C 79 % 1006,2 hPa 0,0 mm 7,5 km/h (2 Bft) O-NO 67 0 min 0,3 C 11,6 km/h (2 Bft)
28.02.2016 13:39 3,6 C 7,3 C 79 % 1006,2 hPa 0,0 mm 7,5 km/h (2 Bft) O-NO 67 0 min 0,3 C 11,6 km/h (2 Bft)
28.02.2016 13:40 3,6 C 7,0 C 79 % 1006,2 hPa 0,0 mm 7,5 km/h (2 Bft) NO 45 0 min 0,3 C 12,2 km/h (2 Bft)
28.02.2016 13:41 3,6 C 7,0 C 79 % 1006,2 hPa 0,0 mm 7,5 km/h (2 Bft) NO 45 0 min 0,3 C 12,2 km/h (2 Bft)
28.02.2016 13:42 3,6 C 6,7 C 79 % 1006,2 hPa 0,0 mm 8,0 km/h (2 Bft) O-NO 67 0 min 0,3 C 14,6 km/h (3 Bft)
28.02.2016 13:43 3,6 C 6,7 C 79 % 1006,2 hPa 0,0 mm 8,0 km/h (2 Bft) O-NO 67 0 min 0,3 C 14,6 km/h (3 Bft)
28.02.2016 13:44 3,6 C 6,5 C 79 % 1006,2 hPa 0,0 mm 8,3 km/h (2 Bft) O 90 0 min 0,3 C 4,2 km/h (1 Bft)
28.02.2016 13:45 3,6 C 6,5 C 79 % 1006,2 hPa 0,0 mm 8,3 km/h (2 Bft) O 90 0 min 0,3 C 4,2 km/h (1 Bft)
28.02.2016 13:46 3,6 C 6,6 C 79 % 1006,2 hPa 0,0 mm 8,0 km/h (2 Bft) N-NO 22 0 min 0,3 C 9,2 km/h (2 Bft)
28.02.2016 13:47 3,6 C 6,6 C 79 % 1006,2 hPa 0,0 mm 8,0 km/h (2 Bft) N-NO 22 0 min 0,3 C 9,2 km/h (2 Bft)
28.02.2016 13:48 3,8 C 6,8 C 79 % 1006,2 hPa 0,0 mm 8,0 km/h (2 Bft) O-NO 67 0 min 0,5 C 7,2 km/h (2 Bft)
28.02.2016 13:49 3,8 C 6,8 C 79 % 1006,2 hPa 0,0 mm 8,0 km/h (2 Bft) O-NO 67 0 min 0,5 C 7,2 km/h (2 Bft)
28.02.2016 13:50 3,8 C 7,0 C 79 % 1006,2 hPa 0,0 mm 7,5 km/h (2 Bft) O-NO 67 0 min 0,5 C 7,2 km/h (2 Bft)
28.02.2016 13:51 3,8 C 7,0 C 79 % 1006,2 hPa 0,0 mm 7,5 km/h (2 Bft) O-NO 67 0 min 0,5 C 7,2 km/h (2 Bft)
28.02.2016 13:52 3,8 C 7,0 C 79 % 1006,2 hPa 0,0 mm 7,5 km/h (2 Bft) O-NO 67 0 min 0,5 C 12,8 km/h (3 Bft)
28.02.2016 13:53 3,8 C 7,0 C 79 % 1006,2 hPa 0,0 mm 7,5 km/h (2 Bft) O-NO 67 0 min 0,5 C 12,8 km/h (3 Bft)
28.02.2016 13:54 3,7 C 7,1 C 79 % 1006,2 hPa 0,0 mm 7,2 km/h (2 Bft) NO 45 0 min 0,4 C 10,4 km/h (2 Bft)
28.02.2016 13:55 3,7 C 7,1 C 79 % 1006,2 hPa 0,0 mm 7,2 km/h (2 Bft) NO 45 0 min 0,4 C 10,4 km/h (2 Bft)
28.02.2016 13:56 3,7 C 7,0 C 79 % 1006,2 hPa 0,0 mm 7,5 km/h (2 Bft) NO 45 0 min 0,4 C 9,5 km/h (2 Bft)
28.02.2016 13:57 3,7 C 7,0 C 79 % 1006,2 hPa 0,0 mm 7,5 km/h (2 Bft) NO 45 0 min 0,4 C 9,5 km/h (2 Bft)
28.02.2016 13:58 3,6 C 6,7 C 79 % 1006,2 hPa 0,0 mm 9,2 km/h (2 Bft) O-NO 67 0 min 0,3 C 16,7 km/h (3 Bft)
28.02.2016 13:59 3,6 C 6,7 C 79 % 1006,2 hPa 0,0 mm 9,2 km/h (2 Bft) O-NO 67 0 min 0,3 C 16,7 km/h (3 Bft)
28.02.2016 14:00 3,6 C 6,3 C 78 % 1006,2 hPa 0,0 mm 9,8 km/h (2 Bft) NO 45 0 min 0,1 C 13,7 km/h (3 Bft)
28.02.2016 14:02 3,6 C 6,2 C 79 % 1006,2 hPa 0,0 mm 9,8 km/h (2 Bft) O-NO 67 0 min 0,3 C 8,0 km/h (2 Bft)
28.02.2016 14:03 3,6 C 6,2 C 79 % 1006,2 hPa 0,0 mm 9,8 km/h (2 Bft) O-NO 67 0 min 0,3 C 8,0 km/h (2 Bft)
28.02.2016 14:04 3,6 C 6,3 C 79 % 1006,2 hPa 0,0 mm 9,2 km/h (2 Bft) O-NO 67 0 min 0,3 C 6,3 km/h (2 Bft)
28.02.2016 14:05 3,6 C 6,3 C 79 % 1006,2 hPa 0,0 mm 9,2 km/h (2 Bft) O-NO 67 0 min 0,3 C 6,3 km/h (2 Bft)
28.02.2016 14:06 3,7 C 6,5 C 79 % 1006,2 hPa 0,0 mm 8,9 km/h (2 Bft) O-NO 67 0 min 0,4 C 7,2 km/h (2 Bft)
28.02.2016 14:07 3,7 C 6,5 C 79 % 1006,2 hPa 0,0 mm 8,9 km/h (2 Bft) O-NO 67 0 min 0,4 C 7,2 km/h (2 Bft)
28.02.2016 14:08 3,8 C 6,6 C 79 % 1006,6 hPa 0,0 mm 8,6 km/h (2 Bft) O-NO 67 0 min 0,5 C 14,0 km/h (3 Bft)
28.02.2016 14:09 3,8 C 6,6 C 79 % 1006,6 hPa 0,0 mm 8,6 km/h (2 Bft) O-NO 67 0 min 0,5 C 14,0 km/h (3 Bft)
28.02.2016 14:10 3,8 C 6,7 C 78 % 1006,6 hPa 0,0 mm 8,0 km/h (2 Bft) N-NO 22 0 min 0,3 C 12,8 km/h (3 Bft)
28.02.2016 14:11 3,8 C 6,7 C 78 % 1006,6 hPa 0,0 mm 8,0 km/h (2 Bft) N-NO 22 0 min 0,3 C 12,8 km/h (3 Bft)
28.02.2016 14:12 3,8 C 6,8 C 78 % 1006,6 hPa 0,0 mm 8,0 km/h (2 Bft) N-NO 22 0 min 0,3 C 8,0 km/h (2 Bft)
28.02.2016 14:13 3,8 C 6,8 C 78 % 1006,6 hPa 0,0 mm 8,0 km/h (2 Bft) N-NO 22 0 min 0,3 C 8,0 km/h (2 Bft)
28.02.2016 14:14 3,9 C 6,9 C 78 % 1006,6 hPa 0,0 mm 7,7 km/h (2 Bft) O-NO 67 0 min 0,4 C 10,7 km/h (2 Bft)
28.02.2016 14:15 3,9 C 6,9 C 78 % 1006,6 hPa 0,0 mm 7,7 km/h (2 Bft) O-NO 67 0 min 0,4 C 10,7 km/h (2 Bft)
28.02.2016 14:16 4,1 C 7,3 C 78 % 1006,6 hPa 0,0 mm 7,2 km/h (2 Bft) N-NO 22 0 min 0,6 C 3,3 km/h (1 Bft)
28.02.2016 14:17 4,1 C 7,3 C 78 % 1006,6 hPa 0,0 mm 7,2 km/h (2 Bft) N-NO 22 0 min 0,6 C 3,3 km/h (1 Bft)
28.02.2016 14:18 4,2 C 7,7 C 78 % 1006,6 hPa 0,0 mm 6,9 km/h (2 Bft) N-NO 22 0 min 0,7 C 6,6 km/h (2 Bft)
28.02.2016 14:19 4,2 C 7,7 C 78 % 1006,6 hPa 0,0 mm 6,9 km/h (2 Bft) N-NO 22 0 min 0,7 C 6,6 km/h (2 Bft)
28.02.2016 14:20 4,2 C 7,9 C 78 % 1006,6 hPa 0,0 mm 5,7 km/h (1 Bft) O-NO 67 0 min 0,7 C 6,6 km/h (2 Bft)
28.02.2016 14:21 4,2 C 7,9 C 78 % 1006,6 hPa 0,0 mm 5,7 km/h (1 Bft) O-NO 67 0 min 0,7 C 6,6 km/h (2 Bft)
28.02.2016 14:22 4,2 C 7,9 C 78 % 1006,6 hPa 0,0 mm 5,4 km/h (1 Bft) NO 45 0 min 0,7 C 8,6 km/h (2 Bft)
28.02.2016 14:23 4,2 C 7,9 C 78 % 1006,6 hPa 0,0 mm 5,4 km/h (1 Bft) NO 45 0 min 0,7 C 8,6 km/h (2 Bft)
28.02.2016 14:24 4,1 C 7,7 C 78 % 1006,6 hPa 0,0 mm 4,8 km/h (1 Bft) N-NO 22 0 min 0,6 C 0,0 km/h (0 Bft)
28.02.2016 14:25 4,1 C 7,7 C 78 % 1006,6 hPa 0,0 mm 4,8 km/h (1 Bft) N-NO 22 0 min 0,6 C 0,0 km/h (0 Bft)
28.02.2016 14:26 3,9 C 7,6 C 78 % 1006,6 hPa 0,0 mm 5,1 km/h (1 Bft) N-NO 22 0 min 0,4 C 8,0 km/h (2 Bft)
28.02.2016 14:27 3,9 C 7,6 C 78 % 1006,6 hPa 0,0 mm 5,1 km/h (1 Bft) N-NO 22 0 min 0,4 C 8,0 km/h (2 Bft)
28.02.2016 14:28 3,8 C 7,3 C 78 % 1006,9 hPa 0,0 mm 4,5 km/h (1 Bft) O 90 0 min 0,3 C 0,0 km/h (0 Bft)
28.02.2016 14:29 3,8 C 7,3 C 78 % 1006,9 hPa 0,0 mm 4,5 km/h (1 Bft) O 90 0 min 0,3 C 0,0 km/h (0 Bft)
28.02.2016 14:30 3,8 C 7,3 C 78 % 1006,9 hPa 0,0 mm 4,2 km/h (1 Bft) NO 45 0 min 0,3 C 4,2 km/h (1 Bft)
28.02.2016 14:31 3,8 C 7,3 C 78 % 1006,9 hPa 0,0 mm 4,2 km/h (1 Bft) NO 45 0 min 0,3 C 4,2 km/h (1 Bft)
28.02.2016 14:32 3,9 C 7,4 C 78 % 1006,9 hPa 0,0 mm 3,9 km/h (1 Bft) NO 45 0 min 0,4 C 4,8 km/h (1 Bft)
28.02.2016 14:33 3,9 C 7,4 C 78 % 1006,9 hPa 0,0 mm 3,9 km/h (1 Bft) NO 45 0 min 0,4 C 4,8 km/h (1 Bft)
28.02.2016 14:34 4,1 C 7,3 C 78 % 1006,9 hPa 0,0 mm 3,9 km/h (1 Bft) NO 45 0 min 0,6 C 7,7 km/h (2 Bft)
28.02.2016 14:35 4,1 C 7,3 C 78 % 1006,9 hPa 0,0 mm 3,9 km/h (1 Bft) NO 45 0 min 0,6 C 7,7 km/h (2 Bft)
28.02.2016 14:36 3,9 C 7,3 C 78 % 1006,9 hPa 0,0 mm 3,9 km/h (1 Bft) O-NO 67 0 min 0,4 C 3,3 km/h (1 Bft)
28.02.2016 14:37 3,9 C 7,3 C 78 % 1006,9 hPa 0,0 mm 3,9 km/h (1 Bft) O-NO 67 0 min 0,4 C 3,3 km/h (1 Bft)
28.02.2016 14:38 3,9 C 7,2 C 78 % 1006,9 hPa 0,0 mm 2,7 km/h (1 Bft) O-NO 67 0 min 0,4 C 0,0 km/h (0 Bft)
28.02.2016 14:39 3,9 C 7,2 C 78 % 1006,9 hPa 0,0 mm 2,7 km/h (1 Bft) O-NO 67 0 min 0,4 C 0,0 km/h (0 Bft)
28.02.2016 14:40 3,9 C 7,3 C 78 % 1006,9 hPa 0,0 mm 2,7 km/h (1 Bft) NW 315 0 min 0,4 C 0,0 km/h (0 Bft)
28.02.2016 14:41 3,9 C 7,3 C 78 % 1006,9 hPa 0,0 mm 2,7 km/h (1 Bft) NW 315 0 min 0,4 C 0,0 km/h (0 Bft)
28.02.2016 14:42 4,1 C 7,6 C 78 % 1006,9 hPa 0,0 mm 2,4 km/h (1 Bft) W-SW 247 0 min 0,6 C 0,0 km/h (0 Bft)
28.02.2016 14:43 4,1 C 7,6 C 78 % 1006,9 hPa 0,0 mm 2,4 km/h (1 Bft) W-SW 247 0 min 0,6 C 0,0 km/h (0 Bft)
28.02.2016 14:44 4,2 C 7,7 C 78 % 1006,9 hPa 0,0 mm 1,8 km/h (1 Bft) N-NW 337 0 min 0,7 C 8,3 km/h (2 Bft)
28.02.2016 14:45 4,2 C 7,7 C 78 % 1006,9 hPa 0,0 mm 1,8 km/h (1 Bft) N-NW 337 0 min 0,7 C 8,3 km/h (2 Bft)
28.02.2016 14:46 4,3 C 7,7 C 78 % 1006,9 hPa 0,0 mm 2,1 km/h (1 Bft) W-NW 292 0 min 0,8 C 6,0 km/h (2 Bft)
28.02.2016 14:47 4,3 C 7,7 C 78 % 1006,9 hPa 0,0 mm 2,1 km/h (1 Bft) W-NW 292 0 min 0,8 C 6,0 km/h (2 Bft)
28.02.2016 14:48 4,1 C 7,5 C 77 % 1007,2 hPa 0,0 mm 3,0 km/h (1 Bft) NW 315 0 min 0,4 C 4,8 km/h (1 Bft)
28.02.2016 14:49 4,1 C 7,5 C 77 % 1007,2 hPa 0,0 mm 3,0 km/h (1 Bft) NW 315 0 min 0,4 C 4,8 km/h (1 Bft)
28.02.2016 14:50 3,9 C 7,2 C 77 % 1007,2 hPa 0,0 mm 3,9 km/h (1 Bft) N-NO 22 0 min 0,2 C 4,5 km/h (1 Bft)
28.02.2016 14:51 3,9 C 7,2 C 77 % 1007,2 hPa 0,0 mm 3,9 km/h (1 Bft) N-NO 22 0 min 0,2 C 4,5 km/h (1 Bft)
28.02.2016 14:52 3,9 C 7,0 C 77 % 1007,2 hPa 0,0 mm 4,8 km/h (1 Bft) W-NW 292 0 min 0,2 C 7,2 km/h (2 Bft)
28.02.2016 14:53 3,9 C 7,0 C 77 % 1007,2 hPa 0,0 mm 4,8 km/h (1 Bft) W-NW 292 0 min 0,2 C 7,2 km/h (2 Bft)
28.02.2016 14:54 3,7 C 6,8 C 77 % 1007,2 hPa 0,0 mm 6,3 km/h (2 Bft) NW 315 0 min 0,1 C 6,6 km/h (2 Bft)
28.02.2016 14:55 3,7 C 6,8 C 77 % 1007,2 hPa 0,0 mm 6,3 km/h (2 Bft) NW 315 0 min 0,1 C 6,6 km/h (2 Bft)
28.02.2016 14:56 3,5 C 6,5 C 77 % 1007,2 hPa 0,0 mm 6,0 km/h (2 Bft) N-NW 337 0 min -0,1 C 8,9 km/h (2 Bft)
28.02.2016 14:57 3,5 C 6,5 C 77 % 1007,2 hPa 0,0 mm 6,0 km/h (2 Bft) N-NW 337 0 min -0,1 C 8,9 km/h (2 Bft)
28.02.2016 14:58 3,5 C 6,2 C 77 % 1007,2 hPa 0,0 mm 5,1 km/h (1 Bft) N 360 0 min -0,1 C 0,0 km/h (0 Bft)
28.02.2016 14:59 3,5 C 6,2 C 77 % 1007,2 hPa 0,0 mm 5,1 km/h (1 Bft) N 360 0 min -0,1 C 0,0 km/h (0 Bft)
28.02.2016 15:00 3,6 C 6,2 C 77 % 1007,2 hPa 0,0 mm 5,1 km/h (1 Bft) NO 45 0 min -0,0 C 6,9 km/h (2 Bft)
28.02.2016 15:01 3,6 C 6,2 C 77 % 1007,2 hPa 0,0 mm 5,1 km/h (1 Bft) NO 45 0 min -0,0 C 6,9 km/h (2 Bft)
28.02.2016 15:02 3,6 C 6,0 C 77 % 1007,2 hPa 0,0 mm 4,8 km/h (1 Bft) N-NO 22 0 min -0,0 C 3,3 km/h (1 Bft)
28.02.2016 15:03 3,6 C 6,0 C 77 % 1007,2 hPa 0,0 mm 4,8 km/h (1 Bft) N-NO 22 0 min -0,0 C 3,3 km/h (1 Bft)
28.02.2016 15:04 3,5 C 5,9 C 77 % 1007,2 hPa 0,0 mm 4,5 km/h (1 Bft) N-NW 337 0 min -0,1 C 8,6 km/h (2 Bft)
28.02.2016 15:05 3,5 C 5,9 C 77 % 1007,2 hPa 0,0 mm 4,5 km/h (1 Bft) N-NW 337 0 min -0,1 C 8,6 km/h (2 Bft)
28.02.2016 15:06 3,5 C 5,8 C 77 % 1007,2 hPa 0,0 mm 4,5 km/h (1 Bft) N-NW 337 0 min -0,1 C 3,3 km/h (1 Bft)
28.02.2016 15:07 3,5 C 5,8 C 77 % 1007,2 hPa 0,0 mm 4,5 km/h (1 Bft) N-NW 337 0 min -0,1 C 3,3 km/h (1 Bft)
28.02.2016 15:08 3,5 C 5,7 C 77 % 1007,1 hPa 0,0 mm 4,8 km/h (1 Bft) N-NO 22 0 min -0,1 C 11,9 km/h (2 Bft)
28.02.2016 15:09 3,5 C 5,7 C 77 % 1007,1 hPa 0,0 mm 4,8 km/h (1 Bft) N-NO 22 0 min -0,1 C 11,9 km/h (2 Bft)
28.02.2016 15:10 3,5 C 5,3 C 77 % 1007,1 hPa 0,0 mm 6,6 km/h (2 Bft) N-NO 22 0 min -0,1 C 11,9 km/h (2 Bft)
28.02.2016 15:11 3,5 C 5,3 C 77 % 1007,1 hPa 0,0 mm 6,6 km/h (2 Bft) N-NO 22 0 min -0,1 C 11,9 km/h (2 Bft)
28.02.2016 15:12 3,4 C 5,1 C 76 % 1007,1 hPa 0,0 mm 6,6 km/h (2 Bft) N 360 0 min -0,4 C 7,2 km/h (2 Bft)
28.02.2016 15:13 3,4 C 5,1 C 76 % 1007,1 hPa 0,0 mm 6,6 km/h (2 Bft) N 360 0 min -0,4 C 7,2 km/h (2 Bft)
28.02.2016 15:14 3,3 C 5,1 C 76 % 1007,1 hPa 0,0 mm 6,3 km/h (2 Bft) N-NO 22 0 min -0,5 C 0,0 km/h (0 Bft)
28.02.2016 15:15 3,3 C 5,1 C 76 % 1007,1 hPa 0,0 mm 6,3 km/h (2 Bft) N-NO 22 0 min -0,5 C 0,0 km/h (0 Bft)
28.02.2016 15:16 3,3 C 5,2 C 77 % 1007,1 hPa 0,0 mm 5,1 km/h (1 Bft) N-NO 22 0 min -0,3 C 0,0 km/h (0 Bft)
28.02.2016 15:17 3,3 C 5,2 C 77 % 1007,1 hPa 0,0 mm 5,1 km/h (1 Bft) N-NO 22 0 min -0,3 C 0,0 km/h (0 Bft)
28.02.2016 15:18 3,4 C 5,2 C 77 % 1007,1 hPa 0,0 mm 4,8 km/h (1 Bft) NW 315 0 min -0,2 C 0,0 km/h (0 Bft)
28.02.2016 15:19 3,4 C 5,2 C 77 % 1007,1 hPa 0,0 mm 4,8 km/h (1 Bft) NW 315 0 min -0,2 C 0,0 km/h (0 Bft)
28.02.2016 15:20 3,4 C 5,2 C 77 % 1007,1 hPa 0,0 mm 3,9 km/h (1 Bft) W-NW 292 0 min -0,2 C 8,9 km/h (2 Bft)
28.02.2016 15:21 3,4 C 5,2 C 77 % 1007,1 hPa 0,0 mm 3,9 km/h (1 Bft) W-NW 292 0 min -0,2 C 8,9 km/h (2 Bft)
28.02.2016 15:22 3,4 C 5,2 C 77 % 1007,1 hPa 0,0 mm 3,6 km/h (1 Bft) N-NW 337 0 min -0,2 C 7,5 km/h (2 Bft)
28.02.2016 15:23 3,4 C 5,2 C 77 % 1007,1 hPa 0,0 mm 3,6 km/h (1 Bft) N-NW 337 0 min -0,2 C 7,5 km/h (2 Bft)
28.02.2016 15:24 3,4 C 5,1 C 77 % 1007,1 hPa 0,0 mm 3,6 km/h (1 Bft) W-NW 292 0 min -0,2 C 7,2 km/h (2 Bft)
28.02.2016 15:25 3,4 C 5,1 C 77 % 1007,1 hPa 0,0 mm 3,6 km/h (1 Bft) W-NW 292 0 min -0,2 C 7,2 km/h (2 Bft)
28.02.2016 15:26 3,3 C 5,0 C 76 % 1007,1 hPa 0,0 mm 3,6 km/h (1 Bft) NW 315 0 min -0,5 C 3,9 km/h (1 Bft)
28.02.2016 15:27 3,3 C 5,0 C 76 % 1007,1 hPa 0,0 mm 3,6 km/h (1 Bft) NW 315 0 min -0,5 C 3,9 km/h (1 Bft)
28.02.2016 15:28 3,3 C 5,0 C 76 % 1007,4 hPa 0,0 mm 4,5 km/h (1 Bft) N-NW 337 0 min -0,5 C 3,9 km/h (1 Bft)
28.02.2016 15:29 3,3 C 5,0 C 76 % 1007,4 hPa 0,0 mm 4,5 km/h (1 Bft) N-NW 337 0 min -0,5 C 3,9 km/h (1 Bft)
28.02.2016 15:30 3,1 C 4,8 C 76 % 1007,4 hPa 0,0 mm 4,8 km/h (1 Bft) NW 315 0 min -0,7 C 5,4 km/h (1 Bft)
28.02.2016 15:31 3,1 C 4,8 C 76 % 1007,4 hPa 0,0 mm 4,8 km/h (1 Bft) NW 315 0 min -0,7 C 5,4 km/h (1 Bft)
28.02.2016 15:32 3,1 C 4,7 C 76 % 1007,4 hPa 0,0 mm 4,8 km/h (1 Bft) N-NW 337 0 min -0,7 C 8,6 km/h (2 Bft)
28.02.2016 15:33 3,1 C 4,7 C 76 % 1007,4 hPa 0,0 mm 4,8 km/h (1 Bft) N-NW 337 0 min -0,7 C 8,6 km/h (2 Bft)
28.02.2016 15:34 3,1 C 4,7 C 76 % 1007,4 hPa 0,0 mm 4,2 km/h (1 Bft) NW 315 0 min -0,7 C 4,8 km/h (1 Bft)
28.02.2016 15:35 3,1 C 4,7 C 76 % 1007,4 hPa 0,0 mm 4,2 km/h (1 Bft) NW 315 0 min -0,7 C 4,8 km/h (1 Bft)
28.02.2016 15:36 3,3 C 4,7 C 76 % 1007,4 hPa 0,0 mm 3,9 km/h (1 Bft) N-NO 22 0 min -0,5 C 7,7 km/h (2 Bft)
28.02.2016 15:37 3,3 C 4,7 C 76 % 1007,4 hPa 0,0 mm 3,9 km/h (1 Bft) N-NO 22 0 min -0,5 C 7,7 km/h (2 Bft)
28.02.2016 15:38 3,3 C 4,6 C 76 % 1007,4 hPa 0,0 mm 4,5 km/h (1 Bft) NO 45 0 min -0,5 C 9,2 km/h (2 Bft)
28.02.2016 15:39 3,3 C 4,6 C 76 % 1007,4 hPa 0,0 mm 4,5 km/h (1 Bft) NO 45 0 min -0,5 C 9,2 km/h (2 Bft)
28.02.2016 15:40 3,3 C 4,5 C 76 % 1007,4 hPa 0,0 mm 4,5 km/h (1 Bft) O-NO 67 0 min -0,5 C 6,9 km/h (2 Bft)
28.02.2016 15:41 3,3 C 4,5 C 76 % 1007,4 hPa 0,0 mm 4,5 km/h (1 Bft) O-NO 67 0 min -0,5 C 6,9 km/h (2 Bft)
28.02.2016 15:42 3,3 C 4,5 C 76 % 1007,4 hPa 0,0 mm 4,5 km/h (1 Bft) O-NO 67 0 min -0,5 C 3,0 km/h (1 Bft)
28.02.2016 15:43 3,3 C 4,5 C 76 % 1007,4 hPa 0,0 mm 4,5 km/h (1 Bft) O-NO 67 0 min -0,5 C 3,0 km/h (1 Bft)
28.02.2016 15:44 3,1 C 4,4 C 76 % 1007,4 hPa 0,0 mm 3,6 km/h (1 Bft) N-NW 337 0 min -0,7 C 3,9 km/h (1 Bft)
28.02.2016 15:45 3,1 C 4,4 C 76 % 1007,4 hPa 0,0 mm 3,6 km/h (1 Bft) N-NW 337 0 min -0,7 C 3,9 km/h (1 Bft)
28.02.2016 15:46 3,1 C 4,4 C 76 % 1007,4 hPa 0,0 mm 3,3 km/h (1 Bft) N-NO 22 0 min -0,7 C 0,0 km/h (0 Bft)
28.02.2016 15:47 3,1 C 4,4 C 76 % 1007,4 hPa 0,0 mm 3,3 km/h (1 Bft) N-NO 22 0 min -0,7 C 0,0 km/h (0 Bft)
28.02.2016 15:48 3,1 C 4,5 C 76 % 1007,4 hPa 0,0 mm 3,0 km/h (1 Bft) N 360 0 min -0,7 C 0,0 km/h (0 Bft)
28.02.2016 15:49 3,1 C 4,5 C 76 % 1007,4 hPa 0,0 mm 3,0 km/h (1 Bft) N 360 0 min -0,7 C 0,0 km/h (0 Bft)
28.02.2016 15:50 3,0 C 4,5 C 76 % 1007,4 hPa 0,0 mm 2,1 km/h (1 Bft) S-SW 202 0 min -0,8 C 4,5 km/h (1 Bft)
28.02.2016 15:51 3,0 C 4,5 C 76 % 1007,4 hPa 0,0 mm 2,1 km/h (1 Bft) S-SW 202 0 min -0,8 C 4,5 km/h (1 Bft)
28.02.2016 15:52 3,0 C 4,5 C 76 % 1007,4 hPa 0,0 mm 2,4 km/h (1 Bft) NO 45 0 min -0,8 C 4,8 km/h (1 Bft)
28.02.2016 15:53 3,0 C 4,5 C 76 % 1007,4 hPa 0,0 mm 2,4 km/h (1 Bft) NO 45 0 min -0,8 C 4,8 km/h (1 Bft)
28.02.2016 15:54 3,0 C 4,4 C 76 % 1007,4 hPa 0,0 mm 2,7 km/h (1 Bft) O-NO 67 0 min -0,8 C 3,3 km/h (1 Bft)
28.02.2016 15:55 3,0 C 4,4 C 76 % 1007,4 hPa 0,0 mm 2,7 km/h (1 Bft) O-NO 67 0 min -0,8 C 3,3 km/h (1 Bft)
28.02.2016 15:56 3,0 C 4,4 C 76 % 1007,4 hPa 0,0 mm 3,0 km/h (1 Bft) NO 45 0 min -0,8 C 9,2 km/h (2 Bft)
28.02.2016 15:57 3,0 C 4,4 C 76 % 1007,4 hPa 0,0 mm 3,0 km/h (1 Bft) NO 45 0 min -0,8 C 9,2 km/h (2 Bft)
28.02.2016 15:58 3,0 C 4,3 C 76 % 1007,4 hPa 0,0 mm 3,3 km/h (1 Bft) N-NO 22 0 min -0,8 C 6,3 km/h (2 Bft)
28.02.2016 15:59 3,0 C 4,3 C 76 % 1007,4 hPa 0,0 mm 3,3 km/h (1 Bft) N-NO 22 0 min -0,8 C 6,3 km/h (2 Bft)
28.02.2016 16:00 3,0 C 4,3 C 76 % 1007,4 hPa 0,0 mm 3,3 km/h (1 Bft) NW 315 0 min -0,8 C 3,3 km/h (1 Bft)
28.02.2016 16:01 3,0 C 4,3 C 76 % 1007,4 hPa 0,0 mm 3,3 km/h (1 Bft) NW 315 0 min -0,8 C 3,3 km/h (1 Bft)
28.02.2016 16:02 3,0 C 4,3 C 76 % 1007,4 hPa 0,0 mm 3,6 km/h (1 Bft) N-NW 337 0 min -0,8 C 5,7 km/h (1 Bft)
28.02.2016 16:03 3,0 C 4,3 C 76 % 1007,4 hPa 0,0 mm 3,6 km/h (1 Bft) N-NW 337 0 min -0,8 C 5,7 km/h (1 Bft)
28.02.2016 16:04 3,0 C 4,2 C 76 % 1007,4 hPa 0,0 mm 3,0 km/h (1 Bft) N-NW 337 0 min -0,8 C 0,0 km/h (0 Bft)
28.02.2016 16:05 3,0 C 4,2 C 76 % 1007,4 hPa 0,0 mm 3,0 km/h (1 Bft) N-NW 337 0 min -0,8 C 0,0 km/h (0 Bft)
28.02.2016 16:06 3,0 C 4,2 C 76 % 1007,4 hPa 0,0 mm 3,6 km/h (1 Bft) NW 315 0 min -0,8 C 12,8 km/h (3 Bft)
28.02.2016 16:07 3,0 C 4,2 C 76 % 1007,4 hPa 0,0 mm 3,6 km/h (1 Bft) NW 315 0 min -0,8 C 12,8 km/h (3 Bft)
28.02.2016 16:08 3,0 C 4,1 C 76 % 1007,4 hPa 0,0 mm 3,9 km/h (1 Bft) N-NO 22 0 min -0,8 C 6,0 km/h (2 Bft)
28.02.2016 16:09 3,0 C 4,1 C 76 % 1007,4 hPa 0,0 mm 3,9 km/h (1 Bft) N-NO 22 0 min -0,8 C 6,0 km/h (2 Bft)
28.02.2016 16:10 3,0 C 4,0 C 76 % 1007,4 hPa 0,0 mm 4,2 km/h (1 Bft) NW 315 0 min -0,8 C 5,1 km/h (1 Bft)
28.02.2016 16:11 3,0 C 4,0 C 76 % 1007,4 hPa 0,0 mm 4,2 km/h (1 Bft) NW 315 0 min -0,8 C 5,1 km/h (1 Bft)
28.02.2016 16:12 3,0 C 4,0 C 76 % 1007,4 hPa 0,0 mm 3,6 km/h (1 Bft) S-SO 157 0 min -0,8 C 3,9 km/h (1 Bft)
28.02.2016 16:13 3,0 C 4,0 C 76 % 1007,4 hPa 0,0 mm 3,6 km/h (1 Bft) S-SO 157 0 min -0,8 C 3,9 km/h (1 Bft)
28.02.2016 16:14 3,0 C 4,0 C 76 % 1007,4 hPa 0,0 mm 4,2 km/h (1 Bft) N-NW 337 0 min -0,8 C 7,5 km/h (2 Bft)
28.02.2016 16:15 3,0 C 4,0 C 76 % 1007,4 hPa 0,0 mm 4,2 km/h (1 Bft) N-NW 337 0 min -0,8 C 7,5 km/h (2 Bft)
28.02.2016 16:16 3,0 C 3,8 C 76 % 1007,4 hPa 0,0 mm 4,8 km/h (1 Bft) N-NO 22 0 min -0,8 C 4,8 km/h (1 Bft)
28.02.2016 16:17 3,0 C 3,8 C 76 % 1007,4 hPa 0,0 mm 4,8 km/h (1 Bft) N-NO 22 0 min -0,8 C 4,8 km/h (1 Bft)
28.02.2016 16:18 3,0 C 3,9 C 76 % 1007,4 hPa 0,0 mm 3,6 km/h (1 Bft) O 90 0 min -0,8 C 0,0 km/h (0 Bft)
28.02.2016 16:19 3,0 C 3,9 C 76 % 1007,4 hPa 0,0 mm 3,6 km/h (1 Bft) O 90 0 min -0,8 C 0,0 km/h (0 Bft)
28.02.2016 16:20 3,0 C 3,8 C 76 % 1007,4 hPa 0,0 mm 3,3 km/h (1 Bft) NO 45 0 min -0,8 C 3,9 km/h (1 Bft)
28.02.2016 16:21 3,0 C 3,8 C 76 % 1007,4 hPa 0,0 mm 3,3 km/h (1 Bft) NO 45 0 min -0,8 C 3,9 km/h (1 Bft)
28.02.2016 16:22 3,0 C 3,8 C 76 % 1007,4 hPa 0,0 mm 3,3 km/h (1 Bft) N-NW 337 0 min -0,8 C 6,3 km/h (2 Bft)
28.02.2016 16:23 3,0 C 3,8 C 76 % 1007,4 hPa 0,0 mm 3,3 km/h (1 Bft) N-NW 337 0 min -0,8 C 6,3 km/h (2 Bft)
28.02.2016 16:24 2,9 C 3,7 C 76 % 1007,4 hPa 0,0 mm 3,3 km/h (1 Bft) W-SW 247 0 min -0,9 C 0,0 km/h (0 Bft)
28.02.2016 16:25 2,9 C 3,7 C 76 % 1007,4 hPa 0,0 mm 3,3 km/h (1 Bft) W-SW 247 0 min -0,9 C 0,0 km/h (0 Bft)
28.02.2016 16:26 2,9 C 3,6 C 76 % 1007,4 hPa 0,0 mm 3,3 km/h (1 Bft) N-NO 22 0 min -0,9 C 8,0 km/h (2 Bft)
28.02.2016 16:27 2,9 C 3,6 C 76 % 1007,4 hPa 0,0 mm 3,3 km/h (1 Bft) N-NO 22 0 min -0,9 C 8,0 km/h (2 Bft)
28.02.2016 16:28 2,9 C 3,4 C 76 % 1007,4 hPa 0,0 mm 3,6 km/h (1 Bft) NO 45 0 min -0,9 C 5,1 km/h (1 Bft)
28.02.2016 16:29 2,9 C 3,4 C 76 % 1007,4 hPa 0,0 mm 3,6 km/h (1 Bft) NO 45 0 min -0,9 C 5,1 km/h (1 Bft)
28.02.2016 16:30 2,9 C 3,4 C 76 % 1007,4 hPa 0,0 mm 3,9 km/h (1 Bft) NO 45 0 min -0,9 C 5,7 km/h (1 Bft)
28.02.2016 16:31 2,9 C 3,4 C 76 % 1007,4 hPa 0,0 mm 3,9 km/h (1 Bft) NO 45 0 min -0,9 C 5,7 km/h (1 Bft)
28.02.2016 16:32 2,9 C 3,4 C 76 % 1007,4 hPa 0,0 mm 4,2 km/h (1 Bft) N-NO 22 0 min -0,9 C 0,0 km/h (0 Bft)
28.02.2016 16:33 2,9 C 3,4 C 76 % 1007,4 hPa 0,0 mm 4,2 km/h (1 Bft) N-NO 22 0 min -0,9 C 0,0 km/h (0 Bft)
28.02.2016 16:34 2,8 C 3,4 C 76 % 1007,4 hPa 0,0 mm 4,2 km/h (1 Bft) N-NO 22 0 min -1,0 C 8,0 km/h (2 Bft)
28.02.2016 16:35 2,8 C 3,4 C 76 % 1007,4 hPa 0,0 mm 4,2 km/h (1 Bft) N-NO 22 0 min -1,0 C 8,0 km/h (2 Bft)
28.02.2016 16:36 2,8 C 3,4 C 76 % 1007,4 hPa 0,0 mm 4,8 km/h (1 Bft) N-NO 22 0 min -1,0 C 6,6 km/h (2 Bft)
28.02.2016 16:37 2,8 C 3,4 C 76 % 1007,4 hPa 0,0 mm 4,8 km/h (1 Bft) N-NO 22 0 min -1,0 C 6,6 km/h (2 Bft)
28.02.2016 16:38 2,8 C 3,4 C 76 % 1007,4 hPa 0,0 mm 5,1 km/h (1 Bft) N-NO 22 0 min -1,0 C 10,7 km/h (2 Bft)
28.02.2016 16:39 2,8 C 3,4 C 76 % 1007,4 hPa 0,0 mm 5,1 km/h (1 Bft) N-NO 22 0 min -1,0 C 10,7 km/h (2 Bft)
28.02.2016 16:40 2,8 C 3,3 C 76 % 1007,4 hPa 0,0 mm 5,4 km/h (1 Bft) NW 315 0 min -1,0 C 6,6 km/h (2 Bft)
28.02.2016 16:41 2,8 C 3,3 C 76 % 1007,4 hPa 0,0 mm 5,4 km/h (1 Bft) NW 315 0 min -1,0 C 6,6 km/h (2 Bft)
28.02.2016 16:42 2,8 C 3,2 C 77 % 1007,4 hPa 0,0 mm 5,1 km/h (1 Bft) N-NW 337 0 min -0,8 C 4,5 km/h (1 Bft)
28.02.2016 16:43 2,8 C 3,2 C 77 % 1007,4 hPa 0,0 mm 5,1 km/h (1 Bft) N-NW 337 0 min -0,8 C 4,5 km/h (1 Bft)
28.02.2016 16:44 2,8 C 3,1 C 77 % 1007,4 hPa 0,0 mm 5,7 km/h (1 Bft) N 360 0 min -0,8 C 5,1 km/h (1 Bft)
28.02.2016 16:45 2,8 C 3,1 C 77 % 1007,4 hPa 0,0 mm 5,7 km/h (1 Bft) N 360 0 min -0,8 C 5,1 km/h (1 Bft)
28.02.2016 16:46 2,8 C 3,1 C 77 % 1007,4 hPa 0,0 mm 5,4 km/h (1 Bft) NW 315 0 min -0,8 C 3,9 km/h (1 Bft)
28.02.2016 16:47 2,8 C 3,1 C 77 % 1007,4 hPa 0,0 mm 5,4 km/h (1 Bft) NW 315 0 min -0,8 C 3,9 km/h (1 Bft)
28.02.2016 16:48 2,8 C 3,0 C 77 % 1008,0 hPa 0,0 mm 5,1 km/h (1 Bft) NW 315 0 min -0,8 C 4,8 km/h (1 Bft)
28.02.2016 16:49 2,8 C 3,0 C 77 % 1008,0 hPa 0,0 mm 5,1 km/h (1 Bft) NW 315 0 min -0,8 C 4,8 km/h (1 Bft)
28.02.2016 16:50 2,8 C 3,0 C 77 % 1008,0 hPa 0,0 mm 4,2 km/h (1 Bft) N-NO 22 0 min -0,8 C 5,4 km/h (1 Bft)
28.02.2016 16:51 2,8 C 3,0 C 77 % 1008,0 hPa 0,0 mm 4,2 km/h (1 Bft) N-NO 22 0 min -0,8 C 5,4 km/h (1 Bft)
28.02.2016 16:52 2,8 C 3,0 C 77 % 1008,0 hPa 0,0 mm 3,9 km/h (1 Bft) NW 315 0 min -0,8 C 3,9 km/h (1 Bft)
28.02.2016 16:53 2,8 C 3,0 C 77 % 1008,0 hPa 0,0 mm 3,9 km/h (1 Bft) NW 315 0 min -0,8 C 3,9 km/h (1 Bft)
28.02.2016 16:54 2,8 C 2,9 C 77 % 1008,0 hPa 0,0 mm 4,2 km/h (1 Bft) W 270 0 min -0,8 C 5,7 km/h (1 Bft)
28.02.2016 16:55 2,8 C 2,9 C 77 % 1008,0 hPa 0,0 mm 4,2 km/h (1 Bft) W 270 0 min -0,8 C 5,7 km/h (1 Bft)
28.02.2016 16:56 2,8 C 2,9 C 77 % 1008,0 hPa 0,0 mm 4,2 km/h (1 Bft) W-NW 292 0 min -0,8 C 6,0 km/h (2 Bft)
28.02.2016 16:57 2,8 C 2,9 C 77 % 1008,0 hPa 0,0 mm 4,2 km/h (1 Bft) W-NW 292 0 min -0,8 C 6,0 km/h (2 Bft)
28.02.2016 16:58 2,8 C 2,8 C 77 % 1008,0 hPa 0,0 mm 4,5 km/h (1 Bft) NW 315 0 min -0,8 C 6,9 km/h (2 Bft)
28.02.2016 16:59 2,8 C 2,8 C 77 % 1008,0 hPa 0,0 mm 4,5 km/h (1 Bft) NW 315 0 min -0,8 C 6,9 km/h (2 Bft)
28.02.2016 17:00 2,8 C 2,7 C 77 % 1008,0 hPa 0,0 mm 5,1 km/h (1 Bft) W-NW 292 0 min -0,8 C 5,1 km/h (1 Bft)
28.02.2016 17:02 2,7 C 2,6 C 77 % 1008,0 hPa 0,0 mm 4,5 km/h (1 Bft) NW 315 0 min -0,9 C 0,0 km/h (0 Bft)
28.02.2016 17:03 2,7 C 2,6 C 77 % 1008,0 hPa 0,0 mm 4,5 km/h (1 Bft) NW 315 0 min -0,9 C 0,0 km/h (0 Bft)
28.02.2016 17:04 2,7 C 2,6 C 77 % 1008,0 hPa 0,0 mm 4,2 km/h (1 Bft) W 270 0 min -0,9 C 0,0 km/h (0 Bft)
28.02.2016 17:05 2,7 C 2,6 C 77 % 1008,0 hPa 0,0 mm 4,2 km/h (1 Bft) W 270 0 min -0,9 C 0,0 km/h (0 Bft)
28.02.2016 17:06 2,6 C 2,5 C 77 % 1008,0 hPa 0,0 mm 3,6 km/h (1 Bft) W 270 0 min -1,0 C 5,4 km/h (1 Bft)
28.02.2016 17:07 2,6 C 2,5 C 77 % 1008,0 hPa 0,0 mm 3,6 km/h (1 Bft) W 270 0 min -1,0 C 5,4 km/h (1 Bft)
28.02.2016 17:08 2,5 C 2,4 C 77 % 1008,2 hPa 0,0 mm 3,3 km/h (1 Bft) NW 315 0 min -1,1 C 6,0 km/h (2 Bft)
28.02.2016 17:09 2,5 C 2,4 C 77 % 1008,2 hPa 0,0 mm 3,3 km/h (1 Bft) NW 315 0 min -1,1 C 6,0 km/h (2 Bft)
28.02.2016 17:10 2,5 C 2,3 C 77 % 1008,2 hPa 0,0 mm 3,3 km/h (1 Bft) W-NW 292 0 min -1,1 C 6,9 km/h (2 Bft)
28.02.2016 17:11 2,5 C 2,3 C 77 % 1008,2 hPa 0,0 mm 3,3 km/h (1 Bft) W-NW 292 0 min -1,1 C 6,9 km/h (2 Bft)
28.02.2016 17:12 2,4 C 2,2 C 77 % 1008,2 hPa 0,0 mm 3,0 km/h (1 Bft) W 270 0 min -1,2 C 0,0 km/h (0 Bft)
28.02.2016 17:13 2,4 C 2,2 C 77 % 1008,2 hPa 0,0 mm 3,0 km/h (1 Bft) W 270 0 min -1,2 C 0,0 km/h (0 Bft)
28.02.2016 17:14 2,3 C 2,1 C 77 % 1008,2 hPa 0,0 mm 3,3 km/h (1 Bft) W-NW 292 0 min -1,3 C 4,5 km/h (1 Bft)
28.02.2016 17:15 2,3 C 2,1 C 77 % 1008,2 hPa 0,0 mm 3,3 km/h (1 Bft) W-NW 292 0 min -1,3 C 4,5 km/h (1 Bft)
28.02.2016 17:16 2,3 C 2,1 C 77 % 1008,2 hPa 0,0 mm 3,3 km/h (1 Bft) W-NW 292 0 min -1,3 C 3,3 km/h (1 Bft)
28.02.2016 17:17 2,3 C 2,1 C 77 % 1008,2 hPa 0,0 mm 3,3 km/h (1 Bft) W-NW 292 0 min -1,3 C 3,3 km/h (1 Bft)
28.02.2016 17:18 2,2 C 2,0 C 77 % 1008,2 hPa 0,0 mm 2,4 km/h (1 Bft) O 90 0 min -1,4 C 0,0 km/h (0 Bft)
28.02.2016 17:19 2,2 C 2,0 C 77 % 1008,2 hPa 0,0 mm 2,4 km/h (1 Bft) O 90 0 min -1,4 C 0,0 km/h (0 Bft)
28.02.2016 17:20 1,8 C 1,9 C 77 % 1008,2 hPa 0,0 mm 1,8 km/h (1 Bft) W-SW 247 0 min -1,8 C 3,0 km/h (1 Bft)
28.02.2016 17:21 1,8 C 1,9 C 77 % 1008,2 hPa 0,0 mm 1,8 km/h (1 Bft) W-SW 247 0 min -1,8 C 3,0 km/h (1 Bft)
28.02.2016 17:22 1,8 C 1,8 C 77 % 1008,2 hPa 0,0 mm 0,9 km/h (0 Bft) W-NW 292 0 min -1,8 C 0,0 km/h (0 Bft)
28.02.2016 17:23 1,8 C 1,8 C 77 % 1008,2 hPa 0,0 mm 0,9 km/h (0 Bft) W-NW 292 0 min -1,8 C 0,0 km/h (0 Bft)
28.02.2016 17:24 1,8 C 1,8 C 77 % 1008,2 hPa 0,0 mm 0,9 km/h (0 Bft) W-NW 292 0 min -1,8 C 5,1 km/h (1 Bft)
28.02.2016 17:25 1,8 C 1,8 C 77 % 1008,2 hPa 0,0 mm 0,9 km/h (0 Bft) W-NW 292 0 min -1,8 C 5,1 km/h (1 Bft)
28.02.2016 17:26 1,8 C 1,8 C 77 % 1008,2 hPa 0,0 mm 1,2 km/h (1 Bft) W-NW 292 0 min -1,8 C 0,0 km/h (0 Bft)
28.02.2016 17:27 1,8 C 1,8 C 77 % 1008,2 hPa 0,0 mm 1,2 km/h (1 Bft) W-NW 292 0 min -1,8 C 0,0 km/h (0 Bft)
28.02.2016 17:28 1,8 C 1,8 C 77 % 1008,4 hPa 0,0 mm 0,9 km/h (0 Bft) SW 225 0 min -1,8 C 3,3 km/h (1 Bft)
28.02.2016 17:29 1,8 C 1,8 C 77 % 1008,4 hPa 0,0 mm 0,9 km/h (0 Bft) SW 225 0 min -1,8 C 3,3 km/h (1 Bft)
28.02.2016 17:30 1,8 C 1,8 C 77 % 1008,4 hPa 0,0 mm 0,9 km/h (0 Bft) NW 315 0 min -1,8 C 0,0 km/h (0 Bft)
28.02.2016 17:31 1,8 C 1,8 C 77 % 1008,4 hPa 0,0 mm 0,9 km/h (0 Bft) NW 315 0 min -1,8 C 0,0 km/h (0 Bft)
28.02.2016 17:32 1,7 C 1,8 C 78 % 1008,4 hPa 0,0 mm 0,9 km/h (0 Bft) SW 225 0 min -1,7 C 0,0 km/h (0 Bft)
28.02.2016 17:33 1,7 C 1,8 C 78 % 1008,4 hPa 0,0 mm 0,9 km/h (0 Bft) SW 225 0 min -1,7 C 0,0 km/h (0 Bft)
28.02.2016 17:34 1,7 C 1,8 C 78 % 1008,4 hPa 0,0 mm 0,9 km/h (0 Bft) W-SW 247 0 min -1,7 C 0,0 km/h (0 Bft)
28.02.2016 17:35 1,7 C 1,8 C 78 % 1008,4 hPa 0,0 mm 0,9 km/h (0 Bft) W-SW 247 0 min -1,7 C 0,0 km/h (0 Bft)
28.02.2016 17:36 1,7 C 1,8 C 78 % 1008,4 hPa 0,0 mm 0,0 km/h (0 Bft) W 270 0 min -1,7 C 0,0 km/h (0 Bft)
28.02.2016 17:37 1,7 C 1,8 C 78 % 1008,4 hPa 0,0 mm 0,0 km/h (0 Bft) W 270 0 min -1,7 C 0,0 km/h (0 Bft)
28.02.2016 17:38 1,7 C 1,7 C 78 % 1008,4 hPa 0,0 mm 0,0 km/h (0 Bft) W-SW 247 0 min -1,7 C 0,0 km/h (0 Bft)
28.02.2016 17:39 1,7 C 1,7 C 78 % 1008,4 hPa 0,0 mm 0,0 km/h (0 Bft) W-SW 247 0 min -1,7 C 0,0 km/h (0 Bft)
28.02.2016 17:40 1,7 C 1,7 C 78 % 1008,4 hPa 0,0 mm 0,0 km/h (0 Bft) SW 225 0 min -1,7 C 0,0 km/h (0 Bft)
28.02.2016 17:41 1,7 C 1,7 C 78 % 1008,4 hPa 0,0 mm 0,0 km/h (0 Bft) SW 225 0 min -1,7 C 0,0 km/h (0 Bft)
28.02.2016 17:42 1,7 C 1,7 C 78 % 1008,4 hPa 0,0 mm 0,0 km/h (0 Bft) W-SW 247 0 min -1,7 C 0,0 km/h (0 Bft)
28.02.2016 17:43 1,7 C 1,7 C 78 % 1008,4 hPa 0,0 mm 0,0 km/h (0 Bft) W-SW 247 0 min -1,7 C 0,0 km/h (0 Bft)
28.02.2016 17:44 1,7 C 1,7 C 78 % 1008,4 hPa 0,0 mm 0,0 km/h (0 Bft) S-SW 202 0 min -1,7 C 0,0 km/h (0 Bft)
28.02.2016 17:45 1,7 C 1,7 C 78 % 1008,4 hPa 0,0 mm 0,0 km/h (0 Bft) S-SW 202 0 min -1,7 C 0,0 km/h (0 Bft)
28.02.2016 17:46 1,7 C 1,6 C 78 % 1008,4 hPa 0,0 mm 0,0 km/h (0 Bft) S 180 0 min -1,7 C 0,0 km/h (0 Bft)
28.02.2016 17:47 1,7 C 1,6 C 78 % 1008,4 hPa 0,0 mm 0,0 km/h (0 Bft) S 180 0 min -1,7 C 0,0 km/h (0 Bft)
28.02.2016 17:48 1,7 C 1,6 C 78 % 1008,4 hPa 0,0 mm 0,0 km/h (0 Bft) W-NW 292 0 min -1,7 C 0,0 km/h (0 Bft)
28.02.2016 17:49 1,7 C 1,6 C 78 % 1008,4 hPa 0,0 mm 0,0 km/h (0 Bft) W-NW 292 0 min -1,7 C 0,0 km/h (0 Bft)
28.02.2016 17:50 1,7 C 1,6 C 78 % 1008,4 hPa 0,0 mm 0,0 km/h (0 Bft) W 270 0 min -1,7 C 0,0 km/h (0 Bft)
28.02.2016 17:51 1,7 C 1,6 C 78 % 1008,4 hPa 0,0 mm 0,0 km/h (0 Bft) W 270 0 min -1,7 C 0,0 km/h (0 Bft)
28.02.2016 17:52 1,6 C 1,5 C 78 % 1008,4 hPa 0,0 mm 0,0 km/h (0 Bft) W 270 0 min -1,8 C 3,9 km/h (1 Bft)
28.02.2016 17:53 1,6 C 1,5 C 78 % 1008,4 hPa 0,0 mm 0,0 km/h (0 Bft) W 270 0 min -1,8 C 3,9 km/h (1 Bft)
28.02.2016 17:54 1,6 C 1,5 C 78 % 1008,4 hPa 0,0 mm 0,0 km/h (0 Bft) W-SW 247 0 min -1,8 C 0,0 km/h (0 Bft)
28.02.2016 17:55 1,6 C 1,5 C 78 % 1008,4 hPa 0,0 mm 0,0 km/h (0 Bft) W-SW 247 0 min -1,8 C 0,0 km/h (0 Bft)
28.02.2016 17:56 1,6 C 1,5 C 78 % 1008,4 hPa 0,0 mm 0,0 km/h (0 Bft) S-SO 157 0 min -1,8 C 0,0 km/h (0 Bft)
28.02.2016 17:57 1,6 C 1,5 C 78 % 1008,4 hPa 0,0 mm 0,0 km/h (0 Bft) S-SO 157 0 min -1,8 C 0,0 km/h (0 Bft)
28.02.2016 17:58 1,6 C 1,5 C 78 % 1008,4 hPa 0,0 mm 0,0 km/h (0 Bft) S 180 0 min -1,8 C 0,0 km/h (0 Bft)
28.02.2016 17:59 1,6 C 1,5 C 78 % 1008,4 hPa 0,0 mm 0,0 km/h (0 Bft) S 180 0 min -1,8 C 0,0 km/h (0 Bft)
28.02.2016 18:00 1,6 C 1,5 C 78 % 1008,4 hPa 0,0 mm 0,3 km/h (0 Bft) S 180 0 min -1,8 C 3,3 km/h (1 Bft)
28.02.2016 18:01 1,6 C 1,5 C 78 % 1008,4 hPa 0,0 mm 0,3 km/h (0 Bft) S 180 0 min -1,8 C 3,3 km/h (1 Bft)
28.02.2016 18:02 1,5 C 1,4 C 78 % 1008,4 hPa 0,0 mm 0,6 km/h (0 Bft) S 180 0 min -1,9 C 4,5 km/h (1 Bft)
28.02.2016 18:03 1,5 C 1,4 C 78 % 1008,4 hPa 0,0 mm 0,6 km/h (0 Bft) S 180 0 min -1,9 C 4,5 km/h (1 Bft)
28.02.2016 18:04 1,5 C 1,4 C 78 % 1008,4 hPa 0,0 mm 0,9 km/h (0 Bft) S-SO 157 0 min -1,9 C 3,9 km/h (1 Bft)
28.02.2016 18:05 1,5 C 1,4 C 78 % 1008,4 hPa 0,0 mm 0,9 km/h (0 Bft) S-SO 157 0 min -1,9 C 3,9 km/h (1 Bft)
28.02.2016 18:06 1,5 C 1,4 C 78 % 1008,4 hPa 0,0 mm 1,2 km/h (1 Bft) W-SW 247 0 min -1,9 C 3,0 km/h (1 Bft)
28.02.2016 18:07 1,5 C 1,4 C 78 % 1008,4 hPa 0,0 mm 1,2 km/h (1 Bft) W-SW 247 0 min -1,9 C 3,0 km/h (1 Bft)
28.02.2016 18:08 1,5 C 1,4 C 78 % 1008,6 hPa 0,0 mm 1,2 km/h (1 Bft) S 180 0 min -1,9 C 0,0 km/h (0 Bft)
28.02.2016 18:09 1,5 C 1,4 C 78 % 1008,6 hPa 0,0 mm 1,2 km/h (1 Bft) S 180 0 min -1,9 C 0,0 km/h (0 Bft)
28.02.2016 18:10 1,5 C 1,4 C 78 % 1008,6 hPa 0,0 mm 1,5 km/h (1 Bft) S 180 0 min -1,9 C 0,0 km/h (0 Bft)
28.02.2016 18:11 1,5 C 1,4 C 78 % 1008,6 hPa 0,0 mm 1,5 km/h (1 Bft) S 180 0 min -1,9 C 0,0 km/h (0 Bft)
28.02.2016 18:12 1,4 C 1,3 C 78 % 1008,6 hPa 0,0 mm 1,2 km/h (1 Bft) S-SO 157 0 min -2,0 C 0,0 km/h (0 Bft)
28.02.2016 18:13 1,4 C 1,3 C 78 % 1008,6 hPa 0,0 mm 1,2 km/h (1 Bft) S-SO 157 0 min -2,0 C 0,0 km/h (0 Bft)
28.02.2016 18:14 1,4 C 1,3 C 78 % 1008,6 hPa 0,0 mm 0,9 km/h (0 Bft) S-SO 157 0 min -2,0 C 0,0 km/h (0 Bft)
28.02.2016 18:15 1,4 C 1,3 C 78 % 1008,6 hPa 0,0 mm 0,9 km/h (0 Bft) S-SO 157 0 min -2,0 C 0,0 km/h (0 Bft)
28.02.2016 18:16 1,4 C 1,3 C 79 % 1008,6 hPa 0,0 mm 0,6 km/h (0 Bft) S 180 0 min -1,8 C 0,0 km/h (0 Bft)
28.02.2016 18:17 1,4 C 1,3 C 79 % 1008,6 hPa 0,0 mm 0,6 km/h (0 Bft) S 180 0 min -1,8 C 0,0 km/h (0 Bft)
28.02.2016 18:18 1,4 C 1,3 C 79 % 1008,6 hPa 0,0 mm 0,3 km/h (0 Bft) S-SO 157 0 min -1,8 C 0,0 km/h (0 Bft)
28.02.2016 18:19 1,4 C 1,3 C 79 % 1008,6 hPa 0,0 mm 0,3 km/h (0 Bft) S-SO 157 0 min -1,8 C 0,0 km/h (0 Bft)
28.02.2016 18:20 1,4 C 1,3 C 79 % 1008,6 hPa 0,0 mm 0,3 km/h (0 Bft) SO 135 0 min -1,8 C 0,0 km/h (0 Bft)
28.02.2016 18:21 1,4 C 1,3 C 79 % 1008,6 hPa 0,0 mm 0,3 km/h (0 Bft) SO 135 0 min -1,8 C 0,0 km/h (0 Bft)
28.02.2016 18:22 1,4 C 1,3 C 79 % 1008,6 hPa 0,0 mm 0,0 km/h (0 Bft) SW 225 0 min -1,8 C 0,0 km/h (0 Bft)
28.02.2016 18:23 1,4 C 1,3 C 79 % 1008,6 hPa 0,0 mm 0,0 km/h (0 Bft) SW 225 0 min -1,8 C 0,0 km/h (0 Bft)
28.02.2016 18:24 1,3 C 1,2 C 79 % 1008,6 hPa 0,0 mm 0,0 km/h (0 Bft) W-SW 247 0 min -1,9 C 0,0 km/h (0 Bft)
28.02.2016 18:25 1,3 C 1,2 C 79 % 1008,6 hPa 0,0 mm 0,0 km/h (0 Bft) W-SW 247 0 min -1,9 C 0,0 km/h (0 Bft)
28.02.2016 18:26 1,3 C 1,2 C 79 % 1008,6 hPa 0,0 mm 0,0 km/h (0 Bft) SO 135 0 min -1,9 C 0,0 km/h (0 Bft)
28.02.2016 18:27 1,3 C 1,2 C 79 % 1008,6 hPa 0,0 mm 0,0 km/h (0 Bft) SO 135 0 min -1,9 C 0,0 km/h (0 Bft)
28.02.2016 18:28 1,3 C 1,2 C 79 % 1008,8 hPa 0,0 mm 0,0 km/h (0 Bft) SO 135 0 min -1,9 C 0,0 km/h (0 Bft)
28.02.2016 18:29 1,3 C 1,2 C 79 % 1008,8 hPa 0,0 mm 0,0 km/h (0 Bft) SO 135 0 min -1,9 C 0,0 km/h (0 Bft)
28.02.2016 18:30 1,2 C 1,1 C 79 % 1008,8 hPa 0,0 mm 0,0 km/h (0 Bft) S-SO 157 0 min -2,0 C 0,0 km/h (0 Bft)
28.02.2016 18:31 1,2 C 1,1 C 79 % 1008,8 hPa 0,0 mm 0,0 km/h (0 Bft) S-SO 157 0 min -2,0 C 0,0 km/h (0 Bft)
28.02.2016 18:32 1,3 C 1,2 C 80 % 1008,8 hPa 0,0 mm 0,0 km/h (0 Bft) SW 225 0 min -1,8 C 0,0 km/h (0 Bft)
28.02.2016 18:33 1,3 C 1,2 C 80 % 1008,8 hPa 0,0 mm 0,0 km/h (0 Bft) SW 225 0 min -1,8 C 0,0 km/h (0 Bft)
28.02.2016 18:34 1,2 C 1,1 C 80 % 1008,8 hPa 0,0 mm 0,3 km/h (0 Bft) SW 225 0 min -1,9 C 4,8 km/h (1 Bft)
28.02.2016 18:35 1,2 C 1,1 C 80 % 1008,8 hPa 0,0 mm 0,3 km/h (0 Bft) SW 225 0 min -1,9 C 4,8 km/h (1 Bft)
28.02.2016 18:36 1,2 C 1,1 C 80 % 1008,8 hPa 0,0 mm 0,9 km/h (0 Bft) S 180 0 min -1,9 C 6,9 km/h (2 Bft)
28.02.2016 18:37 1,2 C 1,1 C 80 % 1008,8 hPa 0,0 mm 0,9 km/h (0 Bft) S 180 0 min -1,9 C 6,9 km/h (2 Bft)
28.02.2016 18:38 1,2 C 1,1 C 80 % 1008,8 hPa 0,0 mm 1,8 km/h (1 Bft) W-SW 247 0 min -1,9 C 5,4 km/h (1 Bft)
28.02.2016 18:39 1,2 C 1,1 C 80 % 1008,8 hPa 0,0 mm 1,8 km/h (1 Bft) W-SW 247 0 min -1,9 C 5,4 km/h (1 Bft)
28.02.2016 18:40 1,2 C 1,1 C 80 % 1008,8 hPa 0,0 mm 1,8 km/h (1 Bft) S 180 0 min -1,9 C 0,0 km/h (0 Bft)
28.02.2016 18:41 1,2 C 1,1 C 80 % 1008,8 hPa 0,0 mm 1,8 km/h (1 Bft) S 180 0 min -1,9 C 0,0 km/h (0 Bft)
28.02.2016 18:42 1,2 C 1,1 C 80 % 1008,8 hPa 0,0 mm 1,8 km/h (1 Bft) SW 225 0 min -1,9 C 0,0 km/h (0 Bft)
28.02.2016 18:43 1,2 C 1,1 C 80 % 1008,8 hPa 0,0 mm 1,8 km/h (1 Bft) SW 225 0 min -1,9 C 0,0 km/h (0 Bft)
28.02.2016 18:44 1,2 C 1,1 C 81 % 1008,8 hPa 0,0 mm 1,8 km/h (1 Bft) SO 135 0 min -1,7 C 0,0 km/h (0 Bft)
28.02.2016 18:45 1,2 C 1,1 C 81 % 1008,8 hPa 0,0 mm 1,8 km/h (1 Bft) SO 135 0 min -1,7 C 0,0 km/h (0 Bft)
28.02.2016 18:46 1,2 C 1,1 C 81 % 1008,8 hPa 0,0 mm 1,2 km/h (1 Bft) O-SO 112 0 min -1,7 C 0,0 km/h (0 Bft)
28.02.2016 18:47 1,2 C 1,1 C 81 % 1008,8 hPa 0,0 mm 1,2 km/h (1 Bft) O-SO 112 0 min -1,7 C 0,0 km/h (0 Bft)
28.02.2016 18:48 1,2 C 1,1 C 82 % 1009,0 hPa 0,0 mm 0,6 km/h (0 Bft) SO 135 0 min -1,5 C 0,0 km/h (0 Bft)
28.02.2016 18:49 1,2 C 1,1 C 82 % 1009,0 hPa 0,0 mm 0,6 km/h (0 Bft) SO 135 0 min -1,5 C 0,0 km/h (0 Bft)
28.02.2016 18:50 1,2 C 1,1 C 82 % 1009,0 hPa 0,0 mm 0,0 km/h (0 Bft) S 180 0 min -1,5 C 0,0 km/h (0 Bft)
28.02.2016 18:51 1,2 C 1,1 C 82 % 1009,0 hPa 0,0 mm 0,0 km/h (0 Bft) S 180 0 min -1,5 C 0,0 km/h (0 Bft)
28.02.2016 18:52 1,2 C 1,1 C 82 % 1009,0 hPa 0,0 mm 0,0 km/h (0 Bft) S-SO 157 0 min -1,5 C 0,0 km/h (0 Bft)
28.02.2016 18:53 1,2 C 1,1 C 82 % 1009,0 hPa 0,0 mm 0,0 km/h (0 Bft) S-SO 157 0 min -1,5 C 0,0 km/h (0 Bft)
28.02.2016 18:54 1,2 C 1,1 C 82 % 1009,0 hPa 0,0 mm 0,0 km/h (0 Bft) SO 135 0 min -1,5 C 0,0 km/h (0 Bft)
28.02.2016 18:55 1,2 C 1,1 C 82 % 1009,0 hPa 0,0 mm 0,0 km/h (0 Bft) SO 135 0 min -1,5 C 0,0 km/h (0 Bft)
28.02.2016 18:56 1,2 C 1,1 C 82 % 1009,0 hPa 0,0 mm 0,0 km/h (0 Bft) S-SO 157 0 min -1,5 C 0,0 km/h (0 Bft)
28.02.2016 18:57 1,2 C 1,1 C 82 % 1009,0 hPa 0,0 mm 0,0 km/h (0 Bft) S-SO 157 0 min -1,5 C 0,0 km/h (0 Bft)
28.02.2016 18:58 1,2 C 1,1 C 82 % 1009,0 hPa 0,0 mm 0,0 km/h (0 Bft) S-SO 157 0 min -1,5 C 0,0 km/h (0 Bft)
28.02.2016 18:59 1,2 C 1,1 C 82 % 1009,0 hPa 0,0 mm 0,0 km/h (0 Bft) S-SO 157 0 min -1,5 C 0,0 km/h (0 Bft)
28.02.2016 19:00 1,2 C 1,1 C 83 % 1009,0 hPa 0,0 mm 0,0 km/h (0 Bft) O-SO 112 0 min -1,4 C 0,0 km/h (0 Bft)
28.02.2016 19:01 1,2 C 1,1 C 83 % 1009,0 hPa 0,0 mm 0,0 km/h (0 Bft) O-SO 112 0 min -1,4 C 0,0 km/h (0 Bft)
28.02.2016 19:02 1,1 C 1,1 C 83 % 1009,0 hPa 0,0 mm 0,0 km/h (0 Bft) O-SO 112 0 min -1,5 C 0,0 km/h (0 Bft)
28.02.2016 19:03 1,1 C 1,1 C 83 % 1009,0 hPa 0,0 mm 0,0 km/h (0 Bft) O-SO 112 0 min -1,5 C 0,0 km/h (0 Bft)
28.02.2016 19:04 1,1 C 1,1 C 83 % 1009,0 hPa 0,0 mm 0,0 km/h (0 Bft) SO 135 0 min -1,5 C 0,0 km/h (0 Bft)
28.02.2016 19:05 1,1 C 1,1 C 83 % 1009,0 hPa 0,0 mm 0,0 km/h (0 Bft) SO 135 0 min -1,5 C 0,0 km/h (0 Bft)
28.02.2016 19:06 1,1 C 1,0 C 83 % 1009,0 hPa 0,0 mm 0,0 km/h (0 Bft) O-SO 112 0 min -1,5 C 0,0 km/h (0 Bft)
28.02.2016 19:07 1,1 C 1,0 C 83 % 1009,0 hPa 0,0 mm 0,0 km/h (0 Bft) O-SO 112 0 min -1,5 C 0,0 km/h (0 Bft)
28.02.2016 19:08 1,1 C 1,0 C 83 % 1009,1 hPa 0,0 mm 0,0 km/h (0 Bft) O-SO 112 0 min -1,5 C 0,0 km/h (0 Bft)
28.02.2016 19:09 1,1 C 1,0 C 83 % 1009,1 hPa 0,0 mm 0,0 km/h (0 Bft) O-SO 112 0 min -1,5 C 0,0 km/h (0 Bft)
28.02.2016 19:10 1,1 C 1,0 C 83 % 1009,1 hPa 0,0 mm 0,0 km/h (0 Bft) S-SO 157 0 min -1,5 C 0,0 km/h (0 Bft)
28.02.2016 19:11 1,1 C 1,0 C 83 % 1009,1 hPa 0,0 mm 0,0 km/h (0 Bft) S-SO 157 0 min -1,5 C 0,0 km/h (0 Bft)
28.02.2016 19:12 1,1 C 1,0 C 83 % 1009,1 hPa 0,0 mm 0,0 km/h (0 Bft) S-SO 157 0 min -1,5 C 0,0 km/h (0 Bft)
28.02.2016 19:13 1,1 C 1,0 C 83 % 1009,1 hPa 0,0 mm 0,0 km/h (0 Bft) S-SO 157 0 min -1,5 C 0,0 km/h (0 Bft)
28.02.2016 19:14 1,1 C 1,0 C 83 % 1009,1 hPa 0,0 mm 0,0 km/h (0 Bft) S-SO 157 0 min -1,5 C 0,0 km/h (0 Bft)
28.02.2016 19:15 1,1 C 1,0 C 83 % 1009,1 hPa 0,0 mm 0,0 km/h (0 Bft) S-SO 157 0 min -1,5 C 0,0 km/h (0 Bft)
28.02.2016 19:16 1,2 C 1,1 C 83 % 1009,1 hPa 0,0 mm 0,0 km/h (0 Bft) S-SO 157 0 min -1,4 C 0,0 km/h (0 Bft)
28.02.2016 19:17 1,2 C 1,1 C 83 % 1009,1 hPa 0,0 mm 0,0 km/h (0 Bft) S-SO 157 0 min -1,4 C 0,0 km/h (0 Bft)
28.02.2016 19:18 1,2 C 1,1 C 83 % 1009,1 hPa 0,0 mm 0,0 km/h (0 Bft) O-SO 112 0 min -1,4 C 0,0 km/h (0 Bft)
28.02.2016 19:19 1,2 C 1,1 C 83 % 1009,1 hPa 0,0 mm 0,0 km/h (0 Bft) O-SO 112 0 min -1,4 C 0,0 km/h (0 Bft)
28.02.2016 19:20 1,2 C 1,1 C 83 % 1009,1 hPa 0,0 mm 0,0 km/h (0 Bft) O-SO 112 0 min -1,4 C 0,0 km/h (0 Bft)
28.02.2016 19:21 1,2 C 1,1 C 83 % 1009,1 hPa 0,0 mm 0,0 km/h (0 Bft) O-SO 112 0 min -1,4 C 0,0 km/h (0 Bft)
28.02.2016 19:22 1,2 C 1,1 C 84 % 1009,1 hPa 0,0 mm 0,0 km/h (0 Bft) SW 225 0 min -1,2 C 0,0 km/h (0 Bft)
28.02.2016 19:23 1,2 C 1,1 C 84 % 1009,1 hPa 0,0 mm 0,0 km/h (0 Bft) SW 225 0 min -1,2 C 0,0 km/h (0 Bft)
28.02.2016 19:24 1,2 C 1,1 C 84 % 1009,1 hPa 0,0 mm 0,3 km/h (0 Bft) S 180 0 min -1,2 C 0,0 km/h (0 Bft)
28.02.2016 19:25 1,2 C 1,1 C 84 % 1009,1 hPa 0,0 mm 0,3 km/h (0 Bft) S 180 0 min -1,2 C 0,0 km/h (0 Bft)
28.02.2016 19:26 1,2 C 1,1 C 84 % 1009,1 hPa 0,0 mm 0,3 km/h (0 Bft) S 180 0 min -1,2 C 0,0 km/h (0 Bft)
28.02.2016 19:27 1,2 C 1,1 C 84 % 1009,1 hPa 0,0 mm 0,3 km/h (0 Bft) S 180 0 min -1,2 C 0,0 km/h (0 Bft)
28.02.2016 19:28 1,2 C 1,1 C 84 % 1009,1 hPa 0,0 mm 0,3 km/h (0 Bft) O 90 0 min -1,2 C 0,0 km/h (0 Bft)
28.02.2016 19:29 1,2 C 1,1 C 84 % 1009,1 hPa 0,0 mm 0,3 km/h (0 Bft) O 90 0 min -1,2 C 0,0 km/h (0 Bft)
28.02.2016 19:30 1,1 C 1,0 C 84 % 1009,1 hPa 0,0 mm 0,3 km/h (0 Bft) O 90 0 min -1,3 C 0,0 km/h (0 Bft)
28.02.2016 19:31 1,1 C 1,0 C 84 % 1009,1 hPa 0,0 mm 0,3 km/h (0 Bft) O 90 0 min -1,3 C 0,0 km/h (0 Bft)
28.02.2016 19:32 1,1 C 1,0 C 84 % 1009,1 hPa 0,0 mm 0,3 km/h (0 Bft) O 90 0 min -1,3 C 0,0 km/h (0 Bft)
28.02.2016 19:33 1,1 C 1,0 C 84 % 1009,1 hPa 0,0 mm 0,3 km/h (0 Bft) O 90 0 min -1,3 C 0,0 km/h (0 Bft)
28.02.2016 19:34 1,1 C 1,0 C 84 % 1009,1 hPa 0,0 mm 0,0 km/h (0 Bft) SO 135 0 min -1,3 C 0,0 km/h (0 Bft)
28.02.2016 19:35 1,1 C 1,0 C 84 % 1009,1 hPa 0,0 mm 0,0 km/h (0 Bft) SO 135 0 min -1,3 C 0,0 km/h (0 Bft)
28.02.2016 19:36 1,1 C 1,0 C 84 % 1009,1 hPa 0,0 mm 0,0 km/h (0 Bft) S 180 0 min -1,3 C 0,0 km/h (0 Bft)
28.02.2016 19:37 1,1 C 1,0 C 84 % 1009,1 hPa 0,0 mm 0,0 km/h (0 Bft) S 180 0 min -1,3 C 0,0 km/h (0 Bft)
28.02.2016 19:38 1,1 C 1,0 C 84 % 1009,1 hPa 0,0 mm 0,0 km/h (0 Bft) S 180 0 min -1,3 C 0,0 km/h (0 Bft)
28.02.2016 19:39 1,1 C 1,0 C 84 % 1009,1 hPa 0,0 mm 0,0 km/h (0 Bft) S 180 0 min -1,3 C 0,0 km/h (0 Bft)
28.02.2016 19:40 1,1 C 1,0 C 84 % 1009,1 hPa 0,0 mm 0,0 km/h (0 Bft) O 90 0 min -1,3 C 0,0 km/h (0 Bft)
28.02.2016 19:41 1,1 C 1,0 C 84 % 1009,1 hPa 0,0 mm 0,0 km/h (0 Bft) O 90 0 min -1,3 C 0,0 km/h (0 Bft)
28.02.2016 19:42 1,1 C 1,0 C 84 % 1009,1 hPa 0,0 mm 0,0 km/h (0 Bft) SO 135 0 min -1,3 C 0,0 km/h (0 Bft)
28.02.2016 19:43 1,1 C 1,0 C 84 % 1009,1 hPa 0,0 mm 0,0 km/h (0 Bft) SO 135 0 min -1,3 C 0,0 km/h (0 Bft)
28.02.2016 19:44 1,1 C 1,0 C 84 % 1009,1 hPa 0,0 mm 0,0 km/h (0 Bft) SO 135 0 min -1,3 C 0,0 km/h (0 Bft)
28.02.2016 19:45 1,1 C 1,0 C 84 % 1009,1 hPa 0,0 mm 0,0 km/h (0 Bft) SO 135 0 min -1,3 C 0,0 km/h (0 Bft)
28.02.2016 19:46 1,1 C 1,0 C 84 % 1009,1 hPa 0,0 mm 0,0 km/h (0 Bft) O 90 0 min -1,3 C 0,0 km/h (0 Bft)
28.02.2016 19:47 1,1 C 1,0 C 84 % 1009,1 hPa 0,0 mm 0,0 km/h (0 Bft) O 90 0 min -1,3 C 0,0 km/h (0 Bft)
28.02.2016 19:48 1,1 C 1,0 C 84 % 1009,1 hPa 0,0 mm 0,0 km/h (0 Bft) O 90 0 min -1,3 C 0,0 km/h (0 Bft)
28.02.2016 19:49 1,1 C 1,0 C 84 % 1009,1 hPa 0,0 mm 0,0 km/h (0 Bft) O 90 0 min -1,3 C 0,0 km/h (0 Bft)
28.02.2016 19:50 1,0 C 0,9 C 84 % 1009,1 hPa 0,0 mm 0,0 km/h (0 Bft) NO 45 0 min -1,4 C 0,0 km/h (0 Bft)
28.02.2016 19:51 1,0 C 0,9 C 84 % 1009,1 hPa 0,0 mm 0,0 km/h (0 Bft) NO 45 0 min -1,4 C 0,0 km/h (0 Bft)
28.02.2016 19:52 1,0 C 0,9 C 84 % 1009,1 hPa 0,0 mm 0,0 km/h (0 Bft) NO 45 0 min -1,4 C 0,0 km/h (0 Bft)
28.02.2016 19:53 1,0 C 0,9 C 84 % 1009,1 hPa 0,0 mm 0,0 km/h (0 Bft) NO 45 0 min -1,4 C 0,0 km/h (0 Bft)
28.02.2016 19:54 1,0 C 0,9 C 84 % 1009,1 hPa 0,0 mm 0,0 km/h (0 Bft) W 270 0 min -1,4 C 0,0 km/h (0 Bft)
28.02.2016 19:55 1,0 C 0,9 C 84 % 1009,1 hPa 0,0 mm 0,0 km/h (0 Bft) W 270 0 min -1,4 C 0,0 km/h (0 Bft)
28.02.2016 19:56 0,9 C 0,8 C 84 % 1009,1 hPa 0,0 mm 0,0 km/h (0 Bft) S-SW 202 0 min -1,5 C 0,0 km/h (0 Bft)
28.02.2016 19:57 0,9 C 0,8 C 84 % 1009,1 hPa 0,0 mm 0,0 km/h (0 Bft) S-SW 202 0 min -1,5 C 0,0 km/h (0 Bft)
28.02.2016 19:58 1,0 C 0,9 C 84 % 1009,1 hPa 0,0 mm 0,0 km/h (0 Bft) S 180 0 min -1,4 C 0,0 km/h (0 Bft)
28.02.2016 19:59 1,0 C 0,9 C 84 % 1009,1 hPa 0,0 mm 0,0 km/h (0 Bft) S 180 0 min -1,4 C 0,0 km/h (0 Bft)
28.02.2016 20:00 1,0 C 0,9 C 84 % 1009,1 hPa 0,0 mm 0,0 km/h (0 Bft) O-SO 112 0 min -1,4 C 0,0 km/h (0 Bft)
28.02.2016 20:01 1,0 C 0,9 C 84 % 1009,1 hPa 0,0 mm 0,0 km/h (0 Bft) O-SO 112 0 min -1,4 C 0,0 km/h (0 Bft)
28.02.2016 20:02 1,0 C 0,9 C 84 % 1009,1 hPa 0,0 mm 0,0 km/h (0 Bft) O-SO 112 0 min -1,4 C 0,0 km/h (0 Bft)
28.02.2016 20:04 1,0 C 0,9 C 84 % 1009,1 hPa 0,0 mm 0,0 km/h (0 Bft) SO 135 0 min -1,4 C 0,0 km/h (0 Bft)
28.02.2016 20:05 1,0 C 0,9 C 84 % 1009,1 hPa 0,0 mm 0,0 km/h (0 Bft) SO 135 0 min -1,4 C 0,0 km/h (0 Bft)
28.02.2016 20:06 1,1 C 0,9 C 85 % 1009,1 hPa 0,0 mm 0,0 km/h (0 Bft) SO 135 0 min -1,1 C 0,0 km/h (0 Bft)
28.02.2016 20:07 1,1 C 0,9 C 85 % 1009,1 hPa 0,0 mm 0,0 km/h (0 Bft) SO 135 0 min -1,1 C 0,0 km/h (0 Bft)
28.02.2016 20:08 1,1 C 1,0 C 85 % 1009,1 hPa 0,0 mm 0,0 km/h (0 Bft) SO 135 0 min -1,1 C 0,0 km/h (0 Bft)
28.02.2016 20:09 1,1 C 1,0 C 85 % 1009,1 hPa 0,0 mm 0,0 km/h (0 Bft) SO 135 0 min -1,1 C 0,0 km/h (0 Bft)
28.02.2016 20:10 1,1 C 1,0 C 85 % 1009,1 hPa 0,0 mm 0,0 km/h (0 Bft) S 180 0 min -1,1 C 0,0 km/h (0 Bft)
28.02.2016 20:11 1,1 C 1,0 C 85 % 1009,1 hPa 0,0 mm 0,0 km/h (0 Bft) S 180 0 min -1,1 C 0,0 km/h (0 Bft)
28.02.2016 20:12 1,2 C 1,0 C 85 % 1009,1 hPa 0,0 mm 0,0 km/h (0 Bft) S-SO 157 0 min -1,0 C 0,0 km/h (0 Bft)
28.02.2016 20:13 1,2 C 1,0 C 85 % 1009,1 hPa 0,0 mm 0,0 km/h (0 Bft) S-SO 157 0 min -1,0 C 0,0 km/h (0 Bft)
28.02.2016 20:14 1,2 C 1,1 C 85 % 1009,1 hPa 0,0 mm 0,0 km/h (0 Bft) NO 45 0 min -1,0 C 0,0 km/h (0 Bft)
28.02.2016 20:15 1,2 C 1,1 C 85 % 1009,1 hPa 0,0 mm 0,0 km/h (0 Bft) NO 45 0 min -1,0 C 0,0 km/h (0 Bft)
28.02.2016 20:16 1,1 C 1,0 C 85 % 1009,1 hPa 0,0 mm 0,0 km/h (0 Bft) N-NW 337 0 min -1,1 C 0,0 km/h (0 Bft)
28.02.2016 20:17 1,1 C 1,0 C 85 % 1009,1 hPa 0,0 mm 0,0 km/h (0 Bft) N-NW 337 0 min -1,1 C 0,0 km/h (0 Bft)
28.02.2016 20:18 1,0 C 0,9 C 85 % 1009,1 hPa 0,0 mm 0,0 km/h (0 Bft) N-NO 22 0 min -1,2 C 0,0 km/h (0 Bft)
28.02.2016 20:19 1,0 C 0,9 C 85 % 1009,1 hPa 0,0 mm 0,0 km/h (0 Bft) N-NO 22 0 min -1,2 C 0,0 km/h (0 Bft)
28.02.2016 20:20 1,0 C 0,9 C 85 % 1009,1 hPa 0,0 mm 0,0 km/h (0 Bft) W 270 0 min -1,2 C 0,0 km/h (0 Bft)
28.02.2016 20:21 1,0 C 0,9 C 85 % 1009,1 hPa 0,0 mm 0,0 km/h (0 Bft) W 270 0 min -1,2 C 0,0 km/h (0 Bft)
28.02.2016 20:22 1,0 C 0,9 C 85 % 1009,1 hPa 0,0 mm 0,0 km/h (0 Bft) S 180 0 min -1,2 C 0,0 km/h (0 Bft)
28.02.2016 20:23 1,0 C 0,9 C 85 % 1009,1 hPa 0,0 mm 0,0 km/h (0 Bft) S 180 0 min -1,2 C 0,0 km/h (0 Bft)
28.02.2016 20:24 1,0 C 0,9 C 85 % 1009,1 hPa 0,0 mm 0,0 km/h (0 Bft) S 180 0 min -1,2 C 0,0 km/h (0 Bft)
28.02.2016 20:25 1,0 C 0,9 C 85 % 1009,1 hPa 0,0 mm 0,0 km/h (0 Bft) S 180 0 min -1,2 C 0,0 km/h (0 Bft)
28.02.2016 20:26 1,0 C 0,9 C 85 % 1009,1 hPa 0,0 mm 0,0 km/h (0 Bft) O-NO 67 0 min -1,2 C 0,0 km/h (0 Bft)
28.02.2016 20:27 1,0 C 0,9 C 85 % 1009,1 hPa 0,0 mm 0,0 km/h (0 Bft) O-NO 67 0 min -1,2 C 0,0 km/h (0 Bft)
28.02.2016 20:28 1,0 C 0,9 C 85 % 1009,1 hPa 0,0 mm 0,0 km/h (0 Bft) O-NO 67 0 min -1,2 C 0,0 km/h (0 Bft)
28.02.2016 20:29 1,0 C 0,9 C 85 % 1009,1 hPa 0,0 mm 0,0 km/h (0 Bft) O-NO 67 0 min -1,2 C 0,0 km/h (0 Bft)
28.02.2016 20:30 1,0 C 0,9 C 85 % 1009,1 hPa 0,0 mm 0,0 km/h (0 Bft) O-SO 112 0 min -1,2 C 0,0 km/h (0 Bft)
28.02.2016 20:31 1,0 C 0,9 C 85 % 1009,1 hPa 0,0 mm 0,0 km/h (0 Bft) O-SO 112 0 min -1,2 C 0,0 km/h (0 Bft)
28.02.2016 20:32 1,0 C 0,9 C 85 % 1009,1 hPa 0,0 mm 0,0 km/h (0 Bft) O-SO 112 0 min -1,2 C 0,0 km/h (0 Bft)
28.02.2016 20:33 1,0 C 0,9 C 85 % 1009,1 hPa 0,0 mm 0,0 km/h (0 Bft) O-SO 112 0 min -1,2 C 0,0 km/h (0 Bft)
28.02.2016 20:34 1,0 C 0,9 C 85 % 1009,1 hPa 0,0 mm 0,0 km/h (0 Bft) O 90 0 min -1,2 C 0,0 km/h (0 Bft)
28.02.2016 20:35 1,0 C 0,9 C 85 % 1009,1 hPa 0,0 mm 0,0 km/h (0 Bft) O 90 0 min -1,2 C 0,0 km/h (0 Bft)
28.02.2016 20:36 1,0 C 0,9 C 85 % 1009,1 hPa 0,0 mm 0,0 km/h (0 Bft) O 90 0 min -1,2 C 0,0 km/h (0 Bft)
28.02.2016 20:37 1,0 C 0,9 C 85 % 1009,1 hPa 0,0 mm 0,0 km/h (0 Bft) O 90 0 min -1,2 C 0,0 km/h (0 Bft)
28.02.2016 20:38 0,9 C 0,8 C 85 % 1009,1 hPa 0,0 mm 0,0 km/h (0 Bft) O-SO 112 0 min -1,3 C 0,0 km/h (0 Bft)
28.02.2016 20:39 0,9 C 0,8 C 85 % 1009,1 hPa 0,0 mm 0,0 km/h (0 Bft) O-SO 112 0 min -1,3 C 0,0 km/h (0 Bft)
28.02.2016 20:40 1,0 C 0,9 C 85 % 1009,1 hPa 0,0 mm 0,0 km/h (0 Bft) O-SO 112 0 min -1,2 C 0,0 km/h (0 Bft)
28.02.2016 20:41 1,0 C 0,9 C 85 % 1009,1 hPa 0,0 mm 0,0 km/h (0 Bft) O-SO 112 0 min -1,2 C 0,0 km/h (0 Bft)
28.02.2016 20:42 1,0 C 0,9 C 85 % 1009,1 hPa 0,0 mm 0,0 km/h (0 Bft) O-SO 112 0 min -1,2 C 0,0 km/h (0 Bft)
28.02.2016 20:43 1,0 C 0,9 C 85 % 1009,1 hPa 0,0 mm 0,0 km/h (0 Bft) O-SO 112 0 min -1,2 C 0,0 km/h (0 Bft)
28.02.2016 20:44 1,0 C 0,9 C 85 % 1009,1 hPa 0,0 mm 0,0 km/h (0 Bft) NW 315 0 min -1,2 C 0,0 km/h (0 Bft)
28.02.2016 20:45 1,0 C 0,9 C 85 % 1009,1 hPa 0,0 mm 0,0 km/h (0 Bft) NW 315 0 min -1,2 C 0,0 km/h (0 Bft)
28.02.2016 20:46 1,0 C 0,9 C 85 % 1009,1 hPa 0,0 mm 0,0 km/h (0 Bft) NW 315 0 min -1,2 C 3,0 km/h (1 Bft)
28.02.2016 20:47 1,0 C 0,9 C 85 % 1009,1 hPa 0,0 mm 0,0 km/h (0 Bft) NW 315 0 min -1,2 C 3,0 km/h (1 Bft)
28.02.2016 20:48 1,0 C 0,9 C 85 % 1008,9 hPa 0,0 mm 0,3 km/h (0 Bft) NW 315 0 min -1,2 C 0,0 km/h (0 Bft)
28.02.2016 20:49 1,0 C 0,9 C 85 % 1008,9 hPa 0,0 mm 0,3 km/h (0 Bft) NW 315 0 min -1,2 C 0,0 km/h (0 Bft)
28.02.2016 20:50 1,1 C 1,0 C 85 % 1008,9 hPa 0,0 mm 0,3 km/h (0 Bft) O-NO 67 0 min -1,1 C 3,3 km/h (1 Bft)
28.02.2016 20:51 1,1 C 1,0 C 85 % 1008,9 hPa 0,0 mm 0,3 km/h (0 Bft) O-NO 67 0 min -1,1 C 3,3 km/h (1 Bft)
28.02.2016 20:52 1,1 C 1,0 C 85 % 1008,9 hPa 0,0 mm 0,6 km/h (0 Bft) NO 45 0 min -1,1 C 0,0 km/h (0 Bft)
28.02.2016 20:53 1,1 C 1,0 C 85 % 1008,9 hPa 0,0 mm 0,6 km/h (0 Bft) NO 45 0 min -1,1 C 0,0 km/h (0 Bft)
28.02.2016 20:54 1,1 C 1,0 C 85 % 1008,9 hPa 0,0 mm 0,6 km/h (0 Bft) O 90 0 min -1,1 C 0,0 km/h (0 Bft)
28.02.2016 20:55 1,1 C 1,0 C 85 % 1008,9 hPa 0,0 mm 0,6 km/h (0 Bft) O 90 0 min -1,1 C 0,0 km/h (0 Bft)
28.02.2016 20:56 1,1 C 1,0 C 86 % 1008,9 hPa 0,0 mm 0,6 km/h (0 Bft) O-SO 112 0 min -1,0 C 0,0 km/h (0 Bft)
28.02.2016 20:57 1,1 C 1,0 C 86 % 1008,9 hPa 0,0 mm 0,6 km/h (0 Bft) O-SO 112 0 min -1,0 C 0,0 km/h (0 Bft)
28.02.2016 20:58 1,1 C 1,0 C 86 % 1008,9 hPa 0,0 mm 0,3 km/h (0 Bft) O-SO 112 0 min -1,0 C 0,0 km/h (0 Bft)
28.02.2016 20:59 1,1 C 1,0 C 86 % 1008,9 hPa 0,0 mm 0,3 km/h (0 Bft) O-SO 112 0 min -1,0 C 0,0 km/h (0 Bft)
28.02.2016 21:00 1,1 C 1,0 C 86 % 1008,9 hPa 0,0 mm 0,3 km/h (0 Bft) O-NO 67 0 min -1,0 C 0,0 km/h (0 Bft)
28.02.2016 21:01 1,1 C 1,0 C 86 % 1008,9 hPa 0,0 mm 0,3 km/h (0 Bft) O-NO 67 0 min -1,0 C 0,0 km/h (0 Bft)
28.02.2016 21:02 1,1 C 1,0 C 86 % 1008,9 hPa 0,0 mm 0,0 km/h (0 Bft) O-SO 112 0 min -1,0 C 0,0 km/h (0 Bft)
28.02.2016 21:03 1,1 C 1,0 C 86 % 1008,9 hPa 0,0 mm 0,0 km/h (0 Bft) O-SO 112 0 min -1,0 C 0,0 km/h (0 Bft)
28.02.2016 21:04 1,1 C 1,0 C 86 % 1008,9 hPa 0,0 mm 0,0 km/h (0 Bft) O-SO 112 0 min -1,0 C 0,0 km/h (0 Bft)
28.02.2016 21:05 1,1 C 1,0 C 86 % 1008,9 hPa 0,0 mm 0,0 km/h (0 Bft) O-SO 112 0 min -1,0 C 0,0 km/h (0 Bft)
28.02.2016 21:06 1,1 C 1,0 C 86 % 1008,9 hPa 0,0 mm 0,0 km/h (0 Bft) O-NO 67 0 min -1,0 C 0,0 km/h (0 Bft)
28.02.2016 21:07 1,1 C 1,0 C 86 % 1008,9 hPa 0,0 mm 0,0 km/h (0 Bft) O-NO 67 0 min -1,0 C 0,0 km/h (0 Bft)
28.02.2016 21:08 1,1 C 1,0 C 86 % 1008,9 hPa 0,0 mm 0,6 km/h (0 Bft) N-NO 22 0 min -1,0 C 4,8 km/h (1 Bft)
28.02.2016 21:09 1,1 C 1,0 C 86 % 1008,9 hPa 0,0 mm 0,6 km/h (0 Bft) N-NO 22 0 min -1,0 C 4,8 km/h (1 Bft)
28.02.2016 21:10 1,1 C 1,0 C 86 % 1008,9 hPa 0,0 mm 1,2 km/h (1 Bft) O-SO 112 0 min -1,0 C 6,0 km/h (2 Bft)
28.02.2016 21:11 1,1 C 1,0 C 86 % 1008,9 hPa 0,0 mm 1,2 km/h (1 Bft) O-SO 112 0 min -1,0 C 6,0 km/h (2 Bft)
28.02.2016 21:12 1,1 C 1,0 C 86 % 1008,9 hPa 0,0 mm 1,8 km/h (1 Bft) O-NO 67 0 min -1,0 C 0,0 km/h (0 Bft)
28.02.2016 21:13 1,1 C 1,0 C 86 % 1008,9 hPa 0,0 mm 1,8 km/h (1 Bft) O-NO 67 0 min -1,0 C 0,0 km/h (0 Bft)
28.02.2016 21:14 1,0 C 0,9 C 86 % 1008,9 hPa 0,0 mm 1,8 km/h (1 Bft) O-NO 67 0 min -1,1 C 0,0 km/h (0 Bft)
28.02.2016 21:15 1,0 C 0,9 C 86 % 1008,9 hPa 0,0 mm 1,8 km/h (1 Bft) O-NO 67 0 min -1,1 C 0,0 km/h (0 Bft)
28.02.2016 21:16 1,0 C 0,9 C 86 % 1008,9 hPa 0,0 mm 1,8 km/h (1 Bft) O-SO 112 0 min -1,1 C 0,0 km/h (0 Bft)
28.02.2016 21:17 1,0 C 0,9 C 86 % 1008,9 hPa 0,0 mm 1,8 km/h (1 Bft) O-SO 112 0 min -1,1 C 0,0 km/h (0 Bft)
28.02.2016 21:18 1,0 C 0,9 C 86 % 1008,9 hPa 0,0 mm 1,8 km/h (1 Bft) O 90 0 min -1,1 C 0,0 km/h (0 Bft)
28.02.2016 21:19 1,0 C 0,9 C 86 % 1008,9 hPa 0,0 mm 1,8 km/h (1 Bft) O 90 0 min -1,1 C 0,0 km/h (0 Bft)
28.02.2016 21:20 0,9 C 0,8 C 86 % 1008,9 hPa 0,0 mm 0,9 km/h (0 Bft) O-SO 112 0 min -1,2 C 0,0 km/h (0 Bft)
28.02.2016 21:21 0,9 C 0,8 C 86 % 1008,9 hPa 0,0 mm 0,9 km/h (0 Bft) O-SO 112 0 min -1,2 C 0,0 km/h (0 Bft)
28.02.2016 21:22 0,9 C 0,8 C 86 % 1008,9 hPa 0,0 mm 0,6 km/h (0 Bft) O-NO 67 0 min -1,2 C 0,0 km/h (0 Bft)
28.02.2016 21:23 0,9 C 0,8 C 86 % 1008,9 hPa 0,0 mm 0,6 km/h (0 Bft) O-NO 67 0 min -1,2 C 0,0 km/h (0 Bft)
28.02.2016 21:24 0,8 C 0,7 C 86 % 1008,9 hPa 0,0 mm 0,3 km/h (0 Bft) O-NO 67 0 min -1,3 C 0,0 km/h (0 Bft)
28.02.2016 21:25 0,8 C 0,7 C 86 % 1008,9 hPa 0,0 mm 0,3 km/h (0 Bft) O-NO 67 0 min -1,3 C 0,0 km/h (0 Bft)
28.02.2016 21:26 0,8 C 0,7 C 86 % 1008,9 hPa 0,0 mm 0,3 km/h (0 Bft) O 90 0 min -1,3 C 0,0 km/h (0 Bft)
28.02.2016 21:27 0,8 C 0,7 C 86 % 1008,9 hPa 0,0 mm 0,3 km/h (0 Bft) O 90 0 min -1,3 C 0,0 km/h (0 Bft)
28.02.2016 21:28 0,8 C 0,7 C 86 % 1009,1 hPa 0,0 mm 0,3 km/h (0 Bft) S 180 0 min -1,3 C 0,0 km/h (0 Bft)
28.02.2016 21:29 0,8 C 0,7 C 86 % 1009,1 hPa 0,0 mm 0,3 km/h (0 Bft) S 180 0 min -1,3 C 0,0 km/h (0 Bft)
28.02.2016 21:30 0,8 C 0,7 C 86 % 1009,1 hPa 0,0 mm 0,3 km/h (0 Bft) NO 45 0 min -1,3 C 0,0 km/h (0 Bft)
28.02.2016 21:31 0,8 C 0,7 C 86 % 1009,1 hPa 0,0 mm 0,3 km/h (0 Bft) NO 45 0 min -1,3 C 0,0 km/h (0 Bft)
28.02.2016 21:32 0,8 C 0,7 C 86 % 1009,1 hPa 0,0 mm 0,9 km/h (0 Bft) O-NO 67 0 min -1,3 C 5,7 km/h (1 Bft)
28.02.2016 21:33 0,8 C 0,7 C 86 % 1009,1 hPa 0,0 mm 0,9 km/h (0 Bft) O-NO 67 0 min -1,3 C 5,7 km/h (1 Bft)
28.02.2016 21:34 0,9 C 0,7 C 87 % 1009,1 hPa 0,0 mm 1,2 km/h (1 Bft) O-NO 67 0 min -1,0 C 0,0 km/h (0 Bft)
28.02.2016 21:35 0,9 C 0,7 C 87 % 1009,1 hPa 0,0 mm 1,2 km/h (1 Bft) O-NO 67 0 min -1,0 C 0,0 km/h (0 Bft)
28.02.2016 21:36 0,8 C 0,7 C 87 % 1009,1 hPa 0,0 mm 1,8 km/h (1 Bft) NO 45 0 min -1,1 C 5,4 km/h (1 Bft)
28.02.2016 21:37 0,8 C 0,7 C 87 % 1009,1 hPa 0,0 mm 1,8 km/h (1 Bft) NO 45 0 min -1,1 C 5,4 km/h (1 Bft)
28.02.2016 21:38 0,8 C 0,7 C 87 % 1009,1 hPa 0,0 mm 2,1 km/h (1 Bft) O-NO 67 0 min -1,1 C 4,2 km/h (1 Bft)
28.02.2016 21:39 0,8 C 0,7 C 87 % 1009,1 hPa 0,0 mm 2,1 km/h (1 Bft) O-NO 67 0 min -1,1 C 4,2 km/h (1 Bft)
28.02.2016 21:40 0,8 C 0,7 C 87 % 1009,1 hPa 0,0 mm 3,0 km/h (1 Bft) SO 135 0 min -1,1 C 5,4 km/h (1 Bft)
28.02.2016 21:41 0,8 C 0,7 C 87 % 1009,1 hPa 0,0 mm 3,0 km/h (1 Bft) SO 135 0 min -1,1 C 5,4 km/h (1 Bft)
28.02.2016 21:42 0,8 C 0,7 C 87 % 1009,1 hPa 0,0 mm 3,0 km/h (1 Bft) NO 45 0 min -1,1 C 6,6 km/h (2 Bft)
28.02.2016 21:43 0,8 C 0,7 C 87 % 1009,1 hPa 0,0 mm 3,0 km/h (1 Bft) NO 45 0 min -1,1 C 6,6 km/h (2 Bft)
28.02.2016 21:44 0,8 C 0,6 C 87 % 1009,1 hPa 0,0 mm 3,3 km/h (1 Bft) O-NO 67 0 min -1,1 C 6,0 km/h (2 Bft)
28.02.2016 21:45 0,8 C 0,6 C 87 % 1009,1 hPa 0,0 mm 3,3 km/h (1 Bft) O-NO 67 0 min -1,1 C 6,0 km/h (2 Bft)
28.02.2016 21:46 0,8 C 0,6 C 87 % 1009,1 hPa 0,0 mm 3,9 km/h (1 Bft) NO 45 0 min -1,1 C 7,5 km/h (2 Bft)
28.02.2016 21:47 0,8 C 0,6 C 87 % 1009,1 hPa 0,0 mm 3,9 km/h (1 Bft) NO 45 0 min -1,1 C 7,5 km/h (2 Bft)
28.02.2016 21:48 0,8 C 0,6 C 87 % 1008,8 hPa 0,0 mm 4,8 km/h (1 Bft) N-NO 22 0 min -1,1 C 6,3 km/h (2 Bft)
28.02.2016 21:49 0,8 C 0,6 C 87 % 1008,8 hPa 0,0 mm 4,8 km/h (1 Bft) N-NO 22 0 min -1,1 C 6,3 km/h (2 Bft)
28.02.2016 21:50 0,7 C 0,4 C 87 % 1008,8 hPa 0,0 mm 5,4 km/h (1 Bft) NO 45 0 min -1,2 C 10,1 km/h (2 Bft)
28.02.2016 21:51 0,7 C 0,4 C 87 % 1008,8 hPa 0,0 mm 5,4 km/h (1 Bft) NO 45 0 min -1,2 C 10,1 km/h (2 Bft)
28.02.2016 21:52 0,7 C 0,4 C 87 % 1008,8 hPa 0,0 mm 5,7 km/h (1 Bft) O-NO 67 0 min -1,2 C 8,3 km/h (2 Bft)
28.02.2016 21:53 0,7 C 0,4 C 87 % 1008,8 hPa 0,0 mm 5,7 km/h (1 Bft) O-NO 67 0 min -1,2 C 8,3 km/h (2 Bft)
28.02.2016 21:54 0,7 C 0,5 C 88 % 1008,8 hPa 0,0 mm 5,1 km/h (1 Bft) O-SO 112 0 min -1,1 C 0,0 km/h (0 Bft)
28.02.2016 21:55 0,7 C 0,5 C 88 % 1008,8 hPa 0,0 mm 5,1 km/h (1 Bft) O-SO 112 0 min -1,1 C 0,0 km/h (0 Bft)
28.02.2016 21:56 0,7 C 0,5 C 88 % 1008,8 hPa 0,0 mm 4,5 km/h (1 Bft) SO 135 0 min -1,1 C 3,9 km/h (1 Bft)
28.02.2016 21:57 0,7 C 0,5 C 88 % 1008,8 hPa 0,0 mm 4,5 km/h (1 Bft) SO 135 0 min -1,1 C 3,9 km/h (1 Bft)
28.02.2016 21:58 0,6 C 0,5 C 88 % 1008,8 hPa 0,0 mm 3,6 km/h (1 Bft) NO 45 0 min -1,2 C 6,3 km/h (2 Bft)
28.02.2016 21:59 0,6 C 0,5 C 88 % 1008,8 hPa 0,0 mm 3,6 km/h (1 Bft) NO 45 0 min -1,2 C 6,3 km/h (2 Bft)
28.02.2016 22:00 0,6 C 0,5 C 88 % 1008,8 hPa 0,0 mm 3,6 km/h (1 Bft) O-NO 67 0 min -1,2 C 10,1 km/h (2 Bft)
28.02.2016 22:01 0,6 C 0,5 C 88 % 1008,8 hPa 0,0 mm 3,6 km/h (1 Bft) O-NO 67 0 min -1,2 C 10,1 km/h (2 Bft)
28.02.2016 22:02 0,6 C 0,5 C 88 % 1008,8 hPa 0,0 mm 3,6 km/h (1 Bft) O-NO 67 0 min -1,2 C 10,1 km/h (2 Bft)
28.02.2016 22:03 0,6 C 0,5 C 88 % 1008,8 hPa 0,0 mm 3,6 km/h (1 Bft) O-NO 67 0 min -1,2 C 10,1 km/h (2 Bft)
28.02.2016 22:04 0,6 C 0,5 C 88 % 1008,8 hPa 0,0 mm 4,5 km/h (1 Bft) O-NO 67 0 min -1,2 C 8,6 km/h (2 Bft)
28.02.2016 22:05 0,6 C 0,5 C 88 % 1008,8 hPa 0,0 mm 4,5 km/h (1 Bft) O-NO 67 0 min -1,2 C 8,6 km/h (2 Bft)
28.02.2016 22:06 0,6 C 0,3 C 88 % 1008,8 hPa 0,0 mm 5,4 km/h (1 Bft) O-NO 67 0 min -1,2 C 6,9 km/h (2 Bft)
28.02.2016 22:07 0,6 C 0,3 C 88 % 1008,8 hPa 0,0 mm 5,4 km/h (1 Bft) O-NO 67 0 min -1,2 C 6,9 km/h (2 Bft)
28.02.2016 22:08 0,6 C 0,2 C 88 % 1008,9 hPa 0,0 mm 6,3 km/h (2 Bft) O-SO 112 0 min -1,2 C 7,7 km/h (2 Bft)
28.02.2016 22:09 0,6 C 0,2 C 88 % 1008,9 hPa 0,0 mm 6,3 km/h (2 Bft) O-SO 112 0 min -1,2 C 7,7 km/h (2 Bft)
28.02.2016 22:10 0,5 C 0,1 C 88 % 1008,9 hPa 0,0 mm 6,3 km/h (2 Bft) O-NO 67 0 min -1,3 C 7,2 km/h (2 Bft)
28.02.2016 22:11 0,5 C 0,1 C 88 % 1008,9 hPa 0,0 mm 6,3 km/h (2 Bft) O-NO 67 0 min -1,3 C 7,2 km/h (2 Bft)
28.02.2016 22:12 0,5 C 0,2 C 88 % 1008,9 hPa 0,0 mm 5,4 km/h (1 Bft) O 90 0 min -1,3 C 6,0 km/h (2 Bft)
28.02.2016 22:13 0,5 C 0,2 C 88 % 1008,9 hPa 0,0 mm 5,4 km/h (1 Bft) O 90 0 min -1,3 C 6,0 km/h (2 Bft)
28.02.2016 22:14 0,5 C 0,1 C 88 % 1008,9 hPa 0,0 mm 6,0 km/h (2 Bft) O-NO 67 0 min -1,3 C 9,5 km/h (2 Bft)
28.02.2016 22:15 0,5 C 0,1 C 88 % 1008,9 hPa 0,0 mm 6,0 km/h (2 Bft) O-NO 67 0 min -1,3 C 9,5 km/h (2 Bft)
28.02.2016 22:16 0,5 C 0,1 C 88 % 1008,9 hPa 0,0 mm 6,3 km/h (2 Bft) O-NO 67 0 min -1,3 C 13,7 km/h (3 Bft)
28.02.2016 22:17 0,5 C 0,1 C 88 % 1008,9 hPa 0,0 mm 6,3 km/h (2 Bft) O-NO 67 0 min -1,3 C 13,7 km/h (3 Bft)
28.02.2016 22:18 0,4 C -0,1 C 89 % 1008,9 hPa 0,0 mm 7,2 km/h (2 Bft) O-NO 67 0 min -1,2 C 10,7 km/h (2 Bft)
28.02.2016 22:19 0,4 C -0,1 C 89 % 1008,9 hPa 0,0 mm 7,2 km/h (2 Bft) O-NO 67 0 min -1,2 C 10,7 km/h (2 Bft)
28.02.2016 22:20 0,4 C -0,1 C 89 % 1008,9 hPa 0,0 mm 7,2 km/h (2 Bft) O-NO 67 0 min -1,2 C 7,7 km/h (2 Bft)
28.02.2016 22:21 0,4 C -0,1 C 89 % 1008,9 hPa 0,0 mm 7,2 km/h (2 Bft) O-NO 67 0 min -1,2 C 7,7 km/h (2 Bft)
28.02.2016 22:22 0,4 C -0,2 C 89 % 1008,9 hPa 0,0 mm 7,5 km/h (2 Bft) O-NO 67 0 min -1,2 C 7,2 km/h (2 Bft)
28.02.2016 22:23 0,4 C -0,2 C 89 % 1008,9 hPa 0,0 mm 7,5 km/h (2 Bft) O-NO 67 0 min -1,2 C 7,2 km/h (2 Bft)
28.02.2016 22:24 0,4 C -0,2 C 89 % 1008,9 hPa 0,0 mm 7,7 km/h (2 Bft) O-SO 112 0 min -1,2 C 7,7 km/h (2 Bft)
28.02.2016 22:25 0,4 C -0,2 C 89 % 1008,9 hPa 0,0 mm 7,7 km/h (2 Bft) O-SO 112 0 min -1,2 C 7,7 km/h (2 Bft)
28.02.2016 22:26 0,4 C -0,1 C 89 % 1008,9 hPa 0,0 mm 6,6 km/h (2 Bft) O-NO 67 0 min -1,2 C 0,0 km/h (0 Bft)
28.02.2016 22:27 0,4 C -0,1 C 89 % 1008,9 hPa 0,0 mm 6,6 km/h (2 Bft) O-NO 67 0 min -1,2 C 0,0 km/h (0 Bft)
28.02.2016 22:28 0,4 C 0,0 C 89 % 1008,8 hPa 0,0 mm 5,7 km/h (1 Bft) O-NO 67 0 min -1,2 C 4,8 km/h (1 Bft)
28.02.2016 22:29 0,4 C 0,0 C 89 % 1008,8 hPa 0,0 mm 5,7 km/h (1 Bft) O-NO 67 0 min -1,2 C 4,8 km/h (1 Bft)
28.02.2016 22:30 0,3 C -0,1 C 89 % 1008,8 hPa 0,0 mm 5,7 km/h (1 Bft) NO 45 0 min -1,3 C 13,1 km/h (3 Bft)
28.02.2016 22:31 0,3 C -0,1 C 89 % 1008,8 hPa 0,0 mm 5,7 km/h (1 Bft) NO 45 0 min -1,3 C 13,1 km/h (3 Bft)
28.02.2016 22:32 0,3 C 0,0 C 89 % 1008,8 hPa 0,0 mm 5,4 km/h (1 Bft) NO 45 0 min -1,3 C 8,0 km/h (2 Bft)
28.02.2016 22:33 0,3 C 0,0 C 89 % 1008,8 hPa 0,0 mm 5,4 km/h (1 Bft) NO 45 0 min -1,3 C 8,0 km/h (2 Bft)
28.02.2016 22:34 0,3 C 0,1 C 89 % 1008,8 hPa 0,0 mm 4,8 km/h (1 Bft) O-SO 112 0 min -1,3 C 6,3 km/h (2 Bft)
28.02.2016 22:35 0,3 C 0,1 C 89 % 1008,8 hPa 0,0 mm 4,8 km/h (1 Bft) O-SO 112 0 min -1,3 C 6,3 km/h (2 Bft)
28.02.2016 22:36 0,3 C 0,1 C 89 % 1008,8 hPa 0,0 mm 4,2 km/h (1 Bft) NO 45 0 min -1,3 C 0,0 km/h (0 Bft)
28.02.2016 22:37 0,3 C 0,1 C 89 % 1008,8 hPa 0,0 mm 4,2 km/h (1 Bft) NO 45 0 min -1,3 C 0,0 km/h (0 Bft)
28.02.2016 22:38 0,3 C 0,1 C 89 % 1008,8 hPa 0,0 mm 3,6 km/h (1 Bft) O-NO 67 0 min -1,3 C 0,0 km/h (0 Bft)
28.02.2016 22:39 0,3 C 0,1 C 89 % 1008,8 hPa 0,0 mm 3,6 km/h (1 Bft) O-NO 67 0 min -1,3 C 0,0 km/h (0 Bft)
28.02.2016 22:40 0,3 C 0,1 C 89 % 1008,8 hPa 0,0 mm 3,3 km/h (1 Bft) O-NO 67 0 min -1,3 C 7,2 km/h (2 Bft)
28.02.2016 22:41 0,3 C 0,1 C 89 % 1008,8 hPa 0,0 mm 3,3 km/h (1 Bft) O-NO 67 0 min -1,3 C 7,2 km/h (2 Bft)
28.02.2016 22:42 0,2 C 0,0 C 89 % 1008,8 hPa 0,0 mm 3,3 km/h (1 Bft) O-NO 67 0 min -1,4 C 6,9 km/h (2 Bft)
28.02.2016 22:43 0,2 C 0,0 C 89 % 1008,8 hPa 0,0 mm 3,3 km/h (1 Bft) O-NO 67 0 min -1,4 C 6,9 km/h (2 Bft)
28.02.2016 22:44 0,2 C 0,0 C 89 % 1008,8 hPa 0,0 mm 3,3 km/h (1 Bft) NO 45 0 min -1,4 C 9,5 km/h (2 Bft)
28.02.2016 22:45 0,2 C 0,0 C 89 % 1008,8 hPa 0,0 mm 3,3 km/h (1 Bft) NO 45 0 min -1,4 C 9,5 km/h (2 Bft)
28.02.2016 22:46 0,2 C 0,0 C 89 % 1008,8 hPa 0,0 mm 4,2 km/h (1 Bft) NO 45 0 min -1,4 C 4,2 km/h (1 Bft)
28.02.2016 22:47 0,2 C 0,0 C 89 % 1008,8 hPa 0,0 mm 4,2 km/h (1 Bft) NO 45 0 min -1,4 C 4,2 km/h (1 Bft)
28.02.2016 22:48 0,2 C -0,1 C 89 % 1009,0 hPa 0,0 mm 4,8 km/h (1 Bft) S-SW 202 0 min -1,4 C 6,3 km/h (2 Bft)
28.02.2016 22:49 0,2 C -0,1 C 89 % 1009,0 hPa 0,0 mm 4,8 km/h (1 Bft) S-SW 202 0 min -1,4 C 6,3 km/h (2 Bft)
28.02.2016 22:50 0,2 C -0,2 C 89 % 1009,0 hPa 0,0 mm 5,7 km/h (1 Bft) O-NO 67 0 min -1,4 C 11,3 km/h (2 Bft)
28.02.2016 22:51 0,2 C -0,2 C 89 % 1009,0 hPa 0,0 mm 5,7 km/h (1 Bft) O-NO 67 0 min -1,4 C 11,3 km/h (2 Bft)
28.02.2016 22:52 0,2 C -0,3 C 89 % 1009,0 hPa 0,0 mm 6,6 km/h (2 Bft) NO 45 0 min -1,4 C 8,9 km/h (2 Bft)
28.02.2016 22:53 0,2 C -0,3 C 89 % 1009,0 hPa 0,0 mm 6,6 km/h (2 Bft) NO 45 0 min -1,4 C 8,9 km/h (2 Bft)
28.02.2016 22:54 0,2 C -0,3 C 89 % 1009,0 hPa 0,0 mm 6,6 km/h (2 Bft) O 90 0 min -1,4 C 6,3 km/h (2 Bft)
28.02.2016 22:55 0,2 C -0,3 C 89 % 1009,0 hPa 0,0 mm 6,6 km/h (2 Bft) O 90 0 min -1,4 C 6,3 km/h (2 Bft)
28.02.2016 22:56 0,2 C -0,3 C 89 % 1009,0 hPa 0,0 mm 6,0 km/h (2 Bft) O-NO 67 0 min -1,4 C 11,3 km/h (2 Bft)
28.02.2016 22:57 0,2 C -0,3 C 89 % 1009,0 hPa 0,0 mm 6,0 km/h (2 Bft) O-NO 67 0 min -1,4 C 11,3 km/h (2 Bft)
28.02.2016 22:58 0,2 C -0,3 C 89 % 1009,0 hPa 0,0 mm 6,6 km/h (2 Bft) O-NO 67 0 min -1,4 C 6,0 km/h (2 Bft)
28.02.2016 22:59 0,2 C -0,3 C 89 % 1009,0 hPa 0,0 mm 6,6 km/h (2 Bft) O-NO 67 0 min -1,4 C 6,0 km/h (2 Bft)
28.02.2016 23:00 0,1 C -0,5 C 89 % 1009,0 hPa 0,0 mm 6,9 km/h (2 Bft) O-NO 67 0 min -1,5 C 4,8 km/h (1 Bft)
28.02.2016 23:01 0,1 C -0,5 C 89 % 1009,0 hPa 0,0 mm 6,9 km/h (2 Bft) O-NO 67 0 min -1,5 C 4,8 km/h (1 Bft)
28.02.2016 23:02 0,1 C -0,5 C 89 % 1009,0 hPa 0,0 mm 6,9 km/h (2 Bft) NO 45 0 min -1,5 C 11,3 km/h (2 Bft)
28.02.2016 23:03 0,1 C -0,5 C 89 % 1009,0 hPa 0,0 mm 6,9 km/h (2 Bft) NO 45 0 min -1,5 C 11,3 km/h (2 Bft)
28.02.2016 23:05 0,1 C -0,4 C 89 % 1009,0 hPa 0,0 mm 6,6 km/h (2 Bft) O-NO 67 0 min -1,5 C 5,7 km/h (1 Bft)
28.02.2016 23:06 0,1 C -0,4 C 89 % 1009,0 hPa 0,0 mm 6,3 km/h (2 Bft) O-NO 67 0 min -1,5 C 4,5 km/h (1 Bft)
28.02.2016 23:07 0,1 C -0,4 C 89 % 1009,0 hPa 0,0 mm 6,3 km/h (2 Bft) O-NO 67 0 min -1,5 C 4,5 km/h (1 Bft)
28.02.2016 23:08 0,1 C -0,4 C 89 % 1008,8 hPa 0,0 mm 6,3 km/h (2 Bft) O-NO 67 0 min -1,5 C 9,5 km/h (2 Bft)
28.02.2016 23:09 0,1 C -0,4 C 89 % 1008,8 hPa 0,0 mm 6,3 km/h (2 Bft) O-NO 67 0 min -1,5 C 9,5 km/h (2 Bft)
28.02.2016 23:10 0,0 C -0,6 C 89 % 1008,8 hPa 0,0 mm 6,9 km/h (2 Bft) NO 45 0 min -1,6 C 10,1 km/h (2 Bft)
28.02.2016 23:11 0,0 C -0,6 C 89 % 1008,8 hPa 0,0 mm 6,9 km/h (2 Bft) NO 45 0 min -1,6 C 10,1 km/h (2 Bft)
28.02.2016 23:12 0,1 C -0,5 C 90 % 1008,8 hPa 0,0 mm 6,9 km/h (2 Bft) O-NO 67 0 min -1,3 C 11,9 km/h (2 Bft)
28.02.2016 23:13 0,1 C -0,5 C 90 % 1008,8 hPa 0,0 mm 6,9 km/h (2 Bft) O-NO 67 0 min -1,3 C 11,9 km/h (2 Bft)
28.02.2016 23:14 0,0 C -0,6 C 90 % 1008,8 hPa 0,0 mm 7,2 km/h (2 Bft) O-NO 67 0 min -1,4 C 10,7 km/h (2 Bft)
28.02.2016 23:15 0,0 C -0,6 C 90 % 1008,8 hPa 0,0 mm 7,2 km/h (2 Bft) O-NO 67 0 min -1,4 C 10,7 km/h (2 Bft)
28.02.2016 23:16 0,0 C -0,7 C 90 % 1008,8 hPa 0,0 mm 8,0 km/h (2 Bft) O-NO 67 0 min -1,4 C 7,5 km/h (2 Bft)
28.02.2016 23:17 0,0 C -0,7 C 90 % 1008,8 hPa 0,0 mm 8,0 km/h (2 Bft) O-NO 67 0 min -1,4 C 7,5 km/h (2 Bft)
28.02.2016 23:18 0,0 C -0,8 C 90 % 1008,8 hPa 0,0 mm 8,9 km/h (2 Bft) NO 45 0 min -1,4 C 11,9 km/h (2 Bft)
28.02.2016 23:19 0,0 C -0,8 C 90 % 1008,8 hPa 0,0 mm 8,9 km/h (2 Bft) NO 45 0 min -1,4 C 11,9 km/h (2 Bft)
28.02.2016 23:20 0,0 C -0,9 C 90 % 1008,8 hPa 0,0 mm 9,5 km/h (2 Bft) O-NO 67 0 min -1,4 C 11,9 km/h (2 Bft)
28.02.2016 23:21 0,0 C -0,9 C 90 % 1008,8 hPa 0,0 mm 9,5 km/h (2 Bft) O-NO 67 0 min -1,4 C 11,9 km/h (2 Bft)
28.02.2016 23:22 0,0 C -0,9 C 90 % 1008,8 hPa 0,0 mm 9,5 km/h (2 Bft) NO 45 0 min -1,4 C 9,2 km/h (2 Bft)
28.02.2016 23:23 0,0 C -0,9 C 90 % 1008,8 hPa 0,0 mm 9,5 km/h (2 Bft) NO 45 0 min -1,4 C 9,2 km/h (2 Bft)
28.02.2016 23:24 0,0 C -0,9 C 90 % 1008,8 hPa 0,0 mm 9,5 km/h (2 Bft) O-NO 67 0 min -1,4 C 10,1 km/h (2 Bft)
28.02.2016 23:25 0,0 C -0,9 C 90 % 1008,8 hPa 0,0 mm 9,5 km/h (2 Bft) O-NO 67 0 min -1,4 C 10,1 km/h (2 Bft)
28.02.2016 23:26 -0,1 C -0,8 C 90 % 1008,8 hPa 0,0 mm 8,0 km/h (2 Bft) O-NO 67 0 min -1,5 C 3,6 km/h (1 Bft)
28.02.2016 23:27 -0,1 C -0,8 C 90 % 1008,8 hPa 0,0 mm 8,0 km/h (2 Bft) O-NO 67 0 min -1,5 C 3,6 km/h (1 Bft)
28.02.2016 23:28 -0,1 C -0,8 C 90 % 1008,6 hPa 0,0 mm 7,7 km/h (2 Bft) NO 45 0 min -1,5 C 8,3 km/h (2 Bft)
28.02.2016 23:29 -0,1 C -0,8 C 90 % 1008,6 hPa 0,0 mm 7,7 km/h (2 Bft) NO 45 0 min -1,5 C 8,3 km/h (2 Bft)
28.02.2016 23:30 -0,1 C -0,7 C 90 % 1008,6 hPa 0,0 mm 6,9 km/h (2 Bft) NO 45 0 min -1,5 C 5,1 km/h (1 Bft)
28.02.2016 23:31 -0,1 C -0,7 C 90 % 1008,6 hPa 0,0 mm 6,9 km/h (2 Bft) NO 45 0 min -1,5 C 5,1 km/h (1 Bft)
28.02.2016 23:32 -0,1 C -0,6 C 90 % 1008,6 hPa 0,0 mm 6,3 km/h (2 Bft) O-NO 67 0 min -1,5 C 9,2 km/h (2 Bft)
28.02.2016 23:33 -0,1 C -0,6 C 90 % 1008,6 hPa 0,0 mm 6,3 km/h (2 Bft) O-NO 67 0 min -1,5 C 9,2 km/h (2 Bft)
28.02.2016 23:34 -0,1 C -0,5 C 90 % 1008,6 hPa 0,0 mm 5,7 km/h (1 Bft) O-NO 67 0 min -1,5 C 5,1 km/h (1 Bft)
28.02.2016 23:35 -0,1 C -0,5 C 90 % 1008,6 hPa 0,0 mm 5,7 km/h (1 Bft) O-NO 67 0 min -1,5 C 5,1 km/h (1 Bft)
28.02.2016 23:36 -0,1 C -0,5 C 90 % 1008,6 hPa 0,0 mm 5,4 km/h (1 Bft) O 90 0 min -1,5 C 7,2 km/h (2 Bft)
28.02.2016 23:37 -0,1 C -0,5 C 90 % 1008,6 hPa 0,0 mm 5,4 km/h (1 Bft) O 90 0 min -1,5 C 7,2 km/h (2 Bft)
28.02.2016 23:38 -0,1 C -0,5 C 90 % 1008,6 hPa 0,0 mm 5,4 km/h (1 Bft) O-NO 67 0 min -1,5 C 4,5 km/h (1 Bft)
28.02.2016 23:39 -0,1 C -0,5 C 90 % 1008,6 hPa 0,0 mm 5,4 km/h (1 Bft) O-NO 67 0 min -1,5 C 4,5 km/h (1 Bft)
28.02.2016 23:40 -0,1 C -0,4 C 90 % 1008,6 hPa 0,0 mm 5,1 km/h (1 Bft) O-NO 67 0 min -1,5 C 4,5 km/h (1 Bft)
28.02.2016 23:41 -0,1 C -0,4 C 90 % 1008,6 hPa 0,0 mm 5,1 km/h (1 Bft) O-NO 67 0 min -1,5 C 4,5 km/h (1 Bft)
28.02.2016 23:42 -0,1 C -0,4 C 90 % 1008,6 hPa 0,0 mm 4,2 km/h (1 Bft) O 90 0 min -1,5 C 4,8 km/h (1 Bft)
28.02.2016 23:43 -0,1 C -0,4 C 90 % 1008,6 hPa 0,0 mm 4,2 km/h (1 Bft) O 90 0 min -1,5 C 4,8 km/h (1 Bft)
28.02.2016 23:44 -0,1 C -0,4 C 90 % 1008,6 hPa 0,0 mm 3,6 km/h (1 Bft) O-SO 112 0 min -1,5 C 4,8 km/h (1 Bft)
28.02.2016 23:45 -0,1 C -0,4 C 90 % 1008,6 hPa 0,0 mm 3,6 km/h (1 Bft) O-SO 112 0 min -1,5 C 4,8 km/h (1 Bft)
28.02.2016 23:46 -0,1 C -0,4 C 90 % 1008,6 hPa 0,0 mm 2,7 km/h (1 Bft) O-SO 112 0 min -1,5 C 0,0 km/h (0 Bft)
28.02.2016 23:47 -0,1 C -0,4 C 90 % 1008,6 hPa 0,0 mm 2,7 km/h (1 Bft) O-SO 112 0 min -1,5 C 0,0 km/h (0 Bft)
28.02.2016 23:48 -0,1 C -0,4 C 91 % 1008,4 hPa 0,0 mm 2,4 km/h (1 Bft) NO 45 0 min -1,4 C 0,0 km/h (0 Bft)
28.02.2016 23:49 -0,1 C -0,4 C 91 % 1008,4 hPa 0,0 mm 2,4 km/h (1 Bft) NO 45 0 min -1,4 C 0,0 km/h (0 Bft)
28.02.2016 23:50 -0,1 C -0,4 C 91 % 1008,4 hPa 0,0 mm 2,7 km/h (1 Bft) O-SO 112 0 min -1,4 C 6,9 km/h (2 Bft)
28.02.2016 23:51 -0,1 C -0,4 C 91 % 1008,4 hPa 0,0 mm 2,7 km/h (1 Bft) O-SO 112 0 min -1,4 C 6,9 km/h (2 Bft)
28.02.2016 23:52 -0,1 C -0,4 C 91 % 1008,4 hPa 0,0 mm 3,0 km/h (1 Bft) NO 45 0 min -1,4 C 4,2 km/h (1 Bft)
28.02.2016 23:53 -0,1 C -0,4 C 91 % 1008,4 hPa 0,0 mm 3,0 km/h (1 Bft) NO 45 0 min -1,4 C 4,2 km/h (1 Bft)
28.02.2016 23:54 -0,1 C -0,4 C 91 % 1008,4 hPa 0,0 mm 3,3 km/h (1 Bft) O-SO 112 0 min -1,4 C 4,5 km/h (1 Bft)
28.02.2016 23:55 -0,1 C -0,4 C 91 % 1008,4 hPa 0,0 mm 3,3 km/h (1 Bft) O-SO 112 0 min -1,4 C 4,5 km/h (1 Bft)
28.02.2016 23:56 -0,1 C -0,4 C 91 % 1008,4 hPa 0,0 mm 3,9 km/h (1 Bft) O-NO 67 0 min -1,4 C 8,9 km/h (2 Bft)
28.02.2016 23:57 -0,1 C -0,4 C 91 % 1008,4 hPa 0,0 mm 3,9 km/h (1 Bft) O-NO 67 0 min -1,4 C 8,9 km/h (2 Bft)
28.02.2016 23:58 -0,1 C -0,4 C 91 % 1008,4 hPa 0,0 mm 3,9 km/h (1 Bft) NO 45 0 min -1,4 C 0,0 km/h (0 Bft)
28.02.2016 23:59 -0,1 C -0,4 C 91 % 1008,4 hPa 0,0 mm 3,9 km/h (1 Bft) NO 45 0 min -1,4 C 0,0 km/h (0 Bft)
_ Min-Zeit 00:11 00:13 16:41 03:47 - 21:07 - - - 00:11 23:59
Minimum _ -3,2 C -3,3 C 76 % 1004,0 hPa - 0,0 km/h (0 Bft) - - - -4,6 C 0,0 km/h (0 Bft)
_ Max-Zeit 14:47 13:15 10:13 21:47 23:59 14:03 - - 13:03 12:53 04:55
Maximum _ 4,3 C 8,3 C 93 % 1009,1 hPa 0,0 mm 9,8 km/h
O-NO (2 Bft)
- - 1 min 1,2 C 20,9 km/h
SW (4 Bft)
Durchschnitt _ 0,4 C 1,0 C 87 % 1006,3 hPa #0,0 mm 2,7 km/h (1 Bft) O-NO - #8 min. -1,6 C 3,4 km/h (1 Bft)